<?xml version="1.0" encoding="UTF-8" standalone="no" ?>
<gpx xmlns="http://www.topografix.com/GPX/1/1" xmlns:xsi="http://www.w3.org/2001/XMLSchema-instance" xsi:schemaLocation="http://www.topografix.com/GPX/1/1 http://www.topografix.com/GPX/1/1/gpx.xsd" version="1.1" creator="VisuGPX - https://www.visugpx.com">
  <metadata>
    <name>Liset de Hount Blanque (Ski)</name>
    <desc><![CDATA[Trace enregistrée le 21/02/2013]]></desc>
  </metadata>
  <trk>
    <name><![CDATA[2013-02-21 13:37:35]]></name>
    <trkseg>
      <trkpt lat="42.98999" lon="0.19409">
        <ele>1073.93</ele>
        <time>2013-02-21T08:05:19Z</time>
      </trkpt>
      <trkpt lat="42.99" lon="0.19406">
        <ele>1073.93</ele>
        <time>2013-02-21T08:05:39Z</time>
      </trkpt>
      <trkpt lat="42.98996" lon="0.19406">
        <ele>1073.93</ele>
        <time>2013-02-21T08:05:51Z</time>
      </trkpt>
      <trkpt lat="42.98993" lon="0.19407">
        <ele>1073.93</ele>
        <time>2013-02-21T08:06:08Z</time>
      </trkpt>
      <trkpt lat="42.98993" lon="0.19408">
        <ele>1073.45</ele>
        <time>2013-02-21T08:06:21Z</time>
      </trkpt>
      <trkpt lat="42.98997" lon="0.19413">
        <ele>1068.64</ele>
        <time>2013-02-21T08:06:46Z</time>
      </trkpt>
      <trkpt lat="42.98997" lon="0.19412">
        <ele>1069.12</ele>
        <time>2013-02-21T08:06:47Z</time>
      </trkpt>
      <trkpt lat="42.98997" lon="0.19412">
        <ele>1073.93</ele>
        <time>2013-02-21T08:06:48Z</time>
      </trkpt>
      <trkpt lat="42.98997" lon="0.19412">
        <ele>1073.93</ele>
        <time>2013-02-21T08:06:49Z</time>
      </trkpt>
      <trkpt lat="42.98994" lon="0.19411">
        <ele>1073.45</ele>
        <time>2013-02-21T08:07:15Z</time>
      </trkpt>
      <trkpt lat="42.98996" lon="0.1941">
        <ele>1073.45</ele>
        <time>2013-02-21T08:07:45Z</time>
      </trkpt>
      <trkpt lat="42.98996" lon="0.1941">
        <ele>1073.93</ele>
        <time>2013-02-21T08:08:13Z</time>
      </trkpt>
      <trkpt lat="42.98997" lon="0.1941">
        <ele>1073.45</ele>
        <time>2013-02-21T08:08:42Z</time>
      </trkpt>
      <trkpt lat="42.98996" lon="0.1941">
        <ele>1079.7</ele>
        <time>2013-02-21T08:08:57Z</time>
      </trkpt>
      <trkpt lat="42.98996" lon="0.1941">
        <ele>1075.85</ele>
        <time>2013-02-21T08:08:58Z</time>
      </trkpt>
      <trkpt lat="42.98996" lon="0.19409">
        <ele>1073.93</ele>
        <time>2013-02-21T08:09:00Z</time>
      </trkpt>
      <trkpt lat="42.98991" lon="0.19407">
        <ele>1056.63</ele>
        <time>2013-02-21T08:09:14Z</time>
      </trkpt>
      <trkpt lat="42.98991" lon="0.19406">
        <ele>1072.49</ele>
        <time>2013-02-21T08:09:15Z</time>
      </trkpt>
      <trkpt lat="42.98991" lon="0.19406">
        <ele>1073.45</ele>
        <time>2013-02-21T08:09:17Z</time>
      </trkpt>
      <trkpt lat="42.9899" lon="0.19405">
        <ele>1080.18</ele>
        <time>2013-02-21T08:09:41Z</time>
      </trkpt>
      <trkpt lat="42.9899" lon="0.19405">
        <ele>1074.89</ele>
        <time>2013-02-21T08:09:42Z</time>
      </trkpt>
      <trkpt lat="42.9899" lon="0.19405">
        <ele>1073.45</ele>
        <time>2013-02-21T08:09:44Z</time>
      </trkpt>
      <trkpt lat="42.98993" lon="0.1941">
        <ele>1069.6</ele>
        <time>2013-02-21T08:10:14Z</time>
      </trkpt>
      <trkpt lat="42.98994" lon="0.19411">
        <ele>1056.63</ele>
        <time>2013-02-21T08:10:15Z</time>
      </trkpt>
      <trkpt lat="42.98994" lon="0.19411">
        <ele>1074.41</ele>
        <time>2013-02-21T08:10:16Z</time>
      </trkpt>
      <trkpt lat="42.98995" lon="0.19412">
        <ele>1073.45</ele>
        <time>2013-02-21T08:10:17Z</time>
      </trkpt>
      <trkpt lat="42.98999" lon="0.19409">
        <ele>1074.41</ele>
        <time>2013-02-21T08:10:40Z</time>
      </trkpt>
      <trkpt lat="42.98998" lon="0.19407">
        <ele>1073.93</ele>
        <time>2013-02-21T08:10:54Z</time>
      </trkpt>
      <trkpt lat="42.99001" lon="0.1941">
        <ele>1074.41</ele>
        <time>2013-02-21T08:11:13Z</time>
      </trkpt>
      <trkpt lat="42.98999" lon="0.19406">
        <ele>1074.89</ele>
        <time>2013-02-21T08:11:27Z</time>
      </trkpt>
      <trkpt lat="42.98999" lon="0.19392">
        <ele>1076.33</ele>
        <time>2013-02-21T08:11:41Z</time>
      </trkpt>
      <trkpt lat="42.99002" lon="0.19379">
        <ele>1077.29</ele>
        <time>2013-02-21T08:11:54Z</time>
      </trkpt>
      <trkpt lat="42.99003" lon="0.19364">
        <ele>1078.74</ele>
        <time>2013-02-21T08:12:07Z</time>
      </trkpt>
      <trkpt lat="42.99006" lon="0.19352">
        <ele>1079.7</ele>
        <time>2013-02-21T08:12:19Z</time>
      </trkpt>
      <trkpt lat="42.99009" lon="0.19336">
        <ele>1081.62</ele>
        <time>2013-02-21T08:12:31Z</time>
      </trkpt>
      <trkpt lat="42.9901" lon="0.19326">
        <ele>1082.1</ele>
        <time>2013-02-21T08:12:43Z</time>
      </trkpt>
      <trkpt lat="42.99009" lon="0.19306">
        <ele>1082.58</ele>
        <time>2013-02-21T08:12:58Z</time>
      </trkpt>
      <trkpt lat="42.99009" lon="0.19302">
        <ele>1083.06</ele>
        <time>2013-02-21T08:13:13Z</time>
      </trkpt>
      <trkpt lat="42.9901" lon="0.1929">
        <ele>1083.54</ele>
        <time>2013-02-21T08:13:26Z</time>
      </trkpt>
      <trkpt lat="42.99007" lon="0.19288">
        <ele>1084.99</ele>
        <time>2013-02-21T08:13:41Z</time>
      </trkpt>
      <trkpt lat="42.99003" lon="0.1929">
        <ele>1086.43</ele>
        <time>2013-02-21T08:13:56Z</time>
      </trkpt>
      <trkpt lat="42.98998" lon="0.19292">
        <ele>1087.87</ele>
        <time>2013-02-21T08:14:08Z</time>
      </trkpt>
      <trkpt lat="42.98994" lon="0.19292">
        <ele>1089.31</ele>
        <time>2013-02-21T08:14:23Z</time>
      </trkpt>
      <trkpt lat="42.98992" lon="0.19291">
        <ele>1090.75</ele>
        <time>2013-02-21T08:14:37Z</time>
      </trkpt>
      <trkpt lat="42.9899" lon="0.19294">
        <ele>1091.23</ele>
        <time>2013-02-21T08:14:54Z</time>
      </trkpt>
      <trkpt lat="42.98988" lon="0.19295">
        <ele>1091.71</ele>
        <time>2013-02-21T08:15:14Z</time>
      </trkpt>
      <trkpt lat="42.98992" lon="0.19295">
        <ele>1091.71</ele>
        <time>2013-02-21T08:15:31Z</time>
      </trkpt>
      <trkpt lat="42.98993" lon="0.19295">
        <ele>1091.71</ele>
        <time>2013-02-21T08:15:45Z</time>
      </trkpt>
      <trkpt lat="42.98992" lon="0.19296">
        <ele>1092.2</ele>
        <time>2013-02-21T08:16:02Z</time>
      </trkpt>
      <trkpt lat="42.98988" lon="0.19296">
        <ele>1092.2</ele>
        <time>2013-02-21T08:16:21Z</time>
      </trkpt>
      <trkpt lat="42.98989" lon="0.19296">
        <ele>1092.68</ele>
        <time>2013-02-21T08:16:34Z</time>
      </trkpt>
      <trkpt lat="42.98987" lon="0.19292">
        <ele>1093.16</ele>
        <time>2013-02-21T08:16:47Z</time>
      </trkpt>
      <trkpt lat="42.98986" lon="0.19291">
        <ele>1093.16</ele>
        <time>2013-02-21T08:17:12Z</time>
      </trkpt>
      <trkpt lat="42.98985" lon="0.19289">
        <ele>1093.16</ele>
        <time>2013-02-21T08:17:45Z</time>
      </trkpt>
      <trkpt lat="42.98984" lon="0.1929">
        <ele>1093.16</ele>
        <time>2013-02-21T08:18:04Z</time>
      </trkpt>
      <trkpt lat="42.98982" lon="0.19293">
        <ele>1092.68</ele>
        <time>2013-02-21T08:18:27Z</time>
      </trkpt>
      <trkpt lat="42.98982" lon="0.19293">
        <ele>1092.68</ele>
        <time>2013-02-21T08:18:46Z</time>
      </trkpt>
      <trkpt lat="42.9898" lon="0.19291">
        <ele>1093.16</ele>
        <time>2013-02-21T08:19:14Z</time>
      </trkpt>
      <trkpt lat="42.98983" lon="0.19291">
        <ele>1092.68</ele>
        <time>2013-02-21T08:19:37Z</time>
      </trkpt>
      <trkpt lat="42.98982" lon="0.19293">
        <ele>1093.16</ele>
        <time>2013-02-21T08:20:08Z</time>
      </trkpt>
      <trkpt lat="42.98986" lon="0.19292">
        <ele>1092.68</ele>
        <time>2013-02-21T08:20:31Z</time>
      </trkpt>
      <trkpt lat="42.98986" lon="0.19292">
        <ele>1094.6</ele>
        <time>2013-02-21T08:20:35Z</time>
      </trkpt>
      <trkpt lat="42.98986" lon="0.1929">
        <ele>1095.56</ele>
        <time>2013-02-21T08:20:48Z</time>
      </trkpt>
      <trkpt lat="42.98985" lon="0.19279">
        <ele>1096.52</ele>
        <time>2013-02-21T08:21:02Z</time>
      </trkpt>
      <trkpt lat="42.98984" lon="0.19274">
        <ele>1097.48</ele>
        <time>2013-02-21T08:21:16Z</time>
      </trkpt>
      <trkpt lat="42.98984" lon="0.19269">
        <ele>1097.96</ele>
        <time>2013-02-21T08:21:41Z</time>
      </trkpt>
      <trkpt lat="42.98983" lon="0.19249">
        <ele>1100.37</ele>
        <time>2013-02-21T08:22:00Z</time>
      </trkpt>
      <trkpt lat="42.98982" lon="0.19236">
        <ele>1102.29</ele>
        <time>2013-02-21T08:22:13Z</time>
      </trkpt>
      <trkpt lat="42.98981" lon="0.19223">
        <ele>1104.69</ele>
        <time>2013-02-21T08:22:27Z</time>
      </trkpt>
      <trkpt lat="42.98981" lon="0.1921">
        <ele>1107.1</ele>
        <time>2013-02-21T08:22:42Z</time>
      </trkpt>
      <trkpt lat="42.9898" lon="0.19195">
        <ele>1109.5</ele>
        <time>2013-02-21T08:22:59Z</time>
      </trkpt>
      <trkpt lat="42.98979" lon="0.19179">
        <ele>1110.94</ele>
        <time>2013-02-21T08:23:15Z</time>
      </trkpt>
      <trkpt lat="42.98978" lon="0.19166">
        <ele>1112.86</ele>
        <time>2013-02-21T08:23:29Z</time>
      </trkpt>
      <trkpt lat="42.98977" lon="0.19156">
        <ele>1114.79</ele>
        <time>2013-02-21T08:23:42Z</time>
      </trkpt>
      <trkpt lat="42.98974" lon="0.19145">
        <ele>1116.71</ele>
        <time>2013-02-21T08:23:57Z</time>
      </trkpt>
      <trkpt lat="42.98968" lon="0.19134">
        <ele>1118.15</ele>
        <time>2013-02-21T08:24:09Z</time>
      </trkpt>
      <trkpt lat="42.98961" lon="0.19134">
        <ele>1120.55</ele>
        <time>2013-02-21T08:24:22Z</time>
      </trkpt>
      <trkpt lat="42.98955" lon="0.19139">
        <ele>1122</ele>
        <time>2013-02-21T08:24:31Z</time>
      </trkpt>
      <trkpt lat="42.98949" lon="0.19145">
        <ele>1123.92</ele>
        <time>2013-02-21T08:24:45Z</time>
      </trkpt>
      <trkpt lat="42.98942" lon="0.19153">
        <ele>1125.84</ele>
        <time>2013-02-21T08:25:00Z</time>
      </trkpt>
      <trkpt lat="42.98931" lon="0.19162">
        <ele>1128.24</ele>
        <time>2013-02-21T08:25:15Z</time>
      </trkpt>
      <trkpt lat="42.98925" lon="0.19168">
        <ele>1129.69</ele>
        <time>2013-02-21T08:25:27Z</time>
      </trkpt>
      <trkpt lat="42.98919" lon="0.19173">
        <ele>1132.09</ele>
        <time>2013-02-21T08:25:41Z</time>
      </trkpt>
      <trkpt lat="42.98913" lon="0.19176">
        <ele>1133.53</ele>
        <time>2013-02-21T08:25:54Z</time>
      </trkpt>
      <trkpt lat="42.98903" lon="0.19187">
        <ele>1136.9</ele>
        <time>2013-02-21T08:26:16Z</time>
      </trkpt>
      <trkpt lat="42.98898" lon="0.19184">
        <ele>1139.78</ele>
        <time>2013-02-21T08:26:32Z</time>
      </trkpt>
      <trkpt lat="42.98896" lon="0.19174">
        <ele>1141.7</ele>
        <time>2013-02-21T08:26:47Z</time>
      </trkpt>
      <trkpt lat="42.98895" lon="0.19164">
        <ele>1143.63</ele>
        <time>2013-02-21T08:26:59Z</time>
      </trkpt>
      <trkpt lat="42.98895" lon="0.19155">
        <ele>1145.07</ele>
        <time>2013-02-21T08:27:15Z</time>
      </trkpt>
      <trkpt lat="42.98896" lon="0.19145">
        <ele>1146.51</ele>
        <time>2013-02-21T08:27:29Z</time>
      </trkpt>
      <trkpt lat="42.98897" lon="0.19136">
        <ele>1147.47</ele>
        <time>2013-02-21T08:27:38Z</time>
      </trkpt>
      <trkpt lat="42.98899" lon="0.19126">
        <ele>1148.43</ele>
        <time>2013-02-21T08:27:50Z</time>
      </trkpt>
      <trkpt lat="42.989" lon="0.19116">
        <ele>1148.91</ele>
        <time>2013-02-21T08:28:07Z</time>
      </trkpt>
      <trkpt lat="42.98897" lon="0.19106">
        <ele>1151.32</ele>
        <time>2013-02-21T08:28:19Z</time>
      </trkpt>
      <trkpt lat="42.98894" lon="0.19098">
        <ele>1153.24</ele>
        <time>2013-02-21T08:28:33Z</time>
      </trkpt>
      <trkpt lat="42.98888" lon="0.19094">
        <ele>1155.16</ele>
        <time>2013-02-21T08:28:44Z</time>
      </trkpt>
      <trkpt lat="42.98882" lon="0.19095">
        <ele>1157.08</ele>
        <time>2013-02-21T08:28:56Z</time>
      </trkpt>
      <trkpt lat="42.98875" lon="0.19097">
        <ele>1158.53</ele>
        <time>2013-02-21T08:29:08Z</time>
      </trkpt>
      <trkpt lat="42.98868" lon="0.19099">
        <ele>1159.97</ele>
        <time>2013-02-21T08:29:21Z</time>
      </trkpt>
      <trkpt lat="42.98862" lon="0.19103">
        <ele>1163.33</ele>
        <time>2013-02-21T08:29:34Z</time>
      </trkpt>
      <trkpt lat="42.98855" lon="0.19107">
        <ele>1164.29</ele>
        <time>2013-02-21T08:29:45Z</time>
      </trkpt>
      <trkpt lat="42.98851" lon="0.19106">
        <ele>1166.22</ele>
        <time>2013-02-21T08:29:59Z</time>
      </trkpt>
      <trkpt lat="42.98848" lon="0.19099">
        <ele>1167.66</ele>
        <time>2013-02-21T08:30:12Z</time>
      </trkpt>
      <trkpt lat="42.98844" lon="0.1909">
        <ele>1169.1</ele>
        <time>2013-02-21T08:30:25Z</time>
      </trkpt>
      <trkpt lat="42.98839" lon="0.19082">
        <ele>1172.95</ele>
        <time>2013-02-21T08:30:40Z</time>
      </trkpt>
      <trkpt lat="42.98834" lon="0.19075">
        <ele>1173.43</ele>
        <time>2013-02-21T08:30:54Z</time>
      </trkpt>
      <trkpt lat="42.98831" lon="0.19068">
        <ele>1176.31</ele>
        <time>2013-02-21T08:31:07Z</time>
      </trkpt>
      <trkpt lat="42.98829" lon="0.1906">
        <ele>1177.27</ele>
        <time>2013-02-21T08:31:20Z</time>
      </trkpt>
      <trkpt lat="42.98824" lon="0.19054">
        <ele>1179.67</ele>
        <time>2013-02-21T08:31:33Z</time>
      </trkpt>
      <trkpt lat="42.98822" lon="0.19047">
        <ele>1182.08</ele>
        <time>2013-02-21T08:31:45Z</time>
      </trkpt>
      <trkpt lat="42.98818" lon="0.19038">
        <ele>1183.04</ele>
        <time>2013-02-21T08:31:57Z</time>
      </trkpt>
      <trkpt lat="42.98813" lon="0.19027">
        <ele>1185.44</ele>
        <time>2013-02-21T08:32:14Z</time>
      </trkpt>
      <trkpt lat="42.98808" lon="0.19019">
        <ele>1186.88</ele>
        <time>2013-02-21T08:32:26Z</time>
      </trkpt>
      <trkpt lat="42.98804" lon="0.19012">
        <ele>1188.81</ele>
        <time>2013-02-21T08:32:40Z</time>
      </trkpt>
      <trkpt lat="42.98799" lon="0.19005">
        <ele>1190.25</ele>
        <time>2013-02-21T08:32:52Z</time>
      </trkpt>
      <trkpt lat="42.98794" lon="0.18996">
        <ele>1192.17</ele>
        <time>2013-02-21T08:33:07Z</time>
      </trkpt>
      <trkpt lat="42.98788" lon="0.18985">
        <ele>1193.61</ele>
        <time>2013-02-21T08:33:21Z</time>
      </trkpt>
      <trkpt lat="42.98785" lon="0.18976">
        <ele>1194.58</ele>
        <time>2013-02-21T08:33:32Z</time>
      </trkpt>
      <trkpt lat="42.98781" lon="0.18968">
        <ele>1195.54</ele>
        <time>2013-02-21T08:33:47Z</time>
      </trkpt>
      <trkpt lat="42.98773" lon="0.18954">
        <ele>1197.46</ele>
        <time>2013-02-21T08:34:07Z</time>
      </trkpt>
      <trkpt lat="42.98767" lon="0.18944">
        <ele>1197.94</ele>
        <time>2013-02-21T08:34:19Z</time>
      </trkpt>
      <trkpt lat="42.98764" lon="0.18939">
        <ele>1198.42</ele>
        <time>2013-02-21T08:34:34Z</time>
      </trkpt>
      <trkpt lat="42.98763" lon="0.18939">
        <ele>1196.02</ele>
        <time>2013-02-21T08:34:41Z</time>
      </trkpt>
      <trkpt lat="42.98763" lon="0.1894">
        <ele>1198.9</ele>
        <time>2013-02-21T08:34:43Z</time>
      </trkpt>
      <trkpt lat="42.98763" lon="0.18945">
        <ele>1197.46</ele>
        <time>2013-02-21T08:35:14Z</time>
      </trkpt>
      <trkpt lat="42.98762" lon="0.18946">
        <ele>1200.82</ele>
        <time>2013-02-21T08:35:16Z</time>
      </trkpt>
      <trkpt lat="42.98762" lon="0.18946">
        <ele>1197.46</ele>
        <time>2013-02-21T08:35:18Z</time>
      </trkpt>
      <trkpt lat="42.98762" lon="0.18947">
        <ele>1197.46</ele>
        <time>2013-02-21T08:35:19Z</time>
      </trkpt>
      <trkpt lat="42.98761" lon="0.18948">
        <ele>1192.65</ele>
        <time>2013-02-21T08:35:29Z</time>
      </trkpt>
      <trkpt lat="42.98761" lon="0.18948">
        <ele>1192.17</ele>
        <time>2013-02-21T08:35:30Z</time>
      </trkpt>
      <trkpt lat="42.98761" lon="0.18948">
        <ele>1198.9</ele>
        <time>2013-02-21T08:35:31Z</time>
      </trkpt>
      <trkpt lat="42.98761" lon="0.18948">
        <ele>1197.46</ele>
        <time>2013-02-21T08:35:32Z</time>
      </trkpt>
      <trkpt lat="42.98763" lon="0.18947">
        <ele>1196.98</ele>
        <time>2013-02-21T08:36:06Z</time>
      </trkpt>
      <trkpt lat="42.9876" lon="0.18948">
        <ele>1196.98</ele>
        <time>2013-02-21T08:36:40Z</time>
      </trkpt>
      <trkpt lat="42.98761" lon="0.18948">
        <ele>1196.98</ele>
        <time>2013-02-21T08:37:05Z</time>
      </trkpt>
      <trkpt lat="42.98761" lon="0.18946">
        <ele>1196.98</ele>
        <time>2013-02-21T08:37:16Z</time>
      </trkpt>
      <trkpt lat="42.98764" lon="0.18941">
        <ele>1197.94</ele>
        <time>2013-02-21T08:37:25Z</time>
      </trkpt>
      <trkpt lat="42.9876" lon="0.18937">
        <ele>1198.42</ele>
        <time>2013-02-21T08:37:43Z</time>
      </trkpt>
      <trkpt lat="42.98753" lon="0.18928">
        <ele>1201.79</ele>
        <time>2013-02-21T08:38:00Z</time>
      </trkpt>
      <trkpt lat="42.98749" lon="0.18922">
        <ele>1202.75</ele>
        <time>2013-02-21T08:38:11Z</time>
      </trkpt>
      <trkpt lat="42.98744" lon="0.18917">
        <ele>1204.19</ele>
        <time>2013-02-21T08:38:24Z</time>
      </trkpt>
      <trkpt lat="42.98738" lon="0.18911">
        <ele>1206.11</ele>
        <time>2013-02-21T08:38:36Z</time>
      </trkpt>
      <trkpt lat="42.98733" lon="0.18904">
        <ele>1207.55</ele>
        <time>2013-02-21T08:38:49Z</time>
      </trkpt>
      <trkpt lat="42.98729" lon="0.18897">
        <ele>1209</ele>
        <time>2013-02-21T08:39:02Z</time>
      </trkpt>
      <trkpt lat="42.98726" lon="0.18891">
        <ele>1210.92</ele>
        <time>2013-02-21T08:39:14Z</time>
      </trkpt>
      <trkpt lat="42.9872" lon="0.18882">
        <ele>1212.36</ele>
        <time>2013-02-21T08:39:27Z</time>
      </trkpt>
      <trkpt lat="42.98715" lon="0.18874">
        <ele>1213.8</ele>
        <time>2013-02-21T08:39:41Z</time>
      </trkpt>
      <trkpt lat="42.9871" lon="0.18865">
        <ele>1215.72</ele>
        <time>2013-02-21T08:39:56Z</time>
      </trkpt>
      <trkpt lat="42.98705" lon="0.1886">
        <ele>1217.17</ele>
        <time>2013-02-21T08:40:10Z</time>
      </trkpt>
      <trkpt lat="42.98699" lon="0.18855">
        <ele>1219.57</ele>
        <time>2013-02-21T08:40:24Z</time>
      </trkpt>
      <trkpt lat="42.98694" lon="0.18848">
        <ele>1221.97</ele>
        <time>2013-02-21T08:40:38Z</time>
      </trkpt>
      <trkpt lat="42.9869" lon="0.18844">
        <ele>1223.9</ele>
        <time>2013-02-21T08:40:48Z</time>
      </trkpt>
      <trkpt lat="42.98686" lon="0.18839">
        <ele>1225.34</ele>
        <time>2013-02-21T08:41:01Z</time>
      </trkpt>
      <trkpt lat="42.98683" lon="0.18832">
        <ele>1226.3</ele>
        <time>2013-02-21T08:41:15Z</time>
      </trkpt>
      <trkpt lat="42.9868" lon="0.18826">
        <ele>1227.74</ele>
        <time>2013-02-21T08:41:27Z</time>
      </trkpt>
      <trkpt lat="42.98678" lon="0.18825">
        <ele>1227.74</ele>
        <time>2013-02-21T08:41:40Z</time>
      </trkpt>
      <trkpt lat="42.98676" lon="0.1882">
        <ele>1229.18</ele>
        <time>2013-02-21T08:41:53Z</time>
      </trkpt>
      <trkpt lat="42.98671" lon="0.18819">
        <ele>1229.18</ele>
        <time>2013-02-21T08:42:02Z</time>
      </trkpt>
      <trkpt lat="42.98669" lon="0.18822">
        <ele>1229.18</ele>
        <time>2013-02-21T08:42:12Z</time>
      </trkpt>
      <trkpt lat="42.98669" lon="0.18822">
        <ele>1230.14</ele>
        <time>2013-02-21T08:42:25Z</time>
      </trkpt>
      <trkpt lat="42.98672" lon="0.18822">
        <ele>1230.14</ele>
        <time>2013-02-21T08:42:44Z</time>
      </trkpt>
      <trkpt lat="42.9867" lon="0.18821">
        <ele>1230.14</ele>
        <time>2013-02-21T08:42:59Z</time>
      </trkpt>
      <trkpt lat="42.98667" lon="0.18826">
        <ele>1230.62</ele>
        <time>2013-02-21T08:43:08Z</time>
      </trkpt>
      <trkpt lat="42.98665" lon="0.18823">
        <ele>1232.07</ele>
        <time>2013-02-21T08:43:17Z</time>
      </trkpt>
      <trkpt lat="42.98663" lon="0.18814">
        <ele>1233.03</ele>
        <time>2013-02-21T08:43:32Z</time>
      </trkpt>
      <trkpt lat="42.9866" lon="0.18805">
        <ele>1233.03</ele>
        <time>2013-02-21T08:43:43Z</time>
      </trkpt>
      <trkpt lat="42.98656" lon="0.18795">
        <ele>1234.47</ele>
        <time>2013-02-21T08:43:57Z</time>
      </trkpt>
      <trkpt lat="42.98652" lon="0.18787">
        <ele>1235.43</ele>
        <time>2013-02-21T08:44:07Z</time>
      </trkpt>
      <trkpt lat="42.98648" lon="0.18782">
        <ele>1236.87</ele>
        <time>2013-02-21T08:44:19Z</time>
      </trkpt>
      <trkpt lat="42.98643" lon="0.18773">
        <ele>1238.32</ele>
        <time>2013-02-21T08:44:32Z</time>
      </trkpt>
      <trkpt lat="42.98638" lon="0.18764">
        <ele>1240.72</ele>
        <time>2013-02-21T08:44:48Z</time>
      </trkpt>
      <trkpt lat="42.98635" lon="0.18758">
        <ele>1242.64</ele>
        <time>2013-02-21T08:45:00Z</time>
      </trkpt>
      <trkpt lat="42.9863" lon="0.18752">
        <ele>1243.6</ele>
        <time>2013-02-21T08:45:12Z</time>
      </trkpt>
      <trkpt lat="42.98627" lon="0.18744">
        <ele>1245.53</ele>
        <time>2013-02-21T08:45:25Z</time>
      </trkpt>
      <trkpt lat="42.98623" lon="0.18732">
        <ele>1246.49</ele>
        <time>2013-02-21T08:45:42Z</time>
      </trkpt>
      <trkpt lat="42.98623" lon="0.18725">
        <ele>1247.93</ele>
        <time>2013-02-21T08:45:54Z</time>
      </trkpt>
      <trkpt lat="42.98624" lon="0.18712">
        <ele>1249.85</ele>
        <time>2013-02-21T08:46:08Z</time>
      </trkpt>
      <trkpt lat="42.98621" lon="0.18703">
        <ele>1250.81</ele>
        <time>2013-02-21T08:46:22Z</time>
      </trkpt>
      <trkpt lat="42.98617" lon="0.18693">
        <ele>1251.77</ele>
        <time>2013-02-21T08:46:34Z</time>
      </trkpt>
      <trkpt lat="42.98614" lon="0.18686">
        <ele>1253.22</ele>
        <time>2013-02-21T08:46:46Z</time>
      </trkpt>
      <trkpt lat="42.9861" lon="0.18679">
        <ele>1254.66</ele>
        <time>2013-02-21T08:47:00Z</time>
      </trkpt>
      <trkpt lat="42.98605" lon="0.18669">
        <ele>1256.58</ele>
        <time>2013-02-21T08:47:13Z</time>
      </trkpt>
      <trkpt lat="42.98601" lon="0.1866">
        <ele>1258.02</ele>
        <time>2013-02-21T08:47:27Z</time>
      </trkpt>
      <trkpt lat="42.98598" lon="0.18653">
        <ele>1260.43</ele>
        <time>2013-02-21T08:47:41Z</time>
      </trkpt>
      <trkpt lat="42.98593" lon="0.18648">
        <ele>1261.87</ele>
        <time>2013-02-21T08:47:53Z</time>
      </trkpt>
      <trkpt lat="42.9859" lon="0.18641">
        <ele>1263.31</ele>
        <time>2013-02-21T08:48:06Z</time>
      </trkpt>
      <trkpt lat="42.98586" lon="0.18633">
        <ele>1264.75</ele>
        <time>2013-02-21T08:48:19Z</time>
      </trkpt>
      <trkpt lat="42.98586" lon="0.18624">
        <ele>1265.71</ele>
        <time>2013-02-21T08:48:31Z</time>
      </trkpt>
      <trkpt lat="42.98587" lon="0.18615">
        <ele>1267.16</ele>
        <time>2013-02-21T08:48:45Z</time>
      </trkpt>
      <trkpt lat="42.9859" lon="0.18605">
        <ele>1268.12</ele>
        <time>2013-02-21T08:49:00Z</time>
      </trkpt>
      <trkpt lat="42.98593" lon="0.18597">
        <ele>1269.08</ele>
        <time>2013-02-21T08:49:12Z</time>
      </trkpt>
      <trkpt lat="42.98596" lon="0.18592">
        <ele>1269.56</ele>
        <time>2013-02-21T08:49:26Z</time>
      </trkpt>
      <trkpt lat="42.98599" lon="0.18588">
        <ele>1271.48</ele>
        <time>2013-02-21T08:49:36Z</time>
      </trkpt>
      <trkpt lat="42.98602" lon="0.18582">
        <ele>1271.96</ele>
        <time>2013-02-21T08:49:45Z</time>
      </trkpt>
      <trkpt lat="42.98601" lon="0.1858">
        <ele>1273.4</ele>
        <time>2013-02-21T08:49:51Z</time>
      </trkpt>
      <trkpt lat="42.98598" lon="0.18578">
        <ele>1274.36</ele>
        <time>2013-02-21T08:50:06Z</time>
      </trkpt>
      <trkpt lat="42.98592" lon="0.18578">
        <ele>1275.33</ele>
        <time>2013-02-21T08:50:26Z</time>
      </trkpt>
      <trkpt lat="42.98585" lon="0.1858">
        <ele>1277.25</ele>
        <time>2013-02-21T08:50:39Z</time>
      </trkpt>
      <trkpt lat="42.98578" lon="0.18583">
        <ele>1279.65</ele>
        <time>2013-02-21T08:50:53Z</time>
      </trkpt>
      <trkpt lat="42.98573" lon="0.18585">
        <ele>1280.13</ele>
        <time>2013-02-21T08:51:06Z</time>
      </trkpt>
      <trkpt lat="42.98566" lon="0.18589">
        <ele>1280.61</ele>
        <time>2013-02-21T08:51:21Z</time>
      </trkpt>
      <trkpt lat="42.98561" lon="0.18595">
        <ele>1281.57</ele>
        <time>2013-02-21T08:51:36Z</time>
      </trkpt>
      <trkpt lat="42.98554" lon="0.18601">
        <ele>1283.5</ele>
        <time>2013-02-21T08:51:50Z</time>
      </trkpt>
      <trkpt lat="42.98547" lon="0.18607">
        <ele>1285.42</ele>
        <time>2013-02-21T08:52:06Z</time>
      </trkpt>
      <trkpt lat="42.9854" lon="0.18614">
        <ele>1286.86</ele>
        <time>2013-02-21T08:52:22Z</time>
      </trkpt>
      <trkpt lat="42.98536" lon="0.18621">
        <ele>1288.78</ele>
        <time>2013-02-21T08:52:36Z</time>
      </trkpt>
      <trkpt lat="42.98532" lon="0.18626">
        <ele>1290.23</ele>
        <time>2013-02-21T08:52:48Z</time>
      </trkpt>
      <trkpt lat="42.98531" lon="0.1862">
        <ele>1292.15</ele>
        <time>2013-02-21T08:53:01Z</time>
      </trkpt>
      <trkpt lat="42.9853" lon="0.18611">
        <ele>1293.59</ele>
        <time>2013-02-21T08:53:15Z</time>
      </trkpt>
      <trkpt lat="42.98529" lon="0.18602">
        <ele>1294.07</ele>
        <time>2013-02-21T08:53:26Z</time>
      </trkpt>
      <trkpt lat="42.98527" lon="0.1859">
        <ele>1295.99</ele>
        <time>2013-02-21T08:53:43Z</time>
      </trkpt>
      <trkpt lat="42.98523" lon="0.18584">
        <ele>1296.96</ele>
        <time>2013-02-21T08:53:54Z</time>
      </trkpt>
      <trkpt lat="42.98514" lon="0.18587">
        <ele>1298.4</ele>
        <time>2013-02-21T08:54:07Z</time>
      </trkpt>
      <trkpt lat="42.98508" lon="0.18595">
        <ele>1300.32</ele>
        <time>2013-02-21T08:54:23Z</time>
      </trkpt>
      <trkpt lat="42.98502" lon="0.18601">
        <ele>1301.76</ele>
        <time>2013-02-21T08:54:39Z</time>
      </trkpt>
      <trkpt lat="42.98501" lon="0.18606">
        <ele>1303.2</ele>
        <time>2013-02-21T08:54:54Z</time>
      </trkpt>
      <trkpt lat="42.98499" lon="0.18606">
        <ele>1304.17</ele>
        <time>2013-02-21T08:55:16Z</time>
      </trkpt>
      <trkpt lat="42.98497" lon="0.186">
        <ele>1305.61</ele>
        <time>2013-02-21T08:55:29Z</time>
      </trkpt>
      <trkpt lat="42.98494" lon="0.18591">
        <ele>1306.57</ele>
        <time>2013-02-21T08:55:42Z</time>
      </trkpt>
      <trkpt lat="42.98492" lon="0.18584">
        <ele>1308.49</ele>
        <time>2013-02-21T08:55:55Z</time>
      </trkpt>
      <trkpt lat="42.98492" lon="0.18577">
        <ele>1309.45</ele>
        <time>2013-02-21T08:56:08Z</time>
      </trkpt>
      <trkpt lat="42.98493" lon="0.18572">
        <ele>1310.41</ele>
        <time>2013-02-21T08:56:20Z</time>
      </trkpt>
      <trkpt lat="42.98493" lon="0.18563">
        <ele>1312.34</ele>
        <time>2013-02-21T08:56:35Z</time>
      </trkpt>
      <trkpt lat="42.98495" lon="0.18558">
        <ele>1312.82</ele>
        <time>2013-02-21T08:56:49Z</time>
      </trkpt>
      <trkpt lat="42.98497" lon="0.18552">
        <ele>1313.78</ele>
        <time>2013-02-21T08:57:00Z</time>
      </trkpt>
      <trkpt lat="42.98498" lon="0.18546">
        <ele>1314.74</ele>
        <time>2013-02-21T08:57:11Z</time>
      </trkpt>
      <trkpt lat="42.98501" lon="0.1854">
        <ele>1316.18</ele>
        <time>2013-02-21T08:57:24Z</time>
      </trkpt>
      <trkpt lat="42.98502" lon="0.1853">
        <ele>1317.62</ele>
        <time>2013-02-21T08:57:38Z</time>
      </trkpt>
      <trkpt lat="42.98501" lon="0.18519">
        <ele>1319.55</ele>
        <time>2013-02-21T08:57:51Z</time>
      </trkpt>
      <trkpt lat="42.98499" lon="0.18513">
        <ele>1320.99</ele>
        <time>2013-02-21T08:58:03Z</time>
      </trkpt>
      <trkpt lat="42.98497" lon="0.18506">
        <ele>1322.43</ele>
        <time>2013-02-21T08:58:15Z</time>
      </trkpt>
      <trkpt lat="42.98494" lon="0.185">
        <ele>1323.87</ele>
        <time>2013-02-21T08:58:27Z</time>
      </trkpt>
      <trkpt lat="42.98489" lon="0.18498">
        <ele>1325.8</ele>
        <time>2013-02-21T08:58:38Z</time>
      </trkpt>
      <trkpt lat="42.98483" lon="0.18497">
        <ele>1327.24</ele>
        <time>2013-02-21T08:58:50Z</time>
      </trkpt>
      <trkpt lat="42.98474" lon="0.18497">
        <ele>1329.16</ele>
        <time>2013-02-21T08:59:06Z</time>
      </trkpt>
      <trkpt lat="42.98468" lon="0.18498">
        <ele>1330.6</ele>
        <time>2013-02-21T08:59:18Z</time>
      </trkpt>
      <trkpt lat="42.9846" lon="0.18499">
        <ele>1332.52</ele>
        <time>2013-02-21T08:59:32Z</time>
      </trkpt>
      <trkpt lat="42.98453" lon="0.18501">
        <ele>1333.97</ele>
        <time>2013-02-21T08:59:47Z</time>
      </trkpt>
      <trkpt lat="42.98446" lon="0.18503">
        <ele>1335.41</ele>
        <time>2013-02-21T09:00:00Z</time>
      </trkpt>
      <trkpt lat="42.9844" lon="0.18505">
        <ele>1337.33</ele>
        <time>2013-02-21T09:00:14Z</time>
      </trkpt>
      <trkpt lat="42.98433" lon="0.18506">
        <ele>1338.77</ele>
        <time>2013-02-21T09:00:27Z</time>
      </trkpt>
      <trkpt lat="42.98428" lon="0.18509">
        <ele>1340.22</ele>
        <time>2013-02-21T09:00:40Z</time>
      </trkpt>
      <trkpt lat="42.98421" lon="0.18515">
        <ele>1341.66</ele>
        <time>2013-02-21T09:00:55Z</time>
      </trkpt>
      <trkpt lat="42.98416" lon="0.1852">
        <ele>1344.06</ele>
        <time>2013-02-21T09:01:08Z</time>
      </trkpt>
      <trkpt lat="42.98411" lon="0.18522">
        <ele>1345.5</ele>
        <time>2013-02-21T09:01:21Z</time>
      </trkpt>
      <trkpt lat="42.98411" lon="0.18516">
        <ele>1346.46</ele>
        <time>2013-02-21T09:01:34Z</time>
      </trkpt>
      <trkpt lat="42.98411" lon="0.18507">
        <ele>1348.39</ele>
        <time>2013-02-21T09:01:49Z</time>
      </trkpt>
      <trkpt lat="42.98411" lon="0.18499">
        <ele>1349.35</ele>
        <time>2013-02-21T09:02:02Z</time>
      </trkpt>
      <trkpt lat="42.9841" lon="0.1849">
        <ele>1351.27</ele>
        <time>2013-02-21T09:02:14Z</time>
      </trkpt>
      <trkpt lat="42.9841" lon="0.18482">
        <ele>1352.71</ele>
        <time>2013-02-21T09:02:28Z</time>
      </trkpt>
      <trkpt lat="42.9841" lon="0.18473">
        <ele>1355.12</ele>
        <time>2013-02-21T09:02:42Z</time>
      </trkpt>
      <trkpt lat="42.9841" lon="0.18464">
        <ele>1356.08</ele>
        <time>2013-02-21T09:02:55Z</time>
      </trkpt>
      <trkpt lat="42.9841" lon="0.18454">
        <ele>1357.52</ele>
        <time>2013-02-21T09:03:12Z</time>
      </trkpt>
      <trkpt lat="42.98411" lon="0.18447">
        <ele>1358.48</ele>
        <time>2013-02-21T09:03:24Z</time>
      </trkpt>
      <trkpt lat="42.98408" lon="0.18437">
        <ele>1359.92</ele>
        <time>2013-02-21T09:03:38Z</time>
      </trkpt>
      <trkpt lat="42.98405" lon="0.18428">
        <ele>1361.84</ele>
        <time>2013-02-21T09:03:51Z</time>
      </trkpt>
      <trkpt lat="42.98402" lon="0.18424">
        <ele>1363.77</ele>
        <time>2013-02-21T09:04:03Z</time>
      </trkpt>
      <trkpt lat="42.98402" lon="0.18426">
        <ele>1363.77</ele>
        <time>2013-02-21T09:04:32Z</time>
      </trkpt>
      <trkpt lat="42.98396" lon="0.18428">
        <ele>1364.73</ele>
        <time>2013-02-21T09:04:49Z</time>
      </trkpt>
      <trkpt lat="42.98388" lon="0.18431">
        <ele>1366.17</ele>
        <time>2013-02-21T09:05:02Z</time>
      </trkpt>
      <trkpt lat="42.98382" lon="0.18434">
        <ele>1368.57</ele>
        <time>2013-02-21T09:05:15Z</time>
      </trkpt>
      <trkpt lat="42.98375" lon="0.18438">
        <ele>1370.02</ele>
        <time>2013-02-21T09:05:30Z</time>
      </trkpt>
      <trkpt lat="42.9837" lon="0.18443">
        <ele>1370.98</ele>
        <time>2013-02-21T09:05:43Z</time>
      </trkpt>
      <trkpt lat="42.98366" lon="0.18443">
        <ele>1371.94</ele>
        <time>2013-02-21T09:05:54Z</time>
      </trkpt>
      <trkpt lat="42.98368" lon="0.18444">
        <ele>1372.42</ele>
        <time>2013-02-21T09:06:15Z</time>
      </trkpt>
      <trkpt lat="42.98368" lon="0.18445">
        <ele>1372.42</ele>
        <time>2013-02-21T09:06:36Z</time>
      </trkpt>
      <trkpt lat="42.98367" lon="0.18445">
        <ele>1372.42</ele>
        <time>2013-02-21T09:07:03Z</time>
      </trkpt>
      <trkpt lat="42.98367" lon="0.18443">
        <ele>1372.42</ele>
        <time>2013-02-21T09:07:23Z</time>
      </trkpt>
      <trkpt lat="42.98367" lon="0.18444">
        <ele>1372.9</ele>
        <time>2013-02-21T09:07:49Z</time>
      </trkpt>
      <trkpt lat="42.98366" lon="0.18444">
        <ele>1372.9</ele>
        <time>2013-02-21T09:08:10Z</time>
      </trkpt>
      <trkpt lat="42.98368" lon="0.18444">
        <ele>1372.42</ele>
        <time>2013-02-21T09:08:38Z</time>
      </trkpt>
      <trkpt lat="42.98367" lon="0.18443">
        <ele>1372.42</ele>
        <time>2013-02-21T09:09:02Z</time>
      </trkpt>
      <trkpt lat="42.98366" lon="0.18442">
        <ele>1372.42</ele>
        <time>2013-02-21T09:09:29Z</time>
      </trkpt>
      <trkpt lat="42.98362" lon="0.18433">
        <ele>1373.86</ele>
        <time>2013-02-21T09:09:41Z</time>
      </trkpt>
      <trkpt lat="42.9836" lon="0.18425">
        <ele>1375.3</ele>
        <time>2013-02-21T09:09:55Z</time>
      </trkpt>
      <trkpt lat="42.98356" lon="0.18417">
        <ele>1377.23</ele>
        <time>2013-02-21T09:10:07Z</time>
      </trkpt>
      <trkpt lat="42.98351" lon="0.18409">
        <ele>1379.15</ele>
        <time>2013-02-21T09:10:20Z</time>
      </trkpt>
      <trkpt lat="42.98347" lon="0.18404">
        <ele>1379.63</ele>
        <time>2013-02-21T09:10:33Z</time>
      </trkpt>
      <trkpt lat="42.98341" lon="0.18405">
        <ele>1381.55</ele>
        <time>2013-02-21T09:10:43Z</time>
      </trkpt>
      <trkpt lat="42.98335" lon="0.18412">
        <ele>1381.07</ele>
        <time>2013-02-21T09:10:55Z</time>
      </trkpt>
      <trkpt lat="42.98331" lon="0.18417">
        <ele>1385.4</ele>
        <time>2013-02-21T09:11:06Z</time>
      </trkpt>
      <trkpt lat="42.98326" lon="0.18419">
        <ele>1384.92</ele>
        <time>2013-02-21T09:11:19Z</time>
      </trkpt>
      <trkpt lat="42.9832" lon="0.18415">
        <ele>1387.8</ele>
        <time>2013-02-21T09:11:33Z</time>
      </trkpt>
      <trkpt lat="42.98316" lon="0.18408">
        <ele>1387.8</ele>
        <time>2013-02-21T09:11:47Z</time>
      </trkpt>
      <trkpt lat="42.98313" lon="0.18401">
        <ele>1389.72</ele>
        <time>2013-02-21T09:11:59Z</time>
      </trkpt>
      <trkpt lat="42.98308" lon="0.18392">
        <ele>1390.68</ele>
        <time>2013-02-21T09:12:14Z</time>
      </trkpt>
      <trkpt lat="42.98304" lon="0.18383">
        <ele>1393.09</ele>
        <time>2013-02-21T09:12:29Z</time>
      </trkpt>
      <trkpt lat="42.98299" lon="0.18377">
        <ele>1395.01</ele>
        <time>2013-02-21T09:12:41Z</time>
      </trkpt>
      <trkpt lat="42.98292" lon="0.18376">
        <ele>1395.49</ele>
        <time>2013-02-21T09:12:53Z</time>
      </trkpt>
      <trkpt lat="42.98284" lon="0.18383">
        <ele>1396.93</ele>
        <time>2013-02-21T09:13:07Z</time>
      </trkpt>
      <trkpt lat="42.98283" lon="0.18384">
        <ele>1398.37</ele>
        <time>2013-02-21T09:13:09Z</time>
      </trkpt>
      <trkpt lat="42.98279" lon="0.18384">
        <ele>1399.82</ele>
        <time>2013-02-21T09:13:22Z</time>
      </trkpt>
      <trkpt lat="42.98276" lon="0.18377">
        <ele>1401.26</ele>
        <time>2013-02-21T09:13:34Z</time>
      </trkpt>
      <trkpt lat="42.98271" lon="0.18365">
        <ele>1402.7</ele>
        <time>2013-02-21T09:13:54Z</time>
      </trkpt>
      <trkpt lat="42.98269" lon="0.1836">
        <ele>1404.14</ele>
        <time>2013-02-21T09:14:01Z</time>
      </trkpt>
      <trkpt lat="42.98265" lon="0.18352">
        <ele>1405.1</ele>
        <time>2013-02-21T09:14:14Z</time>
      </trkpt>
      <trkpt lat="42.98259" lon="0.1834">
        <ele>1406.07</ele>
        <time>2013-02-21T09:14:30Z</time>
      </trkpt>
      <trkpt lat="42.98255" lon="0.1833">
        <ele>1406.55</ele>
        <time>2013-02-21T09:14:41Z</time>
      </trkpt>
      <trkpt lat="42.98251" lon="0.18322">
        <ele>1407.99</ele>
        <time>2013-02-21T09:14:56Z</time>
      </trkpt>
      <trkpt lat="42.98248" lon="0.18313">
        <ele>1411.35</ele>
        <time>2013-02-21T09:15:09Z</time>
      </trkpt>
      <trkpt lat="42.98241" lon="0.18298">
        <ele>1411.35</ele>
        <time>2013-02-21T09:15:31Z</time>
      </trkpt>
      <trkpt lat="42.98237" lon="0.18285">
        <ele>1414.72</ele>
        <time>2013-02-21T09:15:46Z</time>
      </trkpt>
      <trkpt lat="42.98237" lon="0.18275">
        <ele>1415.2</ele>
        <time>2013-02-21T09:16:01Z</time>
      </trkpt>
      <trkpt lat="42.98236" lon="0.18269">
        <ele>1416.16</ele>
        <time>2013-02-21T09:16:23Z</time>
      </trkpt>
      <trkpt lat="42.98236" lon="0.18258">
        <ele>1418.08</ele>
        <time>2013-02-21T09:16:36Z</time>
      </trkpt>
      <trkpt lat="42.98229" lon="0.18252">
        <ele>1420.49</ele>
        <time>2013-02-21T09:16:53Z</time>
      </trkpt>
      <trkpt lat="42.98223" lon="0.18252">
        <ele>1421.45</ele>
        <time>2013-02-21T09:17:03Z</time>
      </trkpt>
      <trkpt lat="42.9822" lon="0.18247">
        <ele>1422.89</ele>
        <time>2013-02-21T09:17:15Z</time>
      </trkpt>
      <trkpt lat="42.98219" lon="0.18238">
        <ele>1424.33</ele>
        <time>2013-02-21T09:17:29Z</time>
      </trkpt>
      <trkpt lat="42.98217" lon="0.18228">
        <ele>1426.25</ele>
        <time>2013-02-21T09:17:44Z</time>
      </trkpt>
      <trkpt lat="42.98215" lon="0.18217">
        <ele>1427.21</ele>
        <time>2013-02-21T09:17:59Z</time>
      </trkpt>
      <trkpt lat="42.98213" lon="0.18206">
        <ele>1428.66</ele>
        <time>2013-02-21T09:18:14Z</time>
      </trkpt>
      <trkpt lat="42.98212" lon="0.18203">
        <ele>1430.1</ele>
        <time>2013-02-21T09:18:17Z</time>
      </trkpt>
      <trkpt lat="42.98211" lon="0.18194">
        <ele>1431.54</ele>
        <time>2013-02-21T09:18:30Z</time>
      </trkpt>
      <trkpt lat="42.98207" lon="0.18189">
        <ele>1434.42</ele>
        <time>2013-02-21T09:18:42Z</time>
      </trkpt>
      <trkpt lat="42.98201" lon="0.18187">
        <ele>1434.91</ele>
        <time>2013-02-21T09:18:56Z</time>
      </trkpt>
      <trkpt lat="42.982" lon="0.18178">
        <ele>1436.83</ele>
        <time>2013-02-21T09:19:11Z</time>
      </trkpt>
      <trkpt lat="42.98199" lon="0.18168">
        <ele>1437.31</ele>
        <time>2013-02-21T09:19:24Z</time>
      </trkpt>
      <trkpt lat="42.98199" lon="0.18157">
        <ele>1438.75</ele>
        <time>2013-02-21T09:19:38Z</time>
      </trkpt>
      <trkpt lat="42.98199" lon="0.18145">
        <ele>1441.15</ele>
        <time>2013-02-21T09:19:52Z</time>
      </trkpt>
      <trkpt lat="42.98197" lon="0.18135">
        <ele>1442.11</ele>
        <time>2013-02-21T09:20:06Z</time>
      </trkpt>
      <trkpt lat="42.98189" lon="0.18134">
        <ele>1444.04</ele>
        <time>2013-02-21T09:20:20Z</time>
      </trkpt>
      <trkpt lat="42.98181" lon="0.18138">
        <ele>1444.52</ele>
        <time>2013-02-21T09:20:33Z</time>
      </trkpt>
      <trkpt lat="42.98174" lon="0.18141">
        <ele>1447.4</ele>
        <time>2013-02-21T09:20:47Z</time>
      </trkpt>
      <trkpt lat="42.98174" lon="0.18142">
        <ele>1447.88</ele>
        <time>2013-02-21T09:20:48Z</time>
      </trkpt>
      <trkpt lat="42.98167" lon="0.18144">
        <ele>1448.84</ele>
        <time>2013-02-21T09:21:02Z</time>
      </trkpt>
      <trkpt lat="42.98157" lon="0.18149">
        <ele>1450.77</ele>
        <time>2013-02-21T09:21:22Z</time>
      </trkpt>
      <trkpt lat="42.98151" lon="0.18151">
        <ele>1452.21</ele>
        <time>2013-02-21T09:21:35Z</time>
      </trkpt>
      <trkpt lat="42.98142" lon="0.18153">
        <ele>1455.09</ele>
        <time>2013-02-21T09:21:50Z</time>
      </trkpt>
      <trkpt lat="42.9814" lon="0.18148">
        <ele>1456.05</ele>
        <time>2013-02-21T09:22:05Z</time>
      </trkpt>
      <trkpt lat="42.98139" lon="0.18136">
        <ele>1457.98</ele>
        <time>2013-02-21T09:22:20Z</time>
      </trkpt>
      <trkpt lat="42.98138" lon="0.18129">
        <ele>1459.42</ele>
        <time>2013-02-21T09:22:32Z</time>
      </trkpt>
      <trkpt lat="42.98138" lon="0.18123">
        <ele>1459.9</ele>
        <time>2013-02-21T09:22:41Z</time>
      </trkpt>
      <trkpt lat="42.98136" lon="0.18113">
        <ele>1461.34</ele>
        <time>2013-02-21T09:22:54Z</time>
      </trkpt>
      <trkpt lat="42.98126" lon="0.18112">
        <ele>1463.26</ele>
        <time>2013-02-21T09:23:09Z</time>
      </trkpt>
      <trkpt lat="42.98117" lon="0.18113">
        <ele>1465.19</ele>
        <time>2013-02-21T09:23:27Z</time>
      </trkpt>
      <trkpt lat="42.98113" lon="0.18108">
        <ele>1465.67</ele>
        <time>2013-02-21T09:23:37Z</time>
      </trkpt>
      <trkpt lat="42.98112" lon="0.18099">
        <ele>1468.55</ele>
        <time>2013-02-21T09:23:50Z</time>
      </trkpt>
      <trkpt lat="42.98112" lon="0.18087">
        <ele>1469.51</ele>
        <time>2013-02-21T09:24:07Z</time>
      </trkpt>
      <trkpt lat="42.98109" lon="0.18078">
        <ele>1470.95</ele>
        <time>2013-02-21T09:24:21Z</time>
      </trkpt>
      <trkpt lat="42.981" lon="0.18077">
        <ele>1471.92</ele>
        <time>2013-02-21T09:24:34Z</time>
      </trkpt>
      <trkpt lat="42.98098" lon="0.18076">
        <ele>1473.36</ele>
        <time>2013-02-21T09:24:37Z</time>
      </trkpt>
      <trkpt lat="42.98091" lon="0.18077">
        <ele>1475.28</ele>
        <time>2013-02-21T09:24:51Z</time>
      </trkpt>
      <trkpt lat="42.98084" lon="0.18076">
        <ele>1476.24</ele>
        <time>2013-02-21T09:25:03Z</time>
      </trkpt>
      <trkpt lat="42.98078" lon="0.18073">
        <ele>1478.65</ele>
        <time>2013-02-21T09:25:16Z</time>
      </trkpt>
      <trkpt lat="42.98075" lon="0.18066">
        <ele>1478.65</ele>
        <time>2013-02-21T09:25:28Z</time>
      </trkpt>
      <trkpt lat="42.98073" lon="0.18057">
        <ele>1480.09</ele>
        <time>2013-02-21T09:25:42Z</time>
      </trkpt>
      <trkpt lat="42.9807" lon="0.18048">
        <ele>1482.01</ele>
        <time>2013-02-21T09:25:55Z</time>
      </trkpt>
      <trkpt lat="42.98068" lon="0.18038">
        <ele>1483.93</ele>
        <time>2013-02-21T09:26:10Z</time>
      </trkpt>
      <trkpt lat="42.98065" lon="0.18028">
        <ele>1485.37</ele>
        <time>2013-02-21T09:26:25Z</time>
      </trkpt>
      <trkpt lat="42.98062" lon="0.18019">
        <ele>1486.82</ele>
        <time>2013-02-21T09:26:39Z</time>
      </trkpt>
      <trkpt lat="42.9806" lon="0.18011">
        <ele>1487.78</ele>
        <time>2013-02-21T09:26:52Z</time>
      </trkpt>
      <trkpt lat="42.98057" lon="0.18003">
        <ele>1489.7</ele>
        <time>2013-02-21T09:27:06Z</time>
      </trkpt>
      <trkpt lat="42.98056" lon="0.17995">
        <ele>1491.62</ele>
        <time>2013-02-21T09:27:17Z</time>
      </trkpt>
      <trkpt lat="42.98053" lon="0.17986">
        <ele>1492.1</ele>
        <time>2013-02-21T09:27:30Z</time>
      </trkpt>
      <trkpt lat="42.98048" lon="0.17987">
        <ele>1494.03</ele>
        <time>2013-02-21T09:27:42Z</time>
      </trkpt>
      <trkpt lat="42.98041" lon="0.17988">
        <ele>1495.47</ele>
        <time>2013-02-21T09:27:55Z</time>
      </trkpt>
      <trkpt lat="42.98036" lon="0.17991">
        <ele>1495.95</ele>
        <time>2013-02-21T09:28:08Z</time>
      </trkpt>
      <trkpt lat="42.98031" lon="0.17995">
        <ele>1498.35</ele>
        <time>2013-02-21T09:28:19Z</time>
      </trkpt>
      <trkpt lat="42.98025" lon="0.17996">
        <ele>1499.79</ele>
        <time>2013-02-21T09:28:33Z</time>
      </trkpt>
      <trkpt lat="42.98019" lon="0.17997">
        <ele>1500.76</ele>
        <time>2013-02-21T09:28:46Z</time>
      </trkpt>
      <trkpt lat="42.98014" lon="0.17996">
        <ele>1502.68</ele>
        <time>2013-02-21T09:29:00Z</time>
      </trkpt>
      <trkpt lat="42.98014" lon="0.17991">
        <ele>1504.6</ele>
        <time>2013-02-21T09:29:11Z</time>
      </trkpt>
      <trkpt lat="42.98013" lon="0.17981">
        <ele>1506.04</ele>
        <time>2013-02-21T09:29:24Z</time>
      </trkpt>
      <trkpt lat="42.98013" lon="0.17973">
        <ele>1507.48</ele>
        <time>2013-02-21T09:29:38Z</time>
      </trkpt>
      <trkpt lat="42.98013" lon="0.17975">
        <ele>1507.97</ele>
        <time>2013-02-21T09:29:54Z</time>
      </trkpt>
      <trkpt lat="42.98011" lon="0.17964">
        <ele>1508.93</ele>
        <time>2013-02-21T09:30:10Z</time>
      </trkpt>
      <trkpt lat="42.98008" lon="0.17956">
        <ele>1510.85</ele>
        <time>2013-02-21T09:30:22Z</time>
      </trkpt>
      <trkpt lat="42.98006" lon="0.17947">
        <ele>1511.81</ele>
        <time>2013-02-21T09:30:36Z</time>
      </trkpt>
      <trkpt lat="42.98003" lon="0.17939">
        <ele>1514.21</ele>
        <time>2013-02-21T09:30:49Z</time>
      </trkpt>
      <trkpt lat="42.97999" lon="0.1793">
        <ele>1515.66</ele>
        <time>2013-02-21T09:31:02Z</time>
      </trkpt>
      <trkpt lat="42.97996" lon="0.17922">
        <ele>1517.1</ele>
        <time>2013-02-21T09:31:15Z</time>
      </trkpt>
      <trkpt lat="42.97995" lon="0.17918">
        <ele>1517.1</ele>
        <time>2013-02-21T09:31:22Z</time>
      </trkpt>
      <trkpt lat="42.97992" lon="0.17909">
        <ele>1519.02</ele>
        <time>2013-02-21T09:31:36Z</time>
      </trkpt>
      <trkpt lat="42.97989" lon="0.17903">
        <ele>1520.94</ele>
        <time>2013-02-21T09:31:47Z</time>
      </trkpt>
      <trkpt lat="42.97988" lon="0.17902">
        <ele>1520.94</ele>
        <time>2013-02-21T09:32:05Z</time>
      </trkpt>
      <trkpt lat="42.97987" lon="0.17903">
        <ele>1521.42</ele>
        <time>2013-02-21T09:32:23Z</time>
      </trkpt>
      <trkpt lat="42.97988" lon="0.17902">
        <ele>1520.94</ele>
        <time>2013-02-21T09:32:47Z</time>
      </trkpt>
      <trkpt lat="42.97987" lon="0.17902">
        <ele>1520.94</ele>
        <time>2013-02-21T09:33:07Z</time>
      </trkpt>
      <trkpt lat="42.97986" lon="0.17901">
        <ele>1521.42</ele>
        <time>2013-02-21T09:33:28Z</time>
      </trkpt>
      <trkpt lat="42.97986" lon="0.17901">
        <ele>1520.94</ele>
        <time>2013-02-21T09:34:01Z</time>
      </trkpt>
      <trkpt lat="42.97987" lon="0.17902">
        <ele>1520.46</ele>
        <time>2013-02-21T09:34:21Z</time>
      </trkpt>
      <trkpt lat="42.97987" lon="0.17902">
        <ele>1520.94</ele>
        <time>2013-02-21T09:34:42Z</time>
      </trkpt>
      <trkpt lat="42.97987" lon="0.17902">
        <ele>1520.46</ele>
        <time>2013-02-21T09:35:04Z</time>
      </trkpt>
      <trkpt lat="42.97986" lon="0.17902">
        <ele>1520.94</ele>
        <time>2013-02-21T09:35:31Z</time>
      </trkpt>
      <trkpt lat="42.97987" lon="0.17903">
        <ele>1520.94</ele>
        <time>2013-02-21T09:35:55Z</time>
      </trkpt>
      <trkpt lat="42.97987" lon="0.17904">
        <ele>1520.94</ele>
        <time>2013-02-21T09:36:21Z</time>
      </trkpt>
      <trkpt lat="42.9798" lon="0.17904">
        <ele>1522.39</ele>
        <time>2013-02-21T09:36:34Z</time>
      </trkpt>
      <trkpt lat="42.97975" lon="0.17904">
        <ele>1524.31</ele>
        <time>2013-02-21T09:36:47Z</time>
      </trkpt>
      <trkpt lat="42.97968" lon="0.17903">
        <ele>1525.27</ele>
        <time>2013-02-21T09:37:00Z</time>
      </trkpt>
      <trkpt lat="42.97962" lon="0.17904">
        <ele>1527.67</ele>
        <time>2013-02-21T09:37:13Z</time>
      </trkpt>
      <trkpt lat="42.97958" lon="0.17904">
        <ele>1529.11</ele>
        <time>2013-02-21T09:37:19Z</time>
      </trkpt>
      <trkpt lat="42.97952" lon="0.17903">
        <ele>1530.56</ele>
        <time>2013-02-21T09:37:33Z</time>
      </trkpt>
      <trkpt lat="42.9795" lon="0.17902">
        <ele>1531.52</ele>
        <time>2013-02-21T09:37:57Z</time>
      </trkpt>
      <trkpt lat="42.97943" lon="0.17901">
        <ele>1532</ele>
        <time>2013-02-21T09:38:10Z</time>
      </trkpt>
      <trkpt lat="42.97937" lon="0.17899">
        <ele>1535.36</ele>
        <time>2013-02-21T09:38:22Z</time>
      </trkpt>
      <trkpt lat="42.97932" lon="0.17895">
        <ele>1535.84</ele>
        <time>2013-02-21T09:38:34Z</time>
      </trkpt>
      <trkpt lat="42.97927" lon="0.1789">
        <ele>1538.73</ele>
        <time>2013-02-21T09:38:47Z</time>
      </trkpt>
      <trkpt lat="42.97922" lon="0.17885">
        <ele>1540.65</ele>
        <time>2013-02-21T09:39:01Z</time>
      </trkpt>
      <trkpt lat="42.97918" lon="0.17882">
        <ele>1542.09</ele>
        <time>2013-02-21T09:39:09Z</time>
      </trkpt>
      <trkpt lat="42.97913" lon="0.17878">
        <ele>1543.05</ele>
        <time>2013-02-21T09:39:22Z</time>
      </trkpt>
      <trkpt lat="42.97911" lon="0.17873">
        <ele>1544.01</ele>
        <time>2013-02-21T09:39:33Z</time>
      </trkpt>
      <trkpt lat="42.97911" lon="0.17862">
        <ele>1546.9</ele>
        <time>2013-02-21T09:39:48Z</time>
      </trkpt>
      <trkpt lat="42.97909" lon="0.17851">
        <ele>1547.86</ele>
        <time>2013-02-21T09:40:02Z</time>
      </trkpt>
      <trkpt lat="42.97907" lon="0.17843">
        <ele>1550.74</ele>
        <time>2013-02-21T09:40:15Z</time>
      </trkpt>
      <trkpt lat="42.97903" lon="0.17835">
        <ele>1551.71</ele>
        <time>2013-02-21T09:40:28Z</time>
      </trkpt>
      <trkpt lat="42.97899" lon="0.17827">
        <ele>1553.15</ele>
        <time>2013-02-21T09:40:41Z</time>
      </trkpt>
      <trkpt lat="42.97894" lon="0.17821">
        <ele>1555.55</ele>
        <time>2013-02-21T09:40:55Z</time>
      </trkpt>
      <trkpt lat="42.97889" lon="0.17812">
        <ele>1556.03</ele>
        <time>2013-02-21T09:41:07Z</time>
      </trkpt>
      <trkpt lat="42.97885" lon="0.17804">
        <ele>1558.43</ele>
        <time>2013-02-21T09:41:21Z</time>
      </trkpt>
      <trkpt lat="42.97881" lon="0.17796">
        <ele>1559.4</ele>
        <time>2013-02-21T09:41:35Z</time>
      </trkpt>
      <trkpt lat="42.97877" lon="0.17788">
        <ele>1561.32</ele>
        <time>2013-02-21T09:41:48Z</time>
      </trkpt>
      <trkpt lat="42.97874" lon="0.17781">
        <ele>1561.8</ele>
        <time>2013-02-21T09:42:02Z</time>
      </trkpt>
      <trkpt lat="42.97874" lon="0.17777">
        <ele>1564.2</ele>
        <time>2013-02-21T09:42:08Z</time>
      </trkpt>
      <trkpt lat="42.97872" lon="0.17769">
        <ele>1566.61</ele>
        <time>2013-02-21T09:42:22Z</time>
      </trkpt>
      <trkpt lat="42.97869" lon="0.17765">
        <ele>1568.05</ele>
        <time>2013-02-21T09:42:33Z</time>
      </trkpt>
      <trkpt lat="42.97862" lon="0.17768">
        <ele>1569.01</ele>
        <time>2013-02-21T09:42:47Z</time>
      </trkpt>
      <trkpt lat="42.97857" lon="0.17776">
        <ele>1570.45</ele>
        <time>2013-02-21T09:43:00Z</time>
      </trkpt>
      <trkpt lat="42.97852" lon="0.17778">
        <ele>1572.37</ele>
        <time>2013-02-21T09:43:12Z</time>
      </trkpt>
      <trkpt lat="42.97847" lon="0.17781">
        <ele>1573.33</ele>
        <time>2013-02-21T09:43:25Z</time>
      </trkpt>
      <trkpt lat="42.97846" lon="0.17781">
        <ele>1575.26</ele>
        <time>2013-02-21T09:43:27Z</time>
      </trkpt>
      <trkpt lat="42.97843" lon="0.1778">
        <ele>1575.74</ele>
        <time>2013-02-21T09:43:39Z</time>
      </trkpt>
      <trkpt lat="42.97837" lon="0.1778">
        <ele>1576.7</ele>
        <time>2013-02-21T09:43:51Z</time>
      </trkpt>
      <trkpt lat="42.97833" lon="0.17781">
        <ele>1578.14</ele>
        <time>2013-02-21T09:44:03Z</time>
      </trkpt>
      <trkpt lat="42.97834" lon="0.1778">
        <ele>1578.62</ele>
        <time>2013-02-21T09:44:25Z</time>
      </trkpt>
      <trkpt lat="42.97832" lon="0.17781">
        <ele>1578.62</ele>
        <time>2013-02-21T09:44:53Z</time>
      </trkpt>
      <trkpt lat="42.9783" lon="0.17784">
        <ele>1579.1</ele>
        <time>2013-02-21T09:45:11Z</time>
      </trkpt>
      <trkpt lat="42.97829" lon="0.17782">
        <ele>1578.62</ele>
        <time>2013-02-21T09:45:36Z</time>
      </trkpt>
      <trkpt lat="42.97831" lon="0.17784">
        <ele>1578.14</ele>
        <time>2013-02-21T09:45:57Z</time>
      </trkpt>
      <trkpt lat="42.97829" lon="0.17784">
        <ele>1579.58</ele>
        <time>2013-02-21T09:46:06Z</time>
      </trkpt>
      <trkpt lat="42.9783" lon="0.17786">
        <ele>1579.1</ele>
        <time>2013-02-21T09:46:35Z</time>
      </trkpt>
      <trkpt lat="42.9783" lon="0.17787">
        <ele>1579.1</ele>
        <time>2013-02-21T09:47:03Z</time>
      </trkpt>
      <trkpt lat="42.97831" lon="0.17785">
        <ele>1579.58</ele>
        <time>2013-02-21T09:47:22Z</time>
      </trkpt>
      <trkpt lat="42.97828" lon="0.17782">
        <ele>1580.54</ele>
        <time>2013-02-21T09:47:37Z</time>
      </trkpt>
      <trkpt lat="42.9782" lon="0.17784">
        <ele>1581.51</ele>
        <time>2013-02-21T09:47:51Z</time>
      </trkpt>
      <trkpt lat="42.97812" lon="0.17786">
        <ele>1582.95</ele>
        <time>2013-02-21T09:48:02Z</time>
      </trkpt>
      <trkpt lat="42.97806" lon="0.17793">
        <ele>1584.39</ele>
        <time>2013-02-21T09:48:16Z</time>
      </trkpt>
      <trkpt lat="42.97801" lon="0.17806">
        <ele>1586.31</ele>
        <time>2013-02-21T09:48:33Z</time>
      </trkpt>
      <trkpt lat="42.97798" lon="0.17822">
        <ele>1587.75</ele>
        <time>2013-02-21T09:48:50Z</time>
      </trkpt>
      <trkpt lat="42.97795" lon="0.17833">
        <ele>1590.64</ele>
        <time>2013-02-21T09:49:08Z</time>
      </trkpt>
      <trkpt lat="42.9779" lon="0.1784">
        <ele>1590.64</ele>
        <time>2013-02-21T09:49:21Z</time>
      </trkpt>
      <trkpt lat="42.97787" lon="0.17846">
        <ele>1594</ele>
        <time>2013-02-21T09:49:30Z</time>
      </trkpt>
      <trkpt lat="42.97782" lon="0.17858">
        <ele>1594.48</ele>
        <time>2013-02-21T09:49:46Z</time>
      </trkpt>
      <trkpt lat="42.97778" lon="0.17871">
        <ele>1595.93</ele>
        <time>2013-02-21T09:50:05Z</time>
      </trkpt>
      <trkpt lat="42.97774" lon="0.17885">
        <ele>1596.41</ele>
        <time>2013-02-21T09:50:20Z</time>
      </trkpt>
      <trkpt lat="42.97771" lon="0.17893">
        <ele>1600.25</ele>
        <time>2013-02-21T09:50:37Z</time>
      </trkpt>
      <trkpt lat="42.97771" lon="0.17887">
        <ele>1601.21</ele>
        <time>2013-02-21T09:50:50Z</time>
      </trkpt>
      <trkpt lat="42.97769" lon="0.17875">
        <ele>1602.66</ele>
        <time>2013-02-21T09:51:04Z</time>
      </trkpt>
      <trkpt lat="42.97766" lon="0.17864">
        <ele>1604.1</ele>
        <time>2013-02-21T09:51:19Z</time>
      </trkpt>
      <trkpt lat="42.97764" lon="0.17858">
        <ele>1607.94</ele>
        <time>2013-02-21T09:51:31Z</time>
      </trkpt>
      <trkpt lat="42.97762" lon="0.17849">
        <ele>1607.94</ele>
        <time>2013-02-21T09:51:44Z</time>
      </trkpt>
      <trkpt lat="42.9776" lon="0.1784">
        <ele>1609.86</ele>
        <time>2013-02-21T09:51:58Z</time>
      </trkpt>
      <trkpt lat="42.97758" lon="0.17832">
        <ele>1612.75</ele>
        <time>2013-02-21T09:52:14Z</time>
      </trkpt>
      <trkpt lat="42.97757" lon="0.17823">
        <ele>1614.19</ele>
        <time>2013-02-21T09:52:28Z</time>
      </trkpt>
      <trkpt lat="42.97754" lon="0.17812">
        <ele>1616.11</ele>
        <time>2013-02-21T09:52:41Z</time>
      </trkpt>
      <trkpt lat="42.97748" lon="0.17807">
        <ele>1617.56</ele>
        <time>2013-02-21T09:52:54Z</time>
      </trkpt>
      <trkpt lat="42.97742" lon="0.17811">
        <ele>1619.48</ele>
        <time>2013-02-21T09:53:06Z</time>
      </trkpt>
      <trkpt lat="42.97736" lon="0.17821">
        <ele>1621.4</ele>
        <time>2013-02-21T09:53:20Z</time>
      </trkpt>
      <trkpt lat="42.9773" lon="0.17828">
        <ele>1621.88</ele>
        <time>2013-02-21T09:53:33Z</time>
      </trkpt>
      <trkpt lat="42.97724" lon="0.17837">
        <ele>1624.77</ele>
        <time>2013-02-21T09:53:49Z</time>
      </trkpt>
      <trkpt lat="42.97718" lon="0.17843">
        <ele>1627.65</ele>
        <time>2013-02-21T09:54:05Z</time>
      </trkpt>
      <trkpt lat="42.97717" lon="0.17837">
        <ele>1627.65</ele>
        <time>2013-02-21T09:54:15Z</time>
      </trkpt>
      <trkpt lat="42.97717" lon="0.17834">
        <ele>1629.57</ele>
        <time>2013-02-21T09:54:28Z</time>
      </trkpt>
      <trkpt lat="42.97713" lon="0.17826">
        <ele>1631.01</ele>
        <time>2013-02-21T09:54:42Z</time>
      </trkpt>
      <trkpt lat="42.97708" lon="0.17823">
        <ele>1632.94</ele>
        <time>2013-02-21T09:54:52Z</time>
      </trkpt>
      <trkpt lat="42.97702" lon="0.17816">
        <ele>1633.9</ele>
        <time>2013-02-21T09:55:05Z</time>
      </trkpt>
      <trkpt lat="42.97698" lon="0.17819">
        <ele>1634.86</ele>
        <time>2013-02-21T09:55:15Z</time>
      </trkpt>
      <trkpt lat="42.97695" lon="0.17818">
        <ele>1636.78</ele>
        <time>2013-02-21T09:55:20Z</time>
      </trkpt>
      <trkpt lat="42.97691" lon="0.17819">
        <ele>1637.26</ele>
        <time>2013-02-21T09:55:32Z</time>
      </trkpt>
      <trkpt lat="42.97691" lon="0.17819">
        <ele>1638.22</ele>
        <time>2013-02-21T09:55:34Z</time>
      </trkpt>
      <trkpt lat="42.9769" lon="0.17812">
        <ele>1639.19</ele>
        <time>2013-02-21T09:55:48Z</time>
      </trkpt>
      <trkpt lat="42.9769" lon="0.17803">
        <ele>1641.11</ele>
        <time>2013-02-21T09:56:02Z</time>
      </trkpt>
      <trkpt lat="42.9769" lon="0.17794">
        <ele>1643.03</ele>
        <time>2013-02-21T09:56:15Z</time>
      </trkpt>
      <trkpt lat="42.9769" lon="0.17785">
        <ele>1644.47</ele>
        <time>2013-02-21T09:56:28Z</time>
      </trkpt>
      <trkpt lat="42.97689" lon="0.17779">
        <ele>1645.43</ele>
        <time>2013-02-21T09:56:40Z</time>
      </trkpt>
      <trkpt lat="42.97688" lon="0.17773">
        <ele>1647.84</ele>
        <time>2013-02-21T09:56:51Z</time>
      </trkpt>
      <trkpt lat="42.97688" lon="0.17773">
        <ele>1647.84</ele>
        <time>2013-02-21T09:56:52Z</time>
      </trkpt>
      <trkpt lat="42.97685" lon="0.1777">
        <ele>1647.84</ele>
        <time>2013-02-21T09:57:04Z</time>
      </trkpt>
      <trkpt lat="42.97684" lon="0.17769">
        <ele>1648.8</ele>
        <time>2013-02-21T09:57:12Z</time>
      </trkpt>
      <trkpt lat="42.97683" lon="0.17766">
        <ele>1650.24</ele>
        <time>2013-02-21T09:57:25Z</time>
      </trkpt>
      <trkpt lat="42.97681" lon="0.17759">
        <ele>1650.72</ele>
        <time>2013-02-21T09:57:37Z</time>
      </trkpt>
      <trkpt lat="42.9768" lon="0.17753">
        <ele>1652.16</ele>
        <time>2013-02-21T09:57:48Z</time>
      </trkpt>
      <trkpt lat="42.97675" lon="0.17748">
        <ele>1653.6</ele>
        <time>2013-02-21T09:57:59Z</time>
      </trkpt>
      <trkpt lat="42.97672" lon="0.17745">
        <ele>1654.57</ele>
        <time>2013-02-21T09:58:10Z</time>
      </trkpt>
      <trkpt lat="42.97671" lon="0.17738">
        <ele>1656.97</ele>
        <time>2013-02-21T09:58:23Z</time>
      </trkpt>
      <trkpt lat="42.97669" lon="0.17729">
        <ele>1657.45</ele>
        <time>2013-02-21T09:58:37Z</time>
      </trkpt>
      <trkpt lat="42.97667" lon="0.17722">
        <ele>1659.85</ele>
        <time>2013-02-21T09:58:48Z</time>
      </trkpt>
      <trkpt lat="42.97664" lon="0.17716">
        <ele>1661.78</ele>
        <time>2013-02-21T09:59:00Z</time>
      </trkpt>
      <trkpt lat="42.97663" lon="0.1771">
        <ele>1662.74</ele>
        <time>2013-02-21T09:59:12Z</time>
      </trkpt>
      <trkpt lat="42.97657" lon="0.17712">
        <ele>1665.14</ele>
        <time>2013-02-21T09:59:23Z</time>
      </trkpt>
      <trkpt lat="42.97651" lon="0.17713">
        <ele>1667.54</ele>
        <time>2013-02-21T09:59:36Z</time>
      </trkpt>
      <trkpt lat="42.97645" lon="0.17715">
        <ele>1668.02</ele>
        <time>2013-02-21T09:59:48Z</time>
      </trkpt>
      <trkpt lat="42.97642" lon="0.17714">
        <ele>1667.54</ele>
        <time>2013-02-21T10:00:00Z</time>
      </trkpt>
      <trkpt lat="42.97636" lon="0.17713">
        <ele>1670.43</ele>
        <time>2013-02-21T10:00:12Z</time>
      </trkpt>
      <trkpt lat="42.97631" lon="0.1771">
        <ele>1670.91</ele>
        <time>2013-02-21T10:00:24Z</time>
      </trkpt>
      <trkpt lat="42.97626" lon="0.17708">
        <ele>1672.83</ele>
        <time>2013-02-21T10:00:38Z</time>
      </trkpt>
      <trkpt lat="42.97623" lon="0.17706">
        <ele>1674.27</ele>
        <time>2013-02-21T10:00:57Z</time>
      </trkpt>
      <trkpt lat="42.97623" lon="0.17705">
        <ele>1675.23</ele>
        <time>2013-02-21T10:01:08Z</time>
      </trkpt>
      <trkpt lat="42.97625" lon="0.177">
        <ele>1676.68</ele>
        <time>2013-02-21T10:01:21Z</time>
      </trkpt>
      <trkpt lat="42.97626" lon="0.17693">
        <ele>1678.12</ele>
        <time>2013-02-21T10:01:33Z</time>
      </trkpt>
      <trkpt lat="42.97623" lon="0.17688">
        <ele>1678.6</ele>
        <time>2013-02-21T10:01:55Z</time>
      </trkpt>
      <trkpt lat="42.9762" lon="0.17685">
        <ele>1680.52</ele>
        <time>2013-02-21T10:02:08Z</time>
      </trkpt>
      <trkpt lat="42.97619" lon="0.17685">
        <ele>1681.48</ele>
        <time>2013-02-21T10:02:34Z</time>
      </trkpt>
      <trkpt lat="42.9762" lon="0.17682">
        <ele>1682.44</ele>
        <time>2013-02-21T10:02:45Z</time>
      </trkpt>
      <trkpt lat="42.97617" lon="0.1768">
        <ele>1683.41</ele>
        <time>2013-02-21T10:02:57Z</time>
      </trkpt>
      <trkpt lat="42.97615" lon="0.17678">
        <ele>1684.85</ele>
        <time>2013-02-21T10:03:12Z</time>
      </trkpt>
      <trkpt lat="42.97617" lon="0.17677">
        <ele>1685.81</ele>
        <time>2013-02-21T10:03:25Z</time>
      </trkpt>
      <trkpt lat="42.97616" lon="0.17671">
        <ele>1686.77</ele>
        <time>2013-02-21T10:03:37Z</time>
      </trkpt>
      <trkpt lat="42.97614" lon="0.17672">
        <ele>1687.73</ele>
        <time>2013-02-21T10:03:39Z</time>
      </trkpt>
      <trkpt lat="42.97612" lon="0.17671">
        <ele>1686.77</ele>
        <time>2013-02-21T10:03:56Z</time>
      </trkpt>
      <trkpt lat="42.97611" lon="0.17669">
        <ele>1688.69</ele>
        <time>2013-02-21T10:04:09Z</time>
      </trkpt>
      <trkpt lat="42.97609" lon="0.17667">
        <ele>1689.17</ele>
        <time>2013-02-21T10:04:21Z</time>
      </trkpt>
      <trkpt lat="42.97608" lon="0.17665">
        <ele>1689.65</ele>
        <time>2013-02-21T10:04:38Z</time>
      </trkpt>
      <trkpt lat="42.97607" lon="0.17663">
        <ele>1690.62</ele>
        <time>2013-02-21T10:04:53Z</time>
      </trkpt>
      <trkpt lat="42.97606" lon="0.17662">
        <ele>1691.1</ele>
        <time>2013-02-21T10:05:10Z</time>
      </trkpt>
      <trkpt lat="42.97603" lon="0.17659">
        <ele>1693.02</ele>
        <time>2013-02-21T10:05:21Z</time>
      </trkpt>
      <trkpt lat="42.97598" lon="0.17653">
        <ele>1694.46</ele>
        <time>2013-02-21T10:05:34Z</time>
      </trkpt>
      <trkpt lat="42.97599" lon="0.17655">
        <ele>1694.46</ele>
        <time>2013-02-21T10:05:52Z</time>
      </trkpt>
      <trkpt lat="42.97602" lon="0.17656">
        <ele>1695.42</ele>
        <time>2013-02-21T10:06:03Z</time>
      </trkpt>
      <trkpt lat="42.976" lon="0.1765">
        <ele>1697.83</ele>
        <time>2013-02-21T10:06:12Z</time>
      </trkpt>
      <trkpt lat="42.97599" lon="0.17649">
        <ele>1697.83</ele>
        <time>2013-02-21T10:06:13Z</time>
      </trkpt>
      <trkpt lat="42.97599" lon="0.17648">
        <ele>1697.83</ele>
        <time>2013-02-21T10:06:35Z</time>
      </trkpt>
      <trkpt lat="42.97597" lon="0.1765">
        <ele>1695.9</ele>
        <time>2013-02-21T10:06:40Z</time>
      </trkpt>
      <trkpt lat="42.97596" lon="0.1765">
        <ele>1702.63</ele>
        <time>2013-02-21T10:06:42Z</time>
      </trkpt>
      <trkpt lat="42.97596" lon="0.1765">
        <ele>1698.79</ele>
        <time>2013-02-21T10:06:43Z</time>
      </trkpt>
      <trkpt lat="42.97595" lon="0.1765">
        <ele>1696.86</ele>
        <time>2013-02-21T10:06:45Z</time>
      </trkpt>
      <trkpt lat="42.97595" lon="0.17653">
        <ele>1696.86</ele>
        <time>2013-02-21T10:07:24Z</time>
      </trkpt>
      <trkpt lat="42.97595" lon="0.17653">
        <ele>1688.21</ele>
        <time>2013-02-21T10:07:28Z</time>
      </trkpt>
      <trkpt lat="42.97595" lon="0.17653">
        <ele>1694.46</ele>
        <time>2013-02-21T10:07:29Z</time>
      </trkpt>
      <trkpt lat="42.97595" lon="0.17653">
        <ele>1696.38</ele>
        <time>2013-02-21T10:07:31Z</time>
      </trkpt>
      <trkpt lat="42.97597" lon="0.17651">
        <ele>1697.34</ele>
        <time>2013-02-21T10:07:47Z</time>
      </trkpt>
      <trkpt lat="42.97597" lon="0.17648">
        <ele>1697.34</ele>
        <time>2013-02-21T10:08:04Z</time>
      </trkpt>
      <trkpt lat="42.97598" lon="0.17648">
        <ele>1697.34</ele>
        <time>2013-02-21T10:08:23Z</time>
      </trkpt>
      <trkpt lat="42.97598" lon="0.1765">
        <ele>1697.34</ele>
        <time>2013-02-21T10:08:48Z</time>
      </trkpt>
      <trkpt lat="42.97597" lon="0.17647">
        <ele>1696.86</ele>
        <time>2013-02-21T10:09:04Z</time>
      </trkpt>
      <trkpt lat="42.97593" lon="0.1764">
        <ele>1697.34</ele>
        <time>2013-02-21T10:09:17Z</time>
      </trkpt>
      <trkpt lat="42.97584" lon="0.17631">
        <ele>1697.83</ele>
        <time>2013-02-21T10:09:31Z</time>
      </trkpt>
      <trkpt lat="42.97574" lon="0.17625">
        <ele>1699.75</ele>
        <time>2013-02-21T10:09:45Z</time>
      </trkpt>
      <trkpt lat="42.97568" lon="0.1762">
        <ele>1701.67</ele>
        <time>2013-02-21T10:09:58Z</time>
      </trkpt>
      <trkpt lat="42.97562" lon="0.17617">
        <ele>1703.11</ele>
        <time>2013-02-21T10:10:10Z</time>
      </trkpt>
      <trkpt lat="42.97555" lon="0.17616">
        <ele>1704.55</ele>
        <time>2013-02-21T10:10:24Z</time>
      </trkpt>
      <trkpt lat="42.97551" lon="0.17613">
        <ele>1706.48</ele>
        <time>2013-02-21T10:10:37Z</time>
      </trkpt>
      <trkpt lat="42.97545" lon="0.1761">
        <ele>1707.92</ele>
        <time>2013-02-21T10:10:50Z</time>
      </trkpt>
      <trkpt lat="42.9754" lon="0.17606">
        <ele>1709.84</ele>
        <time>2013-02-21T10:11:04Z</time>
      </trkpt>
      <trkpt lat="42.97538" lon="0.17603">
        <ele>1710.8</ele>
        <time>2013-02-21T10:11:18Z</time>
      </trkpt>
      <trkpt lat="42.97539" lon="0.17602">
        <ele>1714.17</ele>
        <time>2013-02-21T10:11:25Z</time>
      </trkpt>
      <trkpt lat="42.97543" lon="0.17598">
        <ele>1715.13</ele>
        <time>2013-02-21T10:11:38Z</time>
      </trkpt>
      <trkpt lat="42.97545" lon="0.17592">
        <ele>1715.61</ele>
        <time>2013-02-21T10:11:50Z</time>
      </trkpt>
      <trkpt lat="42.97547" lon="0.17585">
        <ele>1716.57</ele>
        <time>2013-02-21T10:12:02Z</time>
      </trkpt>
      <trkpt lat="42.9755" lon="0.1758">
        <ele>1718.01</ele>
        <time>2013-02-21T10:12:15Z</time>
      </trkpt>
      <trkpt lat="42.97551" lon="0.17572">
        <ele>1719.46</ele>
        <time>2013-02-21T10:12:27Z</time>
      </trkpt>
      <trkpt lat="42.97544" lon="0.17569">
        <ele>1720.9</ele>
        <time>2013-02-21T10:12:40Z</time>
      </trkpt>
      <trkpt lat="42.9754" lon="0.17568">
        <ele>1722.34</ele>
        <time>2013-02-21T10:12:47Z</time>
      </trkpt>
      <trkpt lat="42.97534" lon="0.17566">
        <ele>1723.3</ele>
        <time>2013-02-21T10:13:01Z</time>
      </trkpt>
      <trkpt lat="42.97529" lon="0.17564">
        <ele>1724.74</ele>
        <time>2013-02-21T10:13:13Z</time>
      </trkpt>
      <trkpt lat="42.97527" lon="0.17563">
        <ele>1725.7</ele>
        <time>2013-02-21T10:13:33Z</time>
      </trkpt>
      <trkpt lat="42.97521" lon="0.1756">
        <ele>1727.63</ele>
        <time>2013-02-21T10:13:47Z</time>
      </trkpt>
      <trkpt lat="42.97522" lon="0.17561">
        <ele>1730.03</ele>
        <time>2013-02-21T10:13:54Z</time>
      </trkpt>
      <trkpt lat="42.97524" lon="0.1756">
        <ele>1730.51</ele>
        <time>2013-02-21T10:14:02Z</time>
      </trkpt>
      <trkpt lat="42.9753" lon="0.17553">
        <ele>1732.91</ele>
        <time>2013-02-21T10:14:16Z</time>
      </trkpt>
      <trkpt lat="42.97534" lon="0.17548">
        <ele>1733.39</ele>
        <time>2013-02-21T10:14:28Z</time>
      </trkpt>
      <trkpt lat="42.97535" lon="0.17543">
        <ele>1734.36</ele>
        <time>2013-02-21T10:14:34Z</time>
      </trkpt>
      <trkpt lat="42.97529" lon="0.17538">
        <ele>1735.32</ele>
        <time>2013-02-21T10:14:48Z</time>
      </trkpt>
      <trkpt lat="42.97522" lon="0.17532">
        <ele>1737.72</ele>
        <time>2013-02-21T10:15:03Z</time>
      </trkpt>
      <trkpt lat="42.97517" lon="0.17527">
        <ele>1739.64</ele>
        <time>2013-02-21T10:15:18Z</time>
      </trkpt>
      <trkpt lat="42.97514" lon="0.17524">
        <ele>1741.08</ele>
        <time>2013-02-21T10:15:27Z</time>
      </trkpt>
      <trkpt lat="42.97512" lon="0.17522">
        <ele>1742.53</ele>
        <time>2013-02-21T10:15:33Z</time>
      </trkpt>
      <trkpt lat="42.97507" lon="0.17516">
        <ele>1743.97</ele>
        <time>2013-02-21T10:15:47Z</time>
      </trkpt>
      <trkpt lat="42.97503" lon="0.1751">
        <ele>1745.89</ele>
        <time>2013-02-21T10:16:01Z</time>
      </trkpt>
      <trkpt lat="42.97501" lon="0.17506">
        <ele>1747.33</ele>
        <time>2013-02-21T10:16:13Z</time>
      </trkpt>
      <trkpt lat="42.975" lon="0.17503">
        <ele>1749.74</ele>
        <time>2013-02-21T10:16:25Z</time>
      </trkpt>
      <trkpt lat="42.97503" lon="0.17501">
        <ele>1750.22</ele>
        <time>2013-02-21T10:16:42Z</time>
      </trkpt>
      <trkpt lat="42.97508" lon="0.17497">
        <ele>1751.66</ele>
        <time>2013-02-21T10:16:54Z</time>
      </trkpt>
      <trkpt lat="42.97511" lon="0.17492">
        <ele>1753.58</ele>
        <time>2013-02-21T10:17:06Z</time>
      </trkpt>
      <trkpt lat="42.97515" lon="0.17484">
        <ele>1754.06</ele>
        <time>2013-02-21T10:17:19Z</time>
      </trkpt>
      <trkpt lat="42.97515" lon="0.17482">
        <ele>1755.5</ele>
        <time>2013-02-21T10:17:21Z</time>
      </trkpt>
      <trkpt lat="42.9751" lon="0.17474">
        <ele>1757.43</ele>
        <time>2013-02-21T10:17:36Z</time>
      </trkpt>
      <trkpt lat="42.97507" lon="0.17467">
        <ele>1759.35</ele>
        <time>2013-02-21T10:17:50Z</time>
      </trkpt>
      <trkpt lat="42.97506" lon="0.17461">
        <ele>1759.83</ele>
        <time>2013-02-21T10:18:03Z</time>
      </trkpt>
      <trkpt lat="42.97506" lon="0.1746">
        <ele>1761.75</ele>
        <time>2013-02-21T10:18:06Z</time>
      </trkpt>
      <trkpt lat="42.97508" lon="0.17458">
        <ele>1762.71</ele>
        <time>2013-02-21T10:18:18Z</time>
      </trkpt>
      <trkpt lat="42.97509" lon="0.17451">
        <ele>1763.68</ele>
        <time>2013-02-21T10:18:38Z</time>
      </trkpt>
      <trkpt lat="42.97506" lon="0.17445">
        <ele>1764.64</ele>
        <time>2013-02-21T10:18:50Z</time>
      </trkpt>
      <trkpt lat="42.97503" lon="0.17439">
        <ele>1765.6</ele>
        <time>2013-02-21T10:19:00Z</time>
      </trkpt>
      <trkpt lat="42.97504" lon="0.17437">
        <ele>1768.48</ele>
        <time>2013-02-21T10:19:09Z</time>
      </trkpt>
      <trkpt lat="42.97504" lon="0.17436">
        <ele>1768.48</ele>
        <time>2013-02-21T10:19:10Z</time>
      </trkpt>
      <trkpt lat="42.97506" lon="0.17434">
        <ele>1768.96</ele>
        <time>2013-02-21T10:19:29Z</time>
      </trkpt>
      <trkpt lat="42.97505" lon="0.17426">
        <ele>1769.92</ele>
        <time>2013-02-21T10:19:42Z</time>
      </trkpt>
      <trkpt lat="42.97498" lon="0.17419">
        <ele>1769.92</ele>
        <time>2013-02-21T10:19:55Z</time>
      </trkpt>
      <trkpt lat="42.97495" lon="0.17416">
        <ele>1771.37</ele>
        <time>2013-02-21T10:20:09Z</time>
      </trkpt>
      <trkpt lat="42.97493" lon="0.17413">
        <ele>1774.25</ele>
        <time>2013-02-21T10:20:41Z</time>
      </trkpt>
      <trkpt lat="42.97495" lon="0.17412">
        <ele>1776.65</ele>
        <time>2013-02-21T10:20:50Z</time>
      </trkpt>
      <trkpt lat="42.97499" lon="0.17408">
        <ele>1777.13</ele>
        <time>2013-02-21T10:21:04Z</time>
      </trkpt>
      <trkpt lat="42.97498" lon="0.17405">
        <ele>1779.06</ele>
        <time>2013-02-21T10:21:07Z</time>
      </trkpt>
      <trkpt lat="42.97497" lon="0.17403">
        <ele>1778.1</ele>
        <time>2013-02-21T10:21:23Z</time>
      </trkpt>
      <trkpt lat="42.97498" lon="0.17403">
        <ele>1777.13</ele>
        <time>2013-02-21T10:21:34Z</time>
      </trkpt>
      <trkpt lat="42.97497" lon="0.17402">
        <ele>1778.1</ele>
        <time>2013-02-21T10:21:36Z</time>
      </trkpt>
      <trkpt lat="42.97498" lon="0.17402">
        <ele>1779.06</ele>
        <time>2013-02-21T10:21:41Z</time>
      </trkpt>
      <trkpt lat="42.97498" lon="0.174">
        <ele>1780.5</ele>
        <time>2013-02-21T10:21:44Z</time>
      </trkpt>
      <trkpt lat="42.97499" lon="0.17393">
        <ele>1780.02</ele>
        <time>2013-02-21T10:21:55Z</time>
      </trkpt>
      <trkpt lat="42.97497" lon="0.17389">
        <ele>1781.94</ele>
        <time>2013-02-21T10:22:06Z</time>
      </trkpt>
      <trkpt lat="42.97496" lon="0.17388">
        <ele>1784.34</ele>
        <time>2013-02-21T10:22:15Z</time>
      </trkpt>
      <trkpt lat="42.97497" lon="0.17387">
        <ele>1781.94</ele>
        <time>2013-02-21T10:22:19Z</time>
      </trkpt>
      <trkpt lat="42.97497" lon="0.17381">
        <ele>1784.82</ele>
        <time>2013-02-21T10:22:30Z</time>
      </trkpt>
      <trkpt lat="42.97498" lon="0.17373">
        <ele>1785.79</ele>
        <time>2013-02-21T10:22:41Z</time>
      </trkpt>
      <trkpt lat="42.97498" lon="0.17371">
        <ele>1786.75</ele>
        <time>2013-02-21T10:22:46Z</time>
      </trkpt>
      <trkpt lat="42.97499" lon="0.17364">
        <ele>1786.27</ele>
        <time>2013-02-21T10:22:58Z</time>
      </trkpt>
      <trkpt lat="42.97498" lon="0.17362">
        <ele>1787.71</ele>
        <time>2013-02-21T10:23:05Z</time>
      </trkpt>
      <trkpt lat="42.97497" lon="0.17358">
        <ele>1787.23</ele>
        <time>2013-02-21T10:23:23Z</time>
      </trkpt>
      <trkpt lat="42.97498" lon="0.1735">
        <ele>1789.15</ele>
        <time>2013-02-21T10:23:34Z</time>
      </trkpt>
      <trkpt lat="42.97499" lon="0.17343">
        <ele>1789.63</ele>
        <time>2013-02-21T10:23:46Z</time>
      </trkpt>
      <trkpt lat="42.97498" lon="0.17336">
        <ele>1793</ele>
        <time>2013-02-21T10:23:56Z</time>
      </trkpt>
      <trkpt lat="42.97497" lon="0.17336">
        <ele>1793.48</ele>
        <time>2013-02-21T10:23:57Z</time>
      </trkpt>
      <trkpt lat="42.97489" lon="0.17335">
        <ele>1794.44</ele>
        <time>2013-02-21T10:24:11Z</time>
      </trkpt>
      <trkpt lat="42.97483" lon="0.17334">
        <ele>1796.84</ele>
        <time>2013-02-21T10:24:23Z</time>
      </trkpt>
      <trkpt lat="42.97476" lon="0.17333">
        <ele>1797.8</ele>
        <time>2013-02-21T10:24:37Z</time>
      </trkpt>
      <trkpt lat="42.97471" lon="0.1733">
        <ele>1799.24</ele>
        <time>2013-02-21T10:24:50Z</time>
      </trkpt>
      <trkpt lat="42.97466" lon="0.17326">
        <ele>1801.17</ele>
        <time>2013-02-21T10:25:04Z</time>
      </trkpt>
      <trkpt lat="42.97463" lon="0.17321">
        <ele>1802.61</ele>
        <time>2013-02-21T10:25:16Z</time>
      </trkpt>
      <trkpt lat="42.9746" lon="0.17317">
        <ele>1804.05</ele>
        <time>2013-02-21T10:25:30Z</time>
      </trkpt>
      <trkpt lat="42.97457" lon="0.17311">
        <ele>1805.01</ele>
        <time>2013-02-21T10:25:42Z</time>
      </trkpt>
      <trkpt lat="42.97456" lon="0.17308">
        <ele>1805.97</ele>
        <time>2013-02-21T10:26:08Z</time>
      </trkpt>
      <trkpt lat="42.97452" lon="0.173">
        <ele>1807.42</ele>
        <time>2013-02-21T10:26:21Z</time>
      </trkpt>
      <trkpt lat="42.97449" lon="0.17293">
        <ele>1809.82</ele>
        <time>2013-02-21T10:26:35Z</time>
      </trkpt>
      <trkpt lat="42.97446" lon="0.17286">
        <ele>1811.74</ele>
        <time>2013-02-21T10:26:48Z</time>
      </trkpt>
      <trkpt lat="42.97443" lon="0.17278">
        <ele>1812.7</ele>
        <time>2013-02-21T10:27:01Z</time>
      </trkpt>
      <trkpt lat="42.97442" lon="0.1727">
        <ele>1814.15</ele>
        <time>2013-02-21T10:27:14Z</time>
      </trkpt>
      <trkpt lat="42.97442" lon="0.17261">
        <ele>1816.55</ele>
        <time>2013-02-21T10:27:28Z</time>
      </trkpt>
      <trkpt lat="42.97441" lon="0.17254">
        <ele>1817.03</ele>
        <time>2013-02-21T10:27:41Z</time>
      </trkpt>
      <trkpt lat="42.97442" lon="0.17246">
        <ele>1818.95</ele>
        <time>2013-02-21T10:27:52Z</time>
      </trkpt>
      <trkpt lat="42.97443" lon="0.17239">
        <ele>1819.91</ele>
        <time>2013-02-21T10:28:04Z</time>
      </trkpt>
      <trkpt lat="42.97445" lon="0.17235">
        <ele>1821.35</ele>
        <time>2013-02-21T10:28:16Z</time>
      </trkpt>
      <trkpt lat="42.97449" lon="0.1723">
        <ele>1822.8</ele>
        <time>2013-02-21T10:28:29Z</time>
      </trkpt>
      <trkpt lat="42.97455" lon="0.17225">
        <ele>1824.72</ele>
        <time>2013-02-21T10:28:42Z</time>
      </trkpt>
      <trkpt lat="42.97458" lon="0.17221">
        <ele>1826.16</ele>
        <time>2013-02-21T10:28:49Z</time>
      </trkpt>
      <trkpt lat="42.97461" lon="0.17216">
        <ele>1826.64</ele>
        <time>2013-02-21T10:28:59Z</time>
      </trkpt>
      <trkpt lat="42.97466" lon="0.17211">
        <ele>1827.6</ele>
        <time>2013-02-21T10:29:11Z</time>
      </trkpt>
      <trkpt lat="42.97469" lon="0.17206">
        <ele>1828.56</ele>
        <time>2013-02-21T10:29:23Z</time>
      </trkpt>
      <trkpt lat="42.97474" lon="0.172">
        <ele>1830.01</ele>
        <time>2013-02-21T10:29:34Z</time>
      </trkpt>
      <trkpt lat="42.97477" lon="0.17194">
        <ele>1830.97</ele>
        <time>2013-02-21T10:29:46Z</time>
      </trkpt>
      <trkpt lat="42.97479" lon="0.1719">
        <ele>1831.93</ele>
        <time>2013-02-21T10:30:05Z</time>
      </trkpt>
      <trkpt lat="42.97484" lon="0.17184">
        <ele>1832.89</ele>
        <time>2013-02-21T10:30:17Z</time>
      </trkpt>
      <trkpt lat="42.97487" lon="0.17179">
        <ele>1834.33</ele>
        <time>2013-02-21T10:30:28Z</time>
      </trkpt>
      <trkpt lat="42.9749" lon="0.17171">
        <ele>1835.77</ele>
        <time>2013-02-21T10:30:40Z</time>
      </trkpt>
      <trkpt lat="42.97493" lon="0.17166">
        <ele>1837.22</ele>
        <time>2013-02-21T10:30:53Z</time>
      </trkpt>
      <trkpt lat="42.97497" lon="0.1716">
        <ele>1837.7</ele>
        <time>2013-02-21T10:31:13Z</time>
      </trkpt>
      <trkpt lat="42.975" lon="0.17154">
        <ele>1839.62</ele>
        <time>2013-02-21T10:31:25Z</time>
      </trkpt>
      <trkpt lat="42.97502" lon="0.17146">
        <ele>1840.58</ele>
        <time>2013-02-21T10:31:37Z</time>
      </trkpt>
      <trkpt lat="42.97502" lon="0.17141">
        <ele>1842.5</ele>
        <time>2013-02-21T10:31:47Z</time>
      </trkpt>
      <trkpt lat="42.97502" lon="0.17138">
        <ele>1843.47</ele>
        <time>2013-02-21T10:31:58Z</time>
      </trkpt>
      <trkpt lat="42.975" lon="0.17132">
        <ele>1843.47</ele>
        <time>2013-02-21T10:32:13Z</time>
      </trkpt>
      <trkpt lat="42.97496" lon="0.17126">
        <ele>1845.87</ele>
        <time>2013-02-21T10:32:26Z</time>
      </trkpt>
      <trkpt lat="42.97494" lon="0.17124">
        <ele>1846.35</ele>
        <time>2013-02-21T10:32:40Z</time>
      </trkpt>
      <trkpt lat="42.97492" lon="0.1712">
        <ele>1847.31</ele>
        <time>2013-02-21T10:33:05Z</time>
      </trkpt>
      <trkpt lat="42.9749" lon="0.17111">
        <ele>1848.75</ele>
        <time>2013-02-21T10:33:16Z</time>
      </trkpt>
      <trkpt lat="42.97487" lon="0.17099">
        <ele>1851.16</ele>
        <time>2013-02-21T10:33:33Z</time>
      </trkpt>
      <trkpt lat="42.97485" lon="0.17092">
        <ele>1852.12</ele>
        <time>2013-02-21T10:33:47Z</time>
      </trkpt>
      <trkpt lat="42.97485" lon="0.17093">
        <ele>1852.12</ele>
        <time>2013-02-21T10:34:12Z</time>
      </trkpt>
      <trkpt lat="42.97485" lon="0.17085">
        <ele>1853.08</ele>
        <time>2013-02-21T10:34:25Z</time>
      </trkpt>
      <trkpt lat="42.97484" lon="0.17072">
        <ele>1855.48</ele>
        <time>2013-02-21T10:34:44Z</time>
      </trkpt>
      <trkpt lat="42.97484" lon="0.17063">
        <ele>1857.4</ele>
        <time>2013-02-21T10:34:55Z</time>
      </trkpt>
      <trkpt lat="42.97484" lon="0.17055">
        <ele>1857.4</ele>
        <time>2013-02-21T10:35:10Z</time>
      </trkpt>
      <trkpt lat="42.97483" lon="0.17049">
        <ele>1858.85</ele>
        <time>2013-02-21T10:35:30Z</time>
      </trkpt>
      <trkpt lat="42.97482" lon="0.17044">
        <ele>1859.33</ele>
        <time>2013-02-21T10:35:45Z</time>
      </trkpt>
      <trkpt lat="42.97482" lon="0.17033">
        <ele>1860.77</ele>
        <time>2013-02-21T10:36:01Z</time>
      </trkpt>
      <trkpt lat="42.97482" lon="0.17031">
        <ele>1861.25</ele>
        <time>2013-02-21T10:36:16Z</time>
      </trkpt>
      <trkpt lat="42.97483" lon="0.17026">
        <ele>1862.21</ele>
        <time>2013-02-21T10:36:29Z</time>
      </trkpt>
      <trkpt lat="42.97484" lon="0.17016">
        <ele>1864.61</ele>
        <time>2013-02-21T10:36:41Z</time>
      </trkpt>
      <trkpt lat="42.97486" lon="0.17008">
        <ele>1865.09</ele>
        <time>2013-02-21T10:36:54Z</time>
      </trkpt>
      <trkpt lat="42.97488" lon="0.17">
        <ele>1867.02</ele>
        <time>2013-02-21T10:37:07Z</time>
      </trkpt>
      <trkpt lat="42.97489" lon="0.16997">
        <ele>1867.98</ele>
        <time>2013-02-21T10:37:20Z</time>
      </trkpt>
      <trkpt lat="42.97491" lon="0.16988">
        <ele>1868.46</ele>
        <time>2013-02-21T10:37:36Z</time>
      </trkpt>
      <trkpt lat="42.97494" lon="0.1698">
        <ele>1871.34</ele>
        <time>2013-02-21T10:37:50Z</time>
      </trkpt>
      <trkpt lat="42.97497" lon="0.16971">
        <ele>1871.82</ele>
        <time>2013-02-21T10:38:04Z</time>
      </trkpt>
      <trkpt lat="42.97499" lon="0.16963">
        <ele>1872.79</ele>
        <time>2013-02-21T10:38:16Z</time>
      </trkpt>
      <trkpt lat="42.97501" lon="0.16956">
        <ele>1873.75</ele>
        <time>2013-02-21T10:38:29Z</time>
      </trkpt>
      <trkpt lat="42.97503" lon="0.16949">
        <ele>1875.19</ele>
        <time>2013-02-21T10:38:41Z</time>
      </trkpt>
      <trkpt lat="42.97506" lon="0.16941">
        <ele>1878.55</ele>
        <time>2013-02-21T10:38:53Z</time>
      </trkpt>
      <trkpt lat="42.97507" lon="0.16934">
        <ele>1878.55</ele>
        <time>2013-02-21T10:39:05Z</time>
      </trkpt>
      <trkpt lat="42.9751" lon="0.16928">
        <ele>1879.03</ele>
        <time>2013-02-21T10:39:17Z</time>
      </trkpt>
      <trkpt lat="42.97512" lon="0.1692">
        <ele>1880.48</ele>
        <time>2013-02-21T10:39:30Z</time>
      </trkpt>
      <trkpt lat="42.97512" lon="0.16912">
        <ele>1881.92</ele>
        <time>2013-02-21T10:39:41Z</time>
      </trkpt>
      <trkpt lat="42.97514" lon="0.16905">
        <ele>1882.88</ele>
        <time>2013-02-21T10:39:53Z</time>
      </trkpt>
      <trkpt lat="42.97515" lon="0.169">
        <ele>1884.8</ele>
        <time>2013-02-21T10:40:03Z</time>
      </trkpt>
      <trkpt lat="42.97516" lon="0.16892">
        <ele>1885.76</ele>
        <time>2013-02-21T10:40:15Z</time>
      </trkpt>
      <trkpt lat="42.97518" lon="0.16884">
        <ele>1887.21</ele>
        <time>2013-02-21T10:40:28Z</time>
      </trkpt>
      <trkpt lat="42.97519" lon="0.16876">
        <ele>1888.65</ele>
        <time>2013-02-21T10:40:40Z</time>
      </trkpt>
      <trkpt lat="42.97521" lon="0.16872">
        <ele>1889.13</ele>
        <time>2013-02-21T10:40:52Z</time>
      </trkpt>
      <trkpt lat="42.97521" lon="0.16865">
        <ele>1890.57</ele>
        <time>2013-02-21T10:41:08Z</time>
      </trkpt>
      <trkpt lat="42.97521" lon="0.16857">
        <ele>1891.53</ele>
        <time>2013-02-21T10:41:19Z</time>
      </trkpt>
      <trkpt lat="42.97518" lon="0.16851">
        <ele>1892.97</ele>
        <time>2013-02-21T10:41:29Z</time>
      </trkpt>
      <trkpt lat="42.97511" lon="0.1685">
        <ele>1894.42</ele>
        <time>2013-02-21T10:41:41Z</time>
      </trkpt>
      <trkpt lat="42.97507" lon="0.1685">
        <ele>1895.38</ele>
        <time>2013-02-21T10:41:55Z</time>
      </trkpt>
      <trkpt lat="42.97501" lon="0.16848">
        <ele>1896.82</ele>
        <time>2013-02-21T10:42:10Z</time>
      </trkpt>
      <trkpt lat="42.97495" lon="0.16847">
        <ele>1898.26</ele>
        <time>2013-02-21T10:42:22Z</time>
      </trkpt>
      <trkpt lat="42.9749" lon="0.16844">
        <ele>1899.7</ele>
        <time>2013-02-21T10:42:35Z</time>
      </trkpt>
      <trkpt lat="42.97485" lon="0.16841">
        <ele>1901.63</ele>
        <time>2013-02-21T10:42:50Z</time>
      </trkpt>
      <trkpt lat="42.97484" lon="0.16841">
        <ele>1902.59</ele>
        <time>2013-02-21T10:43:09Z</time>
      </trkpt>
      <trkpt lat="42.97478" lon="0.16837">
        <ele>1904.51</ele>
        <time>2013-02-21T10:43:22Z</time>
      </trkpt>
      <trkpt lat="42.97473" lon="0.16831">
        <ele>1905.95</ele>
        <time>2013-02-21T10:43:35Z</time>
      </trkpt>
      <trkpt lat="42.97472" lon="0.1683">
        <ele>1907.39</ele>
        <time>2013-02-21T10:43:49Z</time>
      </trkpt>
      <trkpt lat="42.97467" lon="0.16825">
        <ele>1909.32</ele>
        <time>2013-02-21T10:44:06Z</time>
      </trkpt>
      <trkpt lat="42.97463" lon="0.16819">
        <ele>1910.28</ele>
        <time>2013-02-21T10:44:18Z</time>
      </trkpt>
      <trkpt lat="42.97461" lon="0.16818">
        <ele>1911.72</ele>
        <time>2013-02-21T10:44:37Z</time>
      </trkpt>
      <trkpt lat="42.97456" lon="0.1681">
        <ele>1913.16</ele>
        <time>2013-02-21T10:44:50Z</time>
      </trkpt>
      <trkpt lat="42.97455" lon="0.16809">
        <ele>1915.08</ele>
        <time>2013-02-21T10:45:08Z</time>
      </trkpt>
      <trkpt lat="42.97451" lon="0.16803">
        <ele>1915.56</ele>
        <time>2013-02-21T10:45:19Z</time>
      </trkpt>
      <trkpt lat="42.97448" lon="0.16797">
        <ele>1916.53</ele>
        <time>2013-02-21T10:45:32Z</time>
      </trkpt>
      <trkpt lat="42.97445" lon="0.16791">
        <ele>1918.93</ele>
        <time>2013-02-21T10:45:43Z</time>
      </trkpt>
      <trkpt lat="42.97441" lon="0.16786">
        <ele>1920.85</ele>
        <time>2013-02-21T10:45:57Z</time>
      </trkpt>
      <trkpt lat="42.9744" lon="0.16785">
        <ele>1920.85</ele>
        <time>2013-02-21T10:46:14Z</time>
      </trkpt>
      <trkpt lat="42.97439" lon="0.16781">
        <ele>1922.77</ele>
        <time>2013-02-21T10:46:29Z</time>
      </trkpt>
      <trkpt lat="42.97442" lon="0.16777">
        <ele>1923.74</ele>
        <time>2013-02-21T10:46:47Z</time>
      </trkpt>
      <trkpt lat="42.97447" lon="0.16772">
        <ele>1925.66</ele>
        <time>2013-02-21T10:47:00Z</time>
      </trkpt>
      <trkpt lat="42.97451" lon="0.16766">
        <ele>1927.1</ele>
        <time>2013-02-21T10:47:13Z</time>
      </trkpt>
      <trkpt lat="42.97455" lon="0.16761">
        <ele>1929.5</ele>
        <time>2013-02-21T10:47:26Z</time>
      </trkpt>
      <trkpt lat="42.97456" lon="0.16759">
        <ele>1930.46</ele>
        <time>2013-02-21T10:47:45Z</time>
      </trkpt>
      <trkpt lat="42.97458" lon="0.16755">
        <ele>1931.43</ele>
        <time>2013-02-21T10:48:01Z</time>
      </trkpt>
      <trkpt lat="42.97462" lon="0.16748">
        <ele>1932.87</ele>
        <time>2013-02-21T10:48:18Z</time>
      </trkpt>
      <trkpt lat="42.97465" lon="0.1674">
        <ele>1934.31</ele>
        <time>2013-02-21T10:48:31Z</time>
      </trkpt>
      <trkpt lat="42.97466" lon="0.16734">
        <ele>1934.79</ele>
        <time>2013-02-21T10:48:41Z</time>
      </trkpt>
      <trkpt lat="42.97463" lon="0.16726">
        <ele>1936.23</ele>
        <time>2013-02-21T10:48:52Z</time>
      </trkpt>
      <trkpt lat="42.97464" lon="0.16729">
        <ele>1935.75</ele>
        <time>2013-02-21T10:49:16Z</time>
      </trkpt>
      <trkpt lat="42.97461" lon="0.16722">
        <ele>1937.19</ele>
        <time>2013-02-21T10:49:28Z</time>
      </trkpt>
      <trkpt lat="42.97456" lon="0.16713">
        <ele>1938.64</ele>
        <time>2013-02-21T10:49:41Z</time>
      </trkpt>
      <trkpt lat="42.97451" lon="0.16706">
        <ele>1940.08</ele>
        <time>2013-02-21T10:49:53Z</time>
      </trkpt>
      <trkpt lat="42.97447" lon="0.16699">
        <ele>1942</ele>
        <time>2013-02-21T10:50:08Z</time>
      </trkpt>
      <trkpt lat="42.97445" lon="0.16695">
        <ele>1942.48</ele>
        <time>2013-02-21T10:50:28Z</time>
      </trkpt>
      <trkpt lat="42.97439" lon="0.16687">
        <ele>1943.44</ele>
        <time>2013-02-21T10:50:41Z</time>
      </trkpt>
      <trkpt lat="42.97434" lon="0.16679">
        <ele>1944.88</ele>
        <time>2013-02-21T10:50:55Z</time>
      </trkpt>
      <trkpt lat="42.97429" lon="0.16672">
        <ele>1946.33</ele>
        <time>2013-02-21T10:51:08Z</time>
      </trkpt>
      <trkpt lat="42.97424" lon="0.16666">
        <ele>1947.77</ele>
        <time>2013-02-21T10:51:21Z</time>
      </trkpt>
      <trkpt lat="42.97422" lon="0.16663">
        <ele>1946.81</ele>
        <time>2013-02-21T10:51:48Z</time>
      </trkpt>
      <trkpt lat="42.97422" lon="0.16661">
        <ele>1948.73</ele>
        <time>2013-02-21T10:51:54Z</time>
      </trkpt>
      <trkpt lat="42.97421" lon="0.16659">
        <ele>1947.77</ele>
        <time>2013-02-21T10:52:15Z</time>
      </trkpt>
      <trkpt lat="42.97419" lon="0.16658">
        <ele>1947.77</ele>
        <time>2013-02-21T10:52:31Z</time>
      </trkpt>
      <trkpt lat="42.97419" lon="0.16659">
        <ele>1947.77</ele>
        <time>2013-02-21T10:52:50Z</time>
      </trkpt>
      <trkpt lat="42.97417" lon="0.16659">
        <ele>1947.77</ele>
        <time>2013-02-21T10:53:10Z</time>
      </trkpt>
      <trkpt lat="42.97417" lon="0.16659">
        <ele>1947.77</ele>
        <time>2013-02-21T10:53:26Z</time>
      </trkpt>
      <trkpt lat="42.97417" lon="0.16659">
        <ele>1947.77</ele>
        <time>2013-02-21T10:53:44Z</time>
      </trkpt>
      <trkpt lat="42.97418" lon="0.1666">
        <ele>1947.77</ele>
        <time>2013-02-21T10:54:05Z</time>
      </trkpt>
      <trkpt lat="42.97417" lon="0.1666">
        <ele>1947.29</ele>
        <time>2013-02-21T10:54:24Z</time>
      </trkpt>
      <trkpt lat="42.97416" lon="0.1666">
        <ele>1947.29</ele>
        <time>2013-02-21T10:54:46Z</time>
      </trkpt>
      <trkpt lat="42.97418" lon="0.16662">
        <ele>1948.25</ele>
        <time>2013-02-21T10:55:04Z</time>
      </trkpt>
      <trkpt lat="42.97414" lon="0.16665">
        <ele>1947.29</ele>
        <time>2013-02-21T10:55:23Z</time>
      </trkpt>
      <trkpt lat="42.97414" lon="0.16665">
        <ele>1951.61</ele>
        <time>2013-02-21T10:55:57Z</time>
      </trkpt>
      <trkpt lat="42.97414" lon="0.16665">
        <ele>1949.21</ele>
        <time>2013-02-21T10:55:58Z</time>
      </trkpt>
      <trkpt lat="42.97414" lon="0.16665">
        <ele>1946.33</ele>
        <time>2013-02-21T10:56:00Z</time>
      </trkpt>
      <trkpt lat="42.97413" lon="0.16664">
        <ele>1946.33</ele>
        <time>2013-02-21T10:56:23Z</time>
      </trkpt>
      <trkpt lat="42.97413" lon="0.16663">
        <ele>1946.33</ele>
        <time>2013-02-21T10:56:41Z</time>
      </trkpt>
      <trkpt lat="42.97413" lon="0.16664">
        <ele>1945.85</ele>
        <time>2013-02-21T10:57:14Z</time>
      </trkpt>
      <trkpt lat="42.97413" lon="0.16664">
        <ele>1945.36</ele>
        <time>2013-02-21T10:57:54Z</time>
      </trkpt>
      <trkpt lat="42.97413" lon="0.16663">
        <ele>1944.88</ele>
        <time>2013-02-21T10:58:32Z</time>
      </trkpt>
      <trkpt lat="42.97413" lon="0.16664">
        <ele>1945.85</ele>
        <time>2013-02-21T10:59:05Z</time>
      </trkpt>
      <trkpt lat="42.97412" lon="0.16663">
        <ele>1945.85</ele>
        <time>2013-02-21T10:59:33Z</time>
      </trkpt>
      <trkpt lat="42.97413" lon="0.16664">
        <ele>1945.36</ele>
        <time>2013-02-21T11:00:07Z</time>
      </trkpt>
      <trkpt lat="42.97413" lon="0.16664">
        <ele>1945.36</ele>
        <time>2013-02-21T11:00:39Z</time>
      </trkpt>
      <trkpt lat="42.97413" lon="0.16665">
        <ele>1945.36</ele>
        <time>2013-02-21T11:01:12Z</time>
      </trkpt>
      <trkpt lat="42.97413" lon="0.16663">
        <ele>1945.36</ele>
        <time>2013-02-21T11:01:57Z</time>
      </trkpt>
      <trkpt lat="42.97414" lon="0.16663">
        <ele>1945.36</ele>
        <time>2013-02-21T11:02:33Z</time>
      </trkpt>
      <trkpt lat="42.97415" lon="0.16662">
        <ele>1946.33</ele>
        <time>2013-02-21T11:02:54Z</time>
      </trkpt>
      <trkpt lat="42.97413" lon="0.16662">
        <ele>1945.36</ele>
        <time>2013-02-21T11:03:19Z</time>
      </trkpt>
      <trkpt lat="42.97412" lon="0.16662">
        <ele>1945.36</ele>
        <time>2013-02-21T11:03:56Z</time>
      </trkpt>
      <trkpt lat="42.97414" lon="0.16663">
        <ele>1945.36</ele>
        <time>2013-02-21T11:04:29Z</time>
      </trkpt>
      <trkpt lat="42.97414" lon="0.16664">
        <ele>1936.71</ele>
        <time>2013-02-21T11:04:49Z</time>
      </trkpt>
      <trkpt lat="42.97414" lon="0.16664">
        <ele>1945.36</ele>
        <time>2013-02-21T11:04:50Z</time>
      </trkpt>
      <trkpt lat="42.97413" lon="0.16664">
        <ele>1945.36</ele>
        <time>2013-02-21T11:04:51Z</time>
      </trkpt>
      <trkpt lat="42.97413" lon="0.16664">
        <ele>1945.36</ele>
        <time>2013-02-21T11:05:25Z</time>
      </trkpt>
      <trkpt lat="42.97414" lon="0.16665">
        <ele>1945.36</ele>
        <time>2013-02-21T11:06:05Z</time>
      </trkpt>
      <trkpt lat="42.97414" lon="0.16665">
        <ele>1945.36</ele>
        <time>2013-02-21T11:06:49Z</time>
      </trkpt>
      <trkpt lat="42.97414" lon="0.16665">
        <ele>1944.88</ele>
        <time>2013-02-21T11:07:34Z</time>
      </trkpt>
      <trkpt lat="42.97414" lon="0.16665">
        <ele>1944.88</ele>
        <time>2013-02-21T11:08:17Z</time>
      </trkpt>
      <trkpt lat="42.97412" lon="0.16665">
        <ele>1944.88</ele>
        <time>2013-02-21T11:09:02Z</time>
      </trkpt>
      <trkpt lat="42.97412" lon="0.16664">
        <ele>1944.88</ele>
        <time>2013-02-21T11:09:48Z</time>
      </trkpt>
      <trkpt lat="42.97412" lon="0.16664">
        <ele>1944.88</ele>
        <time>2013-02-21T11:10:33Z</time>
      </trkpt>
      <trkpt lat="42.97413" lon="0.16665">
        <ele>1945.36</ele>
        <time>2013-02-21T11:10:55Z</time>
      </trkpt>
      <trkpt lat="42.97414" lon="0.16664">
        <ele>1942</ele>
        <time>2013-02-21T11:10:57Z</time>
      </trkpt>
      <trkpt lat="42.97414" lon="0.16664">
        <ele>1945.36</ele>
        <time>2013-02-21T11:10:58Z</time>
      </trkpt>
      <trkpt lat="42.97416" lon="0.16662">
        <ele>1945.36</ele>
        <time>2013-02-21T11:11:10Z</time>
      </trkpt>
      <trkpt lat="42.97415" lon="0.16662">
        <ele>1945.36</ele>
        <time>2013-02-21T11:11:28Z</time>
      </trkpt>
      <trkpt lat="42.97415" lon="0.16663">
        <ele>1945.36</ele>
        <time>2013-02-21T11:11:30Z</time>
      </trkpt>
      <trkpt lat="42.97411" lon="0.16669">
        <ele>1945.36</ele>
        <time>2013-02-21T11:11:33Z</time>
      </trkpt>
      <trkpt lat="42.97408" lon="0.16674">
        <ele>1944.88</ele>
        <time>2013-02-21T11:11:45Z</time>
      </trkpt>
      <trkpt lat="42.97409" lon="0.16675">
        <ele>1944.4</ele>
        <time>2013-02-21T11:12:15Z</time>
      </trkpt>
      <trkpt lat="42.97409" lon="0.16685">
        <ele>1943.44</ele>
        <time>2013-02-21T11:12:19Z</time>
      </trkpt>
      <trkpt lat="42.97415" lon="0.16716">
        <ele>1939.12</ele>
        <time>2013-02-21T11:12:25Z</time>
      </trkpt>
      <trkpt lat="42.97418" lon="0.1672">
        <ele>1939.12</ele>
        <time>2013-02-21T11:12:26Z</time>
      </trkpt>
      <trkpt lat="42.97422" lon="0.16723">
        <ele>1938.64</ele>
        <time>2013-02-21T11:12:27Z</time>
      </trkpt>
      <trkpt lat="42.97426" lon="0.1674">
        <ele>1935.27</ele>
        <time>2013-02-21T11:12:32Z</time>
      </trkpt>
      <trkpt lat="42.97436" lon="0.16754">
        <ele>1931.43</ele>
        <time>2013-02-21T11:12:36Z</time>
      </trkpt>
      <trkpt lat="42.97435" lon="0.16762">
        <ele>1928.06</ele>
        <time>2013-02-21T11:12:38Z</time>
      </trkpt>
      <trkpt lat="42.97436" lon="0.16777">
        <ele>1922.77</ele>
        <time>2013-02-21T11:12:41Z</time>
      </trkpt>
      <trkpt lat="42.97433" lon="0.16787">
        <ele>1919.89</ele>
        <time>2013-02-21T11:12:43Z</time>
      </trkpt>
      <trkpt lat="42.97438" lon="0.16802">
        <ele>1914.12</ele>
        <time>2013-02-21T11:12:46Z</time>
      </trkpt>
      <trkpt lat="42.97433" lon="0.16817">
        <ele>1908.83</ele>
        <time>2013-02-21T11:12:49Z</time>
      </trkpt>
      <trkpt lat="42.97435" lon="0.16829">
        <ele>1904.03</ele>
        <time>2013-02-21T11:12:51Z</time>
      </trkpt>
      <trkpt lat="42.97436" lon="0.16842">
        <ele>1900.18</ele>
        <time>2013-02-21T11:12:53Z</time>
      </trkpt>
      <trkpt lat="42.97434" lon="0.16865">
        <ele>1892.49</ele>
        <time>2013-02-21T11:12:58Z</time>
      </trkpt>
      <trkpt lat="42.97439" lon="0.16888">
        <ele>1888.17</ele>
        <time>2013-02-21T11:13:01Z</time>
      </trkpt>
      <trkpt lat="42.97443" lon="0.16893">
        <ele>1887.69</ele>
        <time>2013-02-21T11:13:02Z</time>
      </trkpt>
      <trkpt lat="42.97449" lon="0.16901">
        <ele>1887.69</ele>
        <time>2013-02-21T11:13:04Z</time>
      </trkpt>
      <trkpt lat="42.97449" lon="0.16907">
        <ele>1884.32</ele>
        <time>2013-02-21T11:13:07Z</time>
      </trkpt>
      <trkpt lat="42.9745" lon="0.16905">
        <ele>1885.28</ele>
        <time>2013-02-21T11:13:31Z</time>
      </trkpt>
      <trkpt lat="42.97449" lon="0.16918">
        <ele>1884.32</ele>
        <time>2013-02-21T11:13:35Z</time>
      </trkpt>
      <trkpt lat="42.97453" lon="0.16944">
        <ele>1878.55</ele>
        <time>2013-02-21T11:13:40Z</time>
      </trkpt>
      <trkpt lat="42.97448" lon="0.16954">
        <ele>1875.67</ele>
        <time>2013-02-21T11:13:42Z</time>
      </trkpt>
      <trkpt lat="42.97448" lon="0.16966">
        <ele>1871.82</ele>
        <time>2013-02-21T11:13:44Z</time>
      </trkpt>
      <trkpt lat="42.97445" lon="0.16972">
        <ele>1868.94</ele>
        <time>2013-02-21T11:13:45Z</time>
      </trkpt>
      <trkpt lat="42.97443" lon="0.16985">
        <ele>1864.61</ele>
        <time>2013-02-21T11:13:47Z</time>
      </trkpt>
      <trkpt lat="42.97445" lon="0.16996">
        <ele>1861.25</ele>
        <time>2013-02-21T11:13:49Z</time>
      </trkpt>
      <trkpt lat="42.9744" lon="0.17009">
        <ele>1857.89</ele>
        <time>2013-02-21T11:13:51Z</time>
      </trkpt>
      <trkpt lat="42.9744" lon="0.17018">
        <ele>1856.44</ele>
        <time>2013-02-21T11:13:52Z</time>
      </trkpt>
      <trkpt lat="42.97447" lon="0.17057">
        <ele>1851.64</ele>
        <time>2013-02-21T11:13:57Z</time>
      </trkpt>
      <trkpt lat="42.97443" lon="0.17074">
        <ele>1847.79</ele>
        <time>2013-02-21T11:14:00Z</time>
      </trkpt>
      <trkpt lat="42.97439" lon="0.17108">
        <ele>1841.06</ele>
        <time>2013-02-21T11:14:04Z</time>
      </trkpt>
      <trkpt lat="42.97441" lon="0.17116">
        <ele>1841.54</ele>
        <time>2013-02-21T11:14:05Z</time>
      </trkpt>
      <trkpt lat="42.97445" lon="0.17134">
        <ele>1839.62</ele>
        <time>2013-02-21T11:14:08Z</time>
      </trkpt>
      <trkpt lat="42.97436" lon="0.17142">
        <ele>1835.29</ele>
        <time>2013-02-21T11:14:11Z</time>
      </trkpt>
      <trkpt lat="42.97434" lon="0.17164">
        <ele>1831.93</ele>
        <time>2013-02-21T11:14:14Z</time>
      </trkpt>
      <trkpt lat="42.97434" lon="0.17179">
        <ele>1827.6</ele>
        <time>2013-02-21T11:14:17Z</time>
      </trkpt>
      <trkpt lat="42.97424" lon="0.17207">
        <ele>1820.39</ele>
        <time>2013-02-21T11:14:22Z</time>
      </trkpt>
      <trkpt lat="42.97414" lon="0.17221">
        <ele>1817.03</ele>
        <time>2013-02-21T11:14:25Z</time>
      </trkpt>
      <trkpt lat="42.97423" lon="0.17243">
        <ele>1814.15</ele>
        <time>2013-02-21T11:14:30Z</time>
      </trkpt>
      <trkpt lat="42.97422" lon="0.17241">
        <ele>1814.63</ele>
        <time>2013-02-21T11:14:47Z</time>
      </trkpt>
      <trkpt lat="42.97422" lon="0.17241">
        <ele>1814.15</ele>
        <time>2013-02-21T11:15:11Z</time>
      </trkpt>
      <trkpt lat="42.97423" lon="0.17243">
        <ele>1814.15</ele>
        <time>2013-02-21T11:15:23Z</time>
      </trkpt>
      <trkpt lat="42.97427" lon="0.17247">
        <ele>1813.66</ele>
        <time>2013-02-21T11:15:36Z</time>
      </trkpt>
      <trkpt lat="42.97427" lon="0.17247">
        <ele>1813.18</ele>
        <time>2013-02-21T11:15:57Z</time>
      </trkpt>
      <trkpt lat="42.97427" lon="0.17248">
        <ele>1812.7</ele>
        <time>2013-02-21T11:16:21Z</time>
      </trkpt>
      <trkpt lat="42.97427" lon="0.17247">
        <ele>1812.7</ele>
        <time>2013-02-21T11:16:50Z</time>
      </trkpt>
      <trkpt lat="42.97426" lon="0.17247">
        <ele>1812.7</ele>
        <time>2013-02-21T11:17:18Z</time>
      </trkpt>
      <trkpt lat="42.97426" lon="0.17247">
        <ele>1812.7</ele>
        <time>2013-02-21T11:17:49Z</time>
      </trkpt>
      <trkpt lat="42.97426" lon="0.17248">
        <ele>1812.7</ele>
        <time>2013-02-21T11:18:14Z</time>
      </trkpt>
      <trkpt lat="42.97427" lon="0.17248">
        <ele>1812.7</ele>
        <time>2013-02-21T11:18:51Z</time>
      </trkpt>
      <trkpt lat="42.97426" lon="0.17248">
        <ele>1812.22</ele>
        <time>2013-02-21T11:19:24Z</time>
      </trkpt>
      <trkpt lat="42.97426" lon="0.17248">
        <ele>1812.22</ele>
        <time>2013-02-21T11:19:50Z</time>
      </trkpt>
      <trkpt lat="42.97425" lon="0.17248">
        <ele>1812.22</ele>
        <time>2013-02-21T11:20:22Z</time>
      </trkpt>
      <trkpt lat="42.97418" lon="0.17269">
        <ele>1809.34</ele>
        <time>2013-02-21T11:20:28Z</time>
      </trkpt>
      <trkpt lat="42.9742" lon="0.17282">
        <ele>1805.97</ele>
        <time>2013-02-21T11:20:30Z</time>
      </trkpt>
      <trkpt lat="42.97421" lon="0.17296">
        <ele>1802.61</ele>
        <time>2013-02-21T11:20:33Z</time>
      </trkpt>
      <trkpt lat="42.97422" lon="0.17312">
        <ele>1798.76</ele>
        <time>2013-02-21T11:20:36Z</time>
      </trkpt>
      <trkpt lat="42.97433" lon="0.1733">
        <ele>1795.4</ele>
        <time>2013-02-21T11:20:40Z</time>
      </trkpt>
      <trkpt lat="42.97434" lon="0.17342">
        <ele>1792.03</ele>
        <time>2013-02-21T11:20:42Z</time>
      </trkpt>
      <trkpt lat="42.97437" lon="0.17348">
        <ele>1792.03</ele>
        <time>2013-02-21T11:20:43Z</time>
      </trkpt>
      <trkpt lat="42.97452" lon="0.17363">
        <ele>1788.19</ele>
        <time>2013-02-21T11:20:48Z</time>
      </trkpt>
      <trkpt lat="42.97454" lon="0.17367">
        <ele>1786.75</ele>
        <time>2013-02-21T11:20:50Z</time>
      </trkpt>
      <trkpt lat="42.97456" lon="0.17367">
        <ele>1787.23</ele>
        <time>2013-02-21T11:21:01Z</time>
      </trkpt>
      <trkpt lat="42.97456" lon="0.17368">
        <ele>1787.23</ele>
        <time>2013-02-21T11:21:26Z</time>
      </trkpt>
      <trkpt lat="42.97471" lon="0.17383">
        <ele>1784.82</ele>
        <time>2013-02-21T11:21:36Z</time>
      </trkpt>
      <trkpt lat="42.97474" lon="0.17384">
        <ele>1783.86</ele>
        <time>2013-02-21T11:21:38Z</time>
      </trkpt>
      <trkpt lat="42.97481" lon="0.17385">
        <ele>1782.9</ele>
        <time>2013-02-21T11:21:49Z</time>
      </trkpt>
      <trkpt lat="42.97485" lon="0.1738">
        <ele>1782.9</ele>
        <time>2013-02-21T11:21:58Z</time>
      </trkpt>
      <trkpt lat="42.97486" lon="0.17376">
        <ele>1783.38</ele>
        <time>2013-02-21T11:22:09Z</time>
      </trkpt>
      <trkpt lat="42.97487" lon="0.17372">
        <ele>1783.38</ele>
        <time>2013-02-21T11:22:16Z</time>
      </trkpt>
      <trkpt lat="42.9749" lon="0.1737">
        <ele>1782.42</ele>
        <time>2013-02-21T11:22:23Z</time>
      </trkpt>
      <trkpt lat="42.97497" lon="0.17362">
        <ele>1781.46</ele>
        <time>2013-02-21T11:22:28Z</time>
      </trkpt>
      <trkpt lat="42.97515" lon="0.17337">
        <ele>1778.1</ele>
        <time>2013-02-21T11:22:39Z</time>
      </trkpt>
      <trkpt lat="42.9752" lon="0.17331">
        <ele>1775.69</ele>
        <time>2013-02-21T11:22:45Z</time>
      </trkpt>
      <trkpt lat="42.97524" lon="0.17337">
        <ele>1771.85</ele>
        <time>2013-02-21T11:22:49Z</time>
      </trkpt>
      <trkpt lat="42.9753" lon="0.17341">
        <ele>1768</ele>
        <time>2013-02-21T11:22:52Z</time>
      </trkpt>
      <trkpt lat="42.97535" lon="0.17335">
        <ele>1766.08</ele>
        <time>2013-02-21T11:22:54Z</time>
      </trkpt>
      <trkpt lat="42.97555" lon="0.17303">
        <ele>1762.23</ele>
        <time>2013-02-21T11:23:03Z</time>
      </trkpt>
      <trkpt lat="42.97573" lon="0.17279">
        <ele>1757.91</ele>
        <time>2013-02-21T11:23:09Z</time>
      </trkpt>
      <trkpt lat="42.97575" lon="0.17276">
        <ele>1755.99</ele>
        <time>2013-02-21T11:23:11Z</time>
      </trkpt>
      <trkpt lat="42.97575" lon="0.17276">
        <ele>1755.5</ele>
        <time>2013-02-21T11:23:12Z</time>
      </trkpt>
      <trkpt lat="42.97578" lon="0.17279">
        <ele>1753.58</ele>
        <time>2013-02-21T11:23:14Z</time>
      </trkpt>
      <trkpt lat="42.97577" lon="0.17287">
        <ele>1750.22</ele>
        <time>2013-02-21T11:23:19Z</time>
      </trkpt>
      <trkpt lat="42.9758" lon="0.17285">
        <ele>1750.7</ele>
        <time>2013-02-21T11:23:42Z</time>
      </trkpt>
      <trkpt lat="42.97583" lon="0.17285">
        <ele>1750.22</ele>
        <time>2013-02-21T11:24:10Z</time>
      </trkpt>
      <trkpt lat="42.97583" lon="0.17285">
        <ele>1750.22</ele>
        <time>2013-02-21T11:24:15Z</time>
      </trkpt>
      <trkpt lat="42.97581" lon="0.17297">
        <ele>1748.29</ele>
        <time>2013-02-21T11:24:21Z</time>
      </trkpt>
      <trkpt lat="42.97581" lon="0.17298">
        <ele>1747.81</ele>
        <time>2013-02-21T11:24:22Z</time>
      </trkpt>
      <trkpt lat="42.97588" lon="0.17303">
        <ele>1743.97</ele>
        <time>2013-02-21T11:24:26Z</time>
      </trkpt>
      <trkpt lat="42.9759" lon="0.17314">
        <ele>1738.2</ele>
        <time>2013-02-21T11:24:29Z</time>
      </trkpt>
      <trkpt lat="42.97597" lon="0.1732">
        <ele>1734.36</ele>
        <time>2013-02-21T11:24:32Z</time>
      </trkpt>
      <trkpt lat="42.97597" lon="0.17327">
        <ele>1733.39</ele>
        <time>2013-02-21T11:24:34Z</time>
      </trkpt>
      <trkpt lat="42.97601" lon="0.17328">
        <ele>1729.07</ele>
        <time>2013-02-21T11:24:36Z</time>
      </trkpt>
      <trkpt lat="42.97605" lon="0.17327">
        <ele>1728.11</ele>
        <time>2013-02-21T11:24:38Z</time>
      </trkpt>
      <trkpt lat="42.97606" lon="0.17335">
        <ele>1724.26</ele>
        <time>2013-02-21T11:24:40Z</time>
      </trkpt>
      <trkpt lat="42.97604" lon="0.17341">
        <ele>1722.34</ele>
        <time>2013-02-21T11:24:42Z</time>
      </trkpt>
      <trkpt lat="42.97604" lon="0.1736">
        <ele>1718.01</ele>
        <time>2013-02-21T11:24:48Z</time>
      </trkpt>
      <trkpt lat="42.97603" lon="0.17363">
        <ele>1717.05</ele>
        <time>2013-02-21T11:24:49Z</time>
      </trkpt>
      <trkpt lat="42.97606" lon="0.17372">
        <ele>1713.69</ele>
        <time>2013-02-21T11:24:54Z</time>
      </trkpt>
      <trkpt lat="42.97604" lon="0.17376">
        <ele>1713.69</ele>
        <time>2013-02-21T11:25:10Z</time>
      </trkpt>
      <trkpt lat="42.97605" lon="0.17376">
        <ele>1713.69</ele>
        <time>2013-02-21T11:25:11Z</time>
      </trkpt>
      <trkpt lat="42.97608" lon="0.17383">
        <ele>1710.32</ele>
        <time>2013-02-21T11:25:14Z</time>
      </trkpt>
      <trkpt lat="42.9761" lon="0.17387">
        <ele>1710.32</ele>
        <time>2013-02-21T11:25:15Z</time>
      </trkpt>
      <trkpt lat="42.97616" lon="0.17388">
        <ele>1706</ele>
        <time>2013-02-21T11:25:17Z</time>
      </trkpt>
      <trkpt lat="42.97624" lon="0.17389">
        <ele>1702.15</ele>
        <time>2013-02-21T11:25:23Z</time>
      </trkpt>
      <trkpt lat="42.97623" lon="0.17396">
        <ele>1699.27</ele>
        <time>2013-02-21T11:25:26Z</time>
      </trkpt>
      <trkpt lat="42.97623" lon="0.17403">
        <ele>1697.34</ele>
        <time>2013-02-21T11:25:29Z</time>
      </trkpt>
      <trkpt lat="42.97633" lon="0.17405">
        <ele>1693.02</ele>
        <time>2013-02-21T11:25:33Z</time>
      </trkpt>
      <trkpt lat="42.97636" lon="0.17403">
        <ele>1692.54</ele>
        <time>2013-02-21T11:25:34Z</time>
      </trkpt>
      <trkpt lat="42.97641" lon="0.17399">
        <ele>1691.58</ele>
        <time>2013-02-21T11:25:36Z</time>
      </trkpt>
      <trkpt lat="42.97656" lon="0.17393">
        <ele>1689.17</ele>
        <time>2013-02-21T11:25:43Z</time>
      </trkpt>
      <trkpt lat="42.97658" lon="0.17401">
        <ele>1686.29</ele>
        <time>2013-02-21T11:25:48Z</time>
      </trkpt>
      <trkpt lat="42.97662" lon="0.17398">
        <ele>1686.77</ele>
        <time>2013-02-21T11:26:13Z</time>
      </trkpt>
      <trkpt lat="42.97663" lon="0.17401">
        <ele>1686.29</ele>
        <time>2013-02-21T11:26:28Z</time>
      </trkpt>
      <trkpt lat="42.97664" lon="0.17402">
        <ele>1686.29</ele>
        <time>2013-02-21T11:26:49Z</time>
      </trkpt>
      <trkpt lat="42.97659" lon="0.17414">
        <ele>1683.89</ele>
        <time>2013-02-21T11:26:59Z</time>
      </trkpt>
      <trkpt lat="42.97666" lon="0.1742">
        <ele>1681</ele>
        <time>2013-02-21T11:27:03Z</time>
      </trkpt>
      <trkpt lat="42.97667" lon="0.17419">
        <ele>1681</ele>
        <time>2013-02-21T11:27:04Z</time>
      </trkpt>
      <trkpt lat="42.97667" lon="0.17421">
        <ele>1680.52</ele>
        <time>2013-02-21T11:27:08Z</time>
      </trkpt>
      <trkpt lat="42.97667" lon="0.17432">
        <ele>1677.16</ele>
        <time>2013-02-21T11:27:12Z</time>
      </trkpt>
      <trkpt lat="42.97666" lon="0.17436">
        <ele>1676.68</ele>
        <time>2013-02-21T11:27:14Z</time>
      </trkpt>
      <trkpt lat="42.97665" lon="0.1744">
        <ele>1674.27</ele>
        <time>2013-02-21T11:27:17Z</time>
      </trkpt>
      <trkpt lat="42.97666" lon="0.17443">
        <ele>1673.31</ele>
        <time>2013-02-21T11:27:19Z</time>
      </trkpt>
      <trkpt lat="42.97672" lon="0.17446">
        <ele>1669.95</ele>
        <time>2013-02-21T11:27:22Z</time>
      </trkpt>
      <trkpt lat="42.97674" lon="0.17445">
        <ele>1668.99</ele>
        <time>2013-02-21T11:27:23Z</time>
      </trkpt>
      <trkpt lat="42.97682" lon="0.17443">
        <ele>1666.58</ele>
        <time>2013-02-21T11:27:29Z</time>
      </trkpt>
      <trkpt lat="42.97684" lon="0.17443">
        <ele>1666.1</ele>
        <time>2013-02-21T11:27:31Z</time>
      </trkpt>
      <trkpt lat="42.97685" lon="0.17453">
        <ele>1662.26</ele>
        <time>2013-02-21T11:27:35Z</time>
      </trkpt>
      <trkpt lat="42.97684" lon="0.17457">
        <ele>1662.26</ele>
        <time>2013-02-21T11:27:37Z</time>
      </trkpt>
      <trkpt lat="42.97684" lon="0.17466">
        <ele>1660.81</ele>
        <time>2013-02-21T11:27:46Z</time>
      </trkpt>
      <trkpt lat="42.97696" lon="0.17471">
        <ele>1657.93</ele>
        <time>2013-02-21T11:27:52Z</time>
      </trkpt>
      <trkpt lat="42.97701" lon="0.17477">
        <ele>1656.49</ele>
        <time>2013-02-21T11:27:54Z</time>
      </trkpt>
      <trkpt lat="42.97714" lon="0.17483">
        <ele>1652.64</ele>
        <time>2013-02-21T11:28:00Z</time>
      </trkpt>
      <trkpt lat="42.97715" lon="0.17489">
        <ele>1650.72</ele>
        <time>2013-02-21T11:28:02Z</time>
      </trkpt>
      <trkpt lat="42.9772" lon="0.17498">
        <ele>1648.32</ele>
        <time>2013-02-21T11:28:10Z</time>
      </trkpt>
      <trkpt lat="42.97718" lon="0.17499">
        <ele>1647.84</ele>
        <time>2013-02-21T11:28:24Z</time>
      </trkpt>
      <trkpt lat="42.97719" lon="0.17499">
        <ele>1647.84</ele>
        <time>2013-02-21T11:28:25Z</time>
      </trkpt>
      <trkpt lat="42.97732" lon="0.17495">
        <ele>1644.95</ele>
        <time>2013-02-21T11:28:31Z</time>
      </trkpt>
      <trkpt lat="42.97745" lon="0.17484">
        <ele>1642.07</ele>
        <time>2013-02-21T11:28:37Z</time>
      </trkpt>
      <trkpt lat="42.97748" lon="0.17485">
        <ele>1640.63</ele>
        <time>2013-02-21T11:28:40Z</time>
      </trkpt>
      <trkpt lat="42.97749" lon="0.17496">
        <ele>1636.3</ele>
        <time>2013-02-21T11:28:45Z</time>
      </trkpt>
      <trkpt lat="42.9775" lon="0.17498">
        <ele>1635.34</ele>
        <time>2013-02-21T11:28:47Z</time>
      </trkpt>
      <trkpt lat="42.9775" lon="0.175">
        <ele>1635.34</ele>
        <time>2013-02-21T11:28:48Z</time>
      </trkpt>
      <trkpt lat="42.97756" lon="0.175">
        <ele>1632.46</ele>
        <time>2013-02-21T11:28:51Z</time>
      </trkpt>
      <trkpt lat="42.97758" lon="0.17499">
        <ele>1631.49</ele>
        <time>2013-02-21T11:28:52Z</time>
      </trkpt>
      <trkpt lat="42.97762" lon="0.17504">
        <ele>1628.13</ele>
        <time>2013-02-21T11:28:55Z</time>
      </trkpt>
      <trkpt lat="42.97763" lon="0.17513">
        <ele>1625.25</ele>
        <time>2013-02-21T11:28:59Z</time>
      </trkpt>
      <trkpt lat="42.97763" lon="0.17514">
        <ele>1625.25</ele>
        <time>2013-02-21T11:29:00Z</time>
      </trkpt>
      <trkpt lat="42.97769" lon="0.17517">
        <ele>1621.88</ele>
        <time>2013-02-21T11:29:03Z</time>
      </trkpt>
      <trkpt lat="42.97772" lon="0.17517">
        <ele>1620.92</ele>
        <time>2013-02-21T11:29:05Z</time>
      </trkpt>
      <trkpt lat="42.97774" lon="0.17525">
        <ele>1617.07</ele>
        <time>2013-02-21T11:29:07Z</time>
      </trkpt>
      <trkpt lat="42.97774" lon="0.17529">
        <ele>1615.63</ele>
        <time>2013-02-21T11:29:08Z</time>
      </trkpt>
      <trkpt lat="42.97775" lon="0.1754">
        <ele>1611.79</ele>
        <time>2013-02-21T11:29:13Z</time>
      </trkpt>
      <trkpt lat="42.9778" lon="0.17541">
        <ele>1610.35</ele>
        <time>2013-02-21T11:29:15Z</time>
      </trkpt>
      <trkpt lat="42.97789" lon="0.17536">
        <ele>1606.98</ele>
        <time>2013-02-21T11:29:18Z</time>
      </trkpt>
      <trkpt lat="42.97791" lon="0.17535">
        <ele>1606.5</ele>
        <time>2013-02-21T11:29:19Z</time>
      </trkpt>
      <trkpt lat="42.97794" lon="0.1754">
        <ele>1605.54</ele>
        <time>2013-02-21T11:29:21Z</time>
      </trkpt>
      <trkpt lat="42.97794" lon="0.17547">
        <ele>1602.17</ele>
        <time>2013-02-21T11:29:22Z</time>
      </trkpt>
      <trkpt lat="42.97793" lon="0.17557">
        <ele>1599.29</ele>
        <time>2013-02-21T11:29:25Z</time>
      </trkpt>
      <trkpt lat="42.97794" lon="0.17555">
        <ele>1599.77</ele>
        <time>2013-02-21T11:29:30Z</time>
      </trkpt>
      <trkpt lat="42.97805" lon="0.17561">
        <ele>1596.89</ele>
        <time>2013-02-21T11:29:35Z</time>
      </trkpt>
      <trkpt lat="42.97811" lon="0.1757">
        <ele>1593.04</ele>
        <time>2013-02-21T11:29:39Z</time>
      </trkpt>
      <trkpt lat="42.97809" lon="0.17579">
        <ele>1591.12</ele>
        <time>2013-02-21T11:29:44Z</time>
      </trkpt>
      <trkpt lat="42.97809" lon="0.17579">
        <ele>1591.12</ele>
        <time>2013-02-21T11:29:46Z</time>
      </trkpt>
      <trkpt lat="42.97826" lon="0.17588">
        <ele>1588.24</ele>
        <time>2013-02-21T11:29:51Z</time>
      </trkpt>
      <trkpt lat="42.9784" lon="0.17593">
        <ele>1585.83</ele>
        <time>2013-02-21T11:29:54Z</time>
      </trkpt>
      <trkpt lat="42.97844" lon="0.17595">
        <ele>1584.39</ele>
        <time>2013-02-21T11:29:55Z</time>
      </trkpt>
      <trkpt lat="42.97865" lon="0.17593">
        <ele>1582.95</ele>
        <time>2013-02-21T11:30:01Z</time>
      </trkpt>
      <trkpt lat="42.97872" lon="0.176">
        <ele>1579.1</ele>
        <time>2013-02-21T11:30:05Z</time>
      </trkpt>
      <trkpt lat="42.97872" lon="0.17599">
        <ele>1579.1</ele>
        <time>2013-02-21T11:30:11Z</time>
      </trkpt>
      <trkpt lat="42.97881" lon="0.17614">
        <ele>1575.26</ele>
        <time>2013-02-21T11:30:18Z</time>
      </trkpt>
      <trkpt lat="42.9788" lon="0.17617">
        <ele>1575.26</ele>
        <time>2013-02-21T11:30:19Z</time>
      </trkpt>
      <trkpt lat="42.97879" lon="0.17624">
        <ele>1574.3</ele>
        <time>2013-02-21T11:30:21Z</time>
      </trkpt>
      <trkpt lat="42.97884" lon="0.17634">
        <ele>1572.85</ele>
        <time>2013-02-21T11:30:24Z</time>
      </trkpt>
      <trkpt lat="42.97889" lon="0.17644">
        <ele>1569.49</ele>
        <time>2013-02-21T11:30:27Z</time>
      </trkpt>
      <trkpt lat="42.97888" lon="0.17647">
        <ele>1569.49</ele>
        <time>2013-02-21T11:30:28Z</time>
      </trkpt>
      <trkpt lat="42.97888" lon="0.17651">
        <ele>1569.01</ele>
        <time>2013-02-21T11:30:29Z</time>
      </trkpt>
      <trkpt lat="42.97886" lon="0.1766">
        <ele>1568.05</ele>
        <time>2013-02-21T11:30:37Z</time>
      </trkpt>
      <trkpt lat="42.979" lon="0.17669">
        <ele>1564.68</ele>
        <time>2013-02-21T11:30:44Z</time>
      </trkpt>
      <trkpt lat="42.97902" lon="0.1767">
        <ele>1564.68</ele>
        <time>2013-02-21T11:30:45Z</time>
      </trkpt>
      <trkpt lat="42.97904" lon="0.17677">
        <ele>1562.28</ele>
        <time>2013-02-21T11:30:47Z</time>
      </trkpt>
      <trkpt lat="42.97898" lon="0.1771">
        <ele>1559.4</ele>
        <time>2013-02-21T11:30:59Z</time>
      </trkpt>
      <trkpt lat="42.97898" lon="0.1771">
        <ele>1559.4</ele>
        <time>2013-02-21T11:31:07Z</time>
      </trkpt>
      <trkpt lat="42.97911" lon="0.1771">
        <ele>1556.51</ele>
        <time>2013-02-21T11:31:14Z</time>
      </trkpt>
      <trkpt lat="42.97912" lon="0.17711">
        <ele>1556.99</ele>
        <time>2013-02-21T11:31:22Z</time>
      </trkpt>
      <trkpt lat="42.97921" lon="0.17724">
        <ele>1554.59</ele>
        <time>2013-02-21T11:31:29Z</time>
      </trkpt>
      <trkpt lat="42.97928" lon="0.17726">
        <ele>1551.22</ele>
        <time>2013-02-21T11:31:31Z</time>
      </trkpt>
      <trkpt lat="42.9793" lon="0.1773">
        <ele>1550.74</ele>
        <time>2013-02-21T11:31:32Z</time>
      </trkpt>
      <trkpt lat="42.97941" lon="0.17734">
        <ele>1547.86</ele>
        <time>2013-02-21T11:31:37Z</time>
      </trkpt>
      <trkpt lat="42.97941" lon="0.17734">
        <ele>1548.34</ele>
        <time>2013-02-21T11:31:54Z</time>
      </trkpt>
      <trkpt lat="42.97943" lon="0.17733">
        <ele>1548.34</ele>
        <time>2013-02-21T11:32:15Z</time>
      </trkpt>
      <trkpt lat="42.97941" lon="0.17735">
        <ele>1548.34</ele>
        <time>2013-02-21T11:32:41Z</time>
      </trkpt>
      <trkpt lat="42.97942" lon="0.17736">
        <ele>1548.34</ele>
        <time>2013-02-21T11:32:58Z</time>
      </trkpt>
      <trkpt lat="42.97944" lon="0.17741">
        <ele>1547.38</ele>
        <time>2013-02-21T11:33:02Z</time>
      </trkpt>
      <trkpt lat="42.97942" lon="0.17748">
        <ele>1546.9</ele>
        <time>2013-02-21T11:33:04Z</time>
      </trkpt>
      <trkpt lat="42.97938" lon="0.17795">
        <ele>1544.5</ele>
        <time>2013-02-21T11:33:17Z</time>
      </trkpt>
      <trkpt lat="42.9794" lon="0.17811">
        <ele>1541.61</ele>
        <time>2013-02-21T11:33:21Z</time>
      </trkpt>
      <trkpt lat="42.9794" lon="0.17826">
        <ele>1540.17</ele>
        <time>2013-02-21T11:33:25Z</time>
      </trkpt>
      <trkpt lat="42.9794" lon="0.1783">
        <ele>1539.69</ele>
        <time>2013-02-21T11:33:26Z</time>
      </trkpt>
      <trkpt lat="42.97952" lon="0.17833">
        <ele>1535.36</ele>
        <time>2013-02-21T11:33:31Z</time>
      </trkpt>
      <trkpt lat="42.97962" lon="0.17842">
        <ele>1531.04</ele>
        <time>2013-02-21T11:33:35Z</time>
      </trkpt>
      <trkpt lat="42.97965" lon="0.1784">
        <ele>1530.56</ele>
        <time>2013-02-21T11:33:39Z</time>
      </trkpt>
      <trkpt lat="42.9797" lon="0.17849">
        <ele>1528.15</ele>
        <time>2013-02-21T11:33:43Z</time>
      </trkpt>
      <trkpt lat="42.97975" lon="0.17848">
        <ele>1525.75</ele>
        <time>2013-02-21T11:33:45Z</time>
      </trkpt>
      <trkpt lat="42.97983" lon="0.17851">
        <ele>1521.42</ele>
        <time>2013-02-21T11:33:49Z</time>
      </trkpt>
      <trkpt lat="42.97984" lon="0.17853">
        <ele>1520.94</ele>
        <time>2013-02-21T11:33:50Z</time>
      </trkpt>
      <trkpt lat="42.97984" lon="0.17855">
        <ele>1520.94</ele>
        <time>2013-02-21T11:33:51Z</time>
      </trkpt>
      <trkpt lat="42.97985" lon="0.17862">
        <ele>1520.46</ele>
        <time>2013-02-21T11:33:53Z</time>
      </trkpt>
      <trkpt lat="42.97992" lon="0.17859">
        <ele>1518.06</ele>
        <time>2013-02-21T11:33:57Z</time>
      </trkpt>
      <trkpt lat="42.97995" lon="0.17854">
        <ele>1517.1</ele>
        <time>2013-02-21T11:33:59Z</time>
      </trkpt>
      <trkpt lat="42.97999" lon="0.17855">
        <ele>1515.18</ele>
        <time>2013-02-21T11:34:02Z</time>
      </trkpt>
      <trkpt lat="42.9801" lon="0.17871">
        <ele>1511.81</ele>
        <time>2013-02-21T11:34:12Z</time>
      </trkpt>
      <trkpt lat="42.98016" lon="0.1787">
        <ele>1509.89</ele>
        <time>2013-02-21T11:34:16Z</time>
      </trkpt>
      <trkpt lat="42.98017" lon="0.17872">
        <ele>1509.89</ele>
        <time>2013-02-21T11:34:26Z</time>
      </trkpt>
      <trkpt lat="42.98028" lon="0.17869">
        <ele>1507.48</ele>
        <time>2013-02-21T11:34:31Z</time>
      </trkpt>
      <trkpt lat="42.98045" lon="0.17894">
        <ele>1499.31</ele>
        <time>2013-02-21T11:34:39Z</time>
      </trkpt>
      <trkpt lat="42.98045" lon="0.17899">
        <ele>1498.83</ele>
        <time>2013-02-21T11:34:40Z</time>
      </trkpt>
      <trkpt lat="42.98047" lon="0.17908">
        <ele>1497.87</ele>
        <time>2013-02-21T11:34:42Z</time>
      </trkpt>
      <trkpt lat="42.98049" lon="0.17913">
        <ele>1496.91</ele>
        <time>2013-02-21T11:34:43Z</time>
      </trkpt>
      <trkpt lat="42.98054" lon="0.17946">
        <ele>1491.62</ele>
        <time>2013-02-21T11:34:49Z</time>
      </trkpt>
      <trkpt lat="42.98056" lon="0.17977">
        <ele>1488.26</ele>
        <time>2013-02-21T11:34:56Z</time>
      </trkpt>
      <trkpt lat="42.98059" lon="0.17994">
        <ele>1486.82</ele>
        <time>2013-02-21T11:35:01Z</time>
      </trkpt>
      <trkpt lat="42.98062" lon="0.18011">
        <ele>1484.41</ele>
        <time>2013-02-21T11:35:04Z</time>
      </trkpt>
      <trkpt lat="42.98062" lon="0.18026">
        <ele>1482.97</ele>
        <time>2013-02-21T11:35:07Z</time>
      </trkpt>
      <trkpt lat="42.98061" lon="0.1803">
        <ele>1482.49</ele>
        <time>2013-02-21T11:35:08Z</time>
      </trkpt>
      <trkpt lat="42.98071" lon="0.18032">
        <ele>1481.05</ele>
        <time>2013-02-21T11:35:12Z</time>
      </trkpt>
      <trkpt lat="42.98075" lon="0.18026">
        <ele>1480.09</ele>
        <time>2013-02-21T11:35:14Z</time>
      </trkpt>
      <trkpt lat="42.98081" lon="0.1802">
        <ele>1479.61</ele>
        <time>2013-02-21T11:35:16Z</time>
      </trkpt>
      <trkpt lat="42.9809" lon="0.18025">
        <ele>1476.24</ele>
        <time>2013-02-21T11:35:19Z</time>
      </trkpt>
      <trkpt lat="42.98091" lon="0.18032">
        <ele>1474.32</ele>
        <time>2013-02-21T11:35:22Z</time>
      </trkpt>
      <trkpt lat="42.98091" lon="0.18032">
        <ele>1474.32</ele>
        <time>2013-02-21T11:35:26Z</time>
      </trkpt>
      <trkpt lat="42.98104" lon="0.18046">
        <ele>1470.47</ele>
        <time>2013-02-21T11:35:31Z</time>
      </trkpt>
      <trkpt lat="42.98107" lon="0.18059">
        <ele>1469.99</ele>
        <time>2013-02-21T11:35:34Z</time>
      </trkpt>
      <trkpt lat="42.98114" lon="0.18077">
        <ele>1467.59</ele>
        <time>2013-02-21T11:35:38Z</time>
      </trkpt>
      <trkpt lat="42.9812" lon="0.18083">
        <ele>1465.67</ele>
        <time>2013-02-21T11:35:41Z</time>
      </trkpt>
      <trkpt lat="42.98131" lon="0.18086">
        <ele>1462.78</ele>
        <time>2013-02-21T11:35:46Z</time>
      </trkpt>
      <trkpt lat="42.98131" lon="0.18099">
        <ele>1460.86</ele>
        <time>2013-02-21T11:35:49Z</time>
      </trkpt>
      <trkpt lat="42.9813" lon="0.18103">
        <ele>1460.86</ele>
        <time>2013-02-21T11:35:50Z</time>
      </trkpt>
      <trkpt lat="42.9814" lon="0.18106">
        <ele>1458.46</ele>
        <time>2013-02-21T11:35:54Z</time>
      </trkpt>
      <trkpt lat="42.9815" lon="0.18096">
        <ele>1457.02</ele>
        <time>2013-02-21T11:35:58Z</time>
      </trkpt>
      <trkpt lat="42.98154" lon="0.18095">
        <ele>1455.57</ele>
        <time>2013-02-21T11:36:06Z</time>
      </trkpt>
      <trkpt lat="42.98156" lon="0.18094">
        <ele>1455.57</ele>
        <time>2013-02-21T11:36:15Z</time>
      </trkpt>
      <trkpt lat="42.98161" lon="0.18098">
        <ele>1453.65</ele>
        <time>2013-02-21T11:36:19Z</time>
      </trkpt>
      <trkpt lat="42.98167" lon="0.18104">
        <ele>1451.25</ele>
        <time>2013-02-21T11:36:23Z</time>
      </trkpt>
      <trkpt lat="42.98166" lon="0.18126">
        <ele>1449.32</ele>
        <time>2013-02-21T11:36:30Z</time>
      </trkpt>
      <trkpt lat="42.98173" lon="0.1813">
        <ele>1447.88</ele>
        <time>2013-02-21T11:36:33Z</time>
      </trkpt>
      <trkpt lat="42.98175" lon="0.18145">
        <ele>1444.52</ele>
        <time>2013-02-21T11:36:38Z</time>
      </trkpt>
      <trkpt lat="42.98184" lon="0.18147">
        <ele>1441.63</ele>
        <time>2013-02-21T11:36:43Z</time>
      </trkpt>
      <trkpt lat="42.98185" lon="0.18154">
        <ele>1440.67</ele>
        <time>2013-02-21T11:36:45Z</time>
      </trkpt>
      <trkpt lat="42.98184" lon="0.18167">
        <ele>1438.75</ele>
        <time>2013-02-21T11:36:48Z</time>
      </trkpt>
      <trkpt lat="42.98188" lon="0.18173">
        <ele>1437.31</ele>
        <time>2013-02-21T11:36:56Z</time>
      </trkpt>
      <trkpt lat="42.98188" lon="0.18174">
        <ele>1437.31</ele>
        <time>2013-02-21T11:36:57Z</time>
      </trkpt>
      <trkpt lat="42.98195" lon="0.18189">
        <ele>1433.94</ele>
        <time>2013-02-21T11:37:02Z</time>
      </trkpt>
      <trkpt lat="42.98205" lon="0.182">
        <ele>1429.62</ele>
        <time>2013-02-21T11:37:07Z</time>
      </trkpt>
      <trkpt lat="42.98212" lon="0.18207">
        <ele>1426.73</ele>
        <time>2013-02-21T11:37:10Z</time>
      </trkpt>
      <trkpt lat="42.98215" lon="0.18221">
        <ele>1423.85</ele>
        <time>2013-02-21T11:37:14Z</time>
      </trkpt>
      <trkpt lat="42.98214" lon="0.18227">
        <ele>1422.89</ele>
        <time>2013-02-21T11:37:16Z</time>
      </trkpt>
      <trkpt lat="42.98211" lon="0.18254">
        <ele>1420.49</ele>
        <time>2013-02-21T11:37:22Z</time>
      </trkpt>
      <trkpt lat="42.98219" lon="0.18265">
        <ele>1417.12</ele>
        <time>2013-02-21T11:37:27Z</time>
      </trkpt>
      <trkpt lat="42.98218" lon="0.18273">
        <ele>1416.16</ele>
        <time>2013-02-21T11:37:29Z</time>
      </trkpt>
      <trkpt lat="42.98224" lon="0.18277">
        <ele>1414.24</ele>
        <time>2013-02-21T11:37:33Z</time>
      </trkpt>
      <trkpt lat="42.98228" lon="0.18278">
        <ele>1414.24</ele>
        <time>2013-02-21T11:37:46Z</time>
      </trkpt>
      <trkpt lat="42.98233" lon="0.18289">
        <ele>1411.35</ele>
        <time>2013-02-21T11:37:50Z</time>
      </trkpt>
      <trkpt lat="42.98238" lon="0.18289">
        <ele>1409.91</ele>
        <time>2013-02-21T11:37:52Z</time>
      </trkpt>
      <trkpt lat="42.98243" lon="0.18304">
        <ele>1406.55</ele>
        <time>2013-02-21T11:37:56Z</time>
      </trkpt>
      <trkpt lat="42.98244" lon="0.18312">
        <ele>1405.58</ele>
        <time>2013-02-21T11:38:05Z</time>
      </trkpt>
      <trkpt lat="42.98245" lon="0.18313">
        <ele>1405.58</ele>
        <time>2013-02-21T11:38:15Z</time>
      </trkpt>
      <trkpt lat="42.98249" lon="0.18322">
        <ele>1404.62</ele>
        <time>2013-02-21T11:38:20Z</time>
      </trkpt>
      <trkpt lat="42.9825" lon="0.18327">
        <ele>1404.14</ele>
        <time>2013-02-21T11:38:22Z</time>
      </trkpt>
      <trkpt lat="42.98262" lon="0.18332">
        <ele>1400.78</ele>
        <time>2013-02-21T11:38:27Z</time>
      </trkpt>
      <trkpt lat="42.98275" lon="0.18351">
        <ele>1397.89</ele>
        <time>2013-02-21T11:38:32Z</time>
      </trkpt>
      <trkpt lat="42.98278" lon="0.1835">
        <ele>1396.93</ele>
        <time>2013-02-21T11:38:33Z</time>
      </trkpt>
      <trkpt lat="42.98294" lon="0.18357">
        <ele>1392.13</ele>
        <time>2013-02-21T11:38:38Z</time>
      </trkpt>
      <trkpt lat="42.98304" lon="0.18373">
        <ele>1389.24</ele>
        <time>2013-02-21T11:38:42Z</time>
      </trkpt>
      <trkpt lat="42.98314" lon="0.18386">
        <ele>1385.4</ele>
        <time>2013-02-21T11:38:46Z</time>
      </trkpt>
      <trkpt lat="42.98323" lon="0.18401">
        <ele>1382.03</ele>
        <time>2013-02-21T11:38:50Z</time>
      </trkpt>
      <trkpt lat="42.98332" lon="0.18447">
        <ele>1379.15</ele>
        <time>2013-02-21T11:39:02Z</time>
      </trkpt>
      <trkpt lat="42.98334" lon="0.18455">
        <ele>1378.19</ele>
        <time>2013-02-21T11:39:04Z</time>
      </trkpt>
      <trkpt lat="42.9834" lon="0.18477">
        <ele>1375.3</ele>
        <time>2013-02-21T11:39:08Z</time>
      </trkpt>
      <trkpt lat="42.98351" lon="0.1847">
        <ele>1372.9</ele>
        <time>2013-02-21T11:39:13Z</time>
      </trkpt>
      <trkpt lat="42.98358" lon="0.18482">
        <ele>1368.09</ele>
        <time>2013-02-21T11:39:18Z</time>
      </trkpt>
      <trkpt lat="42.98367" lon="0.18484">
        <ele>1365.21</ele>
        <time>2013-02-21T11:39:22Z</time>
      </trkpt>
      <trkpt lat="42.98372" lon="0.1849">
        <ele>1361.84</ele>
        <time>2013-02-21T11:39:29Z</time>
      </trkpt>
      <trkpt lat="42.98374" lon="0.1849">
        <ele>1361.84</ele>
        <time>2013-02-21T11:39:51Z</time>
      </trkpt>
      <trkpt lat="42.98374" lon="0.1849">
        <ele>1361.84</ele>
        <time>2013-02-21T11:40:21Z</time>
      </trkpt>
      <trkpt lat="42.98374" lon="0.18491">
        <ele>1362.33</ele>
        <time>2013-02-21T11:40:51Z</time>
      </trkpt>
      <trkpt lat="42.98375" lon="0.18503">
        <ele>1360.88</ele>
        <time>2013-02-21T11:41:03Z</time>
      </trkpt>
      <trkpt lat="42.98377" lon="0.18513">
        <ele>1358.96</ele>
        <time>2013-02-21T11:41:06Z</time>
      </trkpt>
      <trkpt lat="42.9839" lon="0.18516">
        <ele>1354.63</ele>
        <time>2013-02-21T11:41:11Z</time>
      </trkpt>
      <trkpt lat="42.98391" lon="0.1852">
        <ele>1352.71</ele>
        <time>2013-02-21T11:41:12Z</time>
      </trkpt>
      <trkpt lat="42.98392" lon="0.18528">
        <ele>1350.31</ele>
        <time>2013-02-21T11:41:14Z</time>
      </trkpt>
      <trkpt lat="42.98399" lon="0.18532">
        <ele>1346.46</ele>
        <time>2013-02-21T11:41:17Z</time>
      </trkpt>
      <trkpt lat="42.98404" lon="0.18542">
        <ele>1344.54</ele>
        <time>2013-02-21T11:41:21Z</time>
      </trkpt>
      <trkpt lat="42.98407" lon="0.18556">
        <ele>1341.18</ele>
        <time>2013-02-21T11:41:24Z</time>
      </trkpt>
      <trkpt lat="42.98409" lon="0.18581">
        <ele>1337.33</ele>
        <time>2013-02-21T11:41:30Z</time>
      </trkpt>
      <trkpt lat="42.9841" lon="0.18584">
        <ele>1337.33</ele>
        <time>2013-02-21T11:41:31Z</time>
      </trkpt>
      <trkpt lat="42.98416" lon="0.18597">
        <ele>1335.41</ele>
        <time>2013-02-21T11:41:39Z</time>
      </trkpt>
      <trkpt lat="42.98422" lon="0.18605">
        <ele>1333.97</ele>
        <time>2013-02-21T11:41:45Z</time>
      </trkpt>
      <trkpt lat="42.98427" lon="0.18619">
        <ele>1331.56</ele>
        <time>2013-02-21T11:41:48Z</time>
      </trkpt>
      <trkpt lat="42.98432" lon="0.18637">
        <ele>1328.2</ele>
        <time>2013-02-21T11:41:51Z</time>
      </trkpt>
      <trkpt lat="42.98433" lon="0.18653">
        <ele>1327.24</ele>
        <time>2013-02-21T11:41:55Z</time>
      </trkpt>
      <trkpt lat="42.98443" lon="0.18649">
        <ele>1324.35</ele>
        <time>2013-02-21T11:41:59Z</time>
      </trkpt>
      <trkpt lat="42.98449" lon="0.18654">
        <ele>1320.03</ele>
        <time>2013-02-21T11:42:01Z</time>
      </trkpt>
      <trkpt lat="42.9845" lon="0.18661">
        <ele>1318.59</ele>
        <time>2013-02-21T11:42:04Z</time>
      </trkpt>
      <trkpt lat="42.98451" lon="0.18661">
        <ele>1318.59</ele>
        <time>2013-02-21T11:42:08Z</time>
      </trkpt>
      <trkpt lat="42.98455" lon="0.18678">
        <ele>1315.7</ele>
        <time>2013-02-21T11:42:14Z</time>
      </trkpt>
      <trkpt lat="42.98459" lon="0.18699">
        <ele>1311.38</ele>
        <time>2013-02-21T11:42:20Z</time>
      </trkpt>
      <trkpt lat="42.9846" lon="0.18699">
        <ele>1311.86</ele>
        <time>2013-02-21T11:42:29Z</time>
      </trkpt>
      <trkpt lat="42.9847" lon="0.18716">
        <ele>1307.53</ele>
        <time>2013-02-21T11:42:34Z</time>
      </trkpt>
      <trkpt lat="42.98478" lon="0.18729">
        <ele>1305.13</ele>
        <time>2013-02-21T11:42:42Z</time>
      </trkpt>
      <trkpt lat="42.98487" lon="0.18722">
        <ele>1301.28</ele>
        <time>2013-02-21T11:42:47Z</time>
      </trkpt>
      <trkpt lat="42.9849" lon="0.18727">
        <ele>1299.84</ele>
        <time>2013-02-21T11:42:49Z</time>
      </trkpt>
      <trkpt lat="42.98495" lon="0.18734">
        <ele>1298.4</ele>
        <time>2013-02-21T11:42:52Z</time>
      </trkpt>
      <trkpt lat="42.98503" lon="0.18728">
        <ele>1295.03</ele>
        <time>2013-02-21T11:42:56Z</time>
      </trkpt>
      <trkpt lat="42.9851" lon="0.18739">
        <ele>1291.67</ele>
        <time>2013-02-21T11:42:59Z</time>
      </trkpt>
      <trkpt lat="42.98512" lon="0.18743">
        <ele>1291.67</ele>
        <time>2013-02-21T11:43:00Z</time>
      </trkpt>
      <trkpt lat="42.98515" lon="0.18747">
        <ele>1291.19</ele>
        <time>2013-02-21T11:43:01Z</time>
      </trkpt>
      <trkpt lat="42.98526" lon="0.18751">
        <ele>1286.86</ele>
        <time>2013-02-21T11:43:06Z</time>
      </trkpt>
      <trkpt lat="42.98525" lon="0.1875">
        <ele>1286.38</ele>
        <time>2013-02-21T11:43:12Z</time>
      </trkpt>
      <trkpt lat="42.98533" lon="0.18755">
        <ele>1283.98</ele>
        <time>2013-02-21T11:43:16Z</time>
      </trkpt>
      <trkpt lat="42.98537" lon="0.18762">
        <ele>1282.06</ele>
        <time>2013-02-21T11:43:18Z</time>
      </trkpt>
      <trkpt lat="42.98544" lon="0.18766">
        <ele>1279.17</ele>
        <time>2013-02-21T11:43:21Z</time>
      </trkpt>
      <trkpt lat="42.98545" lon="0.18766">
        <ele>1279.17</ele>
        <time>2013-02-21T11:43:22Z</time>
      </trkpt>
      <trkpt lat="42.98545" lon="0.18767">
        <ele>1279.17</ele>
        <time>2013-02-21T11:43:42Z</time>
      </trkpt>
      <trkpt lat="42.98545" lon="0.18766">
        <ele>1279.17</ele>
        <time>2013-02-21T11:44:00Z</time>
      </trkpt>
      <trkpt lat="42.98553" lon="0.18767">
        <ele>1276.29</ele>
        <time>2013-02-21T11:44:04Z</time>
      </trkpt>
      <trkpt lat="42.9856" lon="0.18784">
        <ele>1272.44</ele>
        <time>2013-02-21T11:44:09Z</time>
      </trkpt>
      <trkpt lat="42.98561" lon="0.18785">
        <ele>1271.96</ele>
        <time>2013-02-21T11:44:10Z</time>
      </trkpt>
      <trkpt lat="42.9857" lon="0.18796">
        <ele>1269.56</ele>
        <time>2013-02-21T11:44:15Z</time>
      </trkpt>
      <trkpt lat="42.9858" lon="0.18808">
        <ele>1266.19</ele>
        <time>2013-02-21T11:44:18Z</time>
      </trkpt>
      <trkpt lat="42.98582" lon="0.18812">
        <ele>1265.71</ele>
        <time>2013-02-21T11:44:20Z</time>
      </trkpt>
      <trkpt lat="42.98582" lon="0.18812">
        <ele>1265.23</ele>
        <time>2013-02-21T11:44:21Z</time>
      </trkpt>
      <trkpt lat="42.98595" lon="0.18822">
        <ele>1260.91</ele>
        <time>2013-02-21T11:44:26Z</time>
      </trkpt>
      <trkpt lat="42.98597" lon="0.18826">
        <ele>1260.91</ele>
        <time>2013-02-21T11:44:27Z</time>
      </trkpt>
      <trkpt lat="42.98603" lon="0.18837">
        <ele>1258.5</ele>
        <time>2013-02-21T11:44:31Z</time>
      </trkpt>
      <trkpt lat="42.98608" lon="0.18845">
        <ele>1256.58</ele>
        <time>2013-02-21T11:44:33Z</time>
      </trkpt>
      <trkpt lat="42.98622" lon="0.1889">
        <ele>1251.77</ele>
        <time>2013-02-21T11:44:44Z</time>
      </trkpt>
      <trkpt lat="42.98622" lon="0.18893">
        <ele>1251.77</ele>
        <time>2013-02-21T11:44:52Z</time>
      </trkpt>
      <trkpt lat="42.98623" lon="0.1889">
        <ele>1251.29</ele>
        <time>2013-02-21T11:45:14Z</time>
      </trkpt>
      <trkpt lat="42.98625" lon="0.18899">
        <ele>1250.81</ele>
        <time>2013-02-21T11:45:28Z</time>
      </trkpt>
      <trkpt lat="42.9863" lon="0.18913">
        <ele>1248.41</ele>
        <time>2013-02-21T11:45:32Z</time>
      </trkpt>
      <trkpt lat="42.98636" lon="0.18927">
        <ele>1245.53</ele>
        <time>2013-02-21T11:45:34Z</time>
      </trkpt>
      <trkpt lat="42.9864" lon="0.18949">
        <ele>1241.68</ele>
        <time>2013-02-21T11:45:37Z</time>
      </trkpt>
      <trkpt lat="42.9864" lon="0.18953">
        <ele>1241.2</ele>
        <time>2013-02-21T11:45:38Z</time>
      </trkpt>
      <trkpt lat="42.98642" lon="0.18963">
        <ele>1240.24</ele>
        <time>2013-02-21T11:45:41Z</time>
      </trkpt>
      <trkpt lat="42.98642" lon="0.18967">
        <ele>1239.76</ele>
        <time>2013-02-21T11:45:49Z</time>
      </trkpt>
      <trkpt lat="42.98655" lon="0.18952">
        <ele>1236.39</ele>
        <time>2013-02-21T11:45:55Z</time>
      </trkpt>
      <trkpt lat="42.9866" lon="0.18943">
        <ele>1233.99</ele>
        <time>2013-02-21T11:45:57Z</time>
      </trkpt>
      <trkpt lat="42.98662" lon="0.18938">
        <ele>1232.07</ele>
        <time>2013-02-21T11:46:00Z</time>
      </trkpt>
      <trkpt lat="42.98663" lon="0.18938">
        <ele>1231.59</ele>
        <time>2013-02-21T11:46:03Z</time>
      </trkpt>
      <trkpt lat="42.98668" lon="0.18944">
        <ele>1228.7</ele>
        <time>2013-02-21T11:46:07Z</time>
      </trkpt>
      <trkpt lat="42.98668" lon="0.18948">
        <ele>1229.18</ele>
        <time>2013-02-21T11:46:21Z</time>
      </trkpt>
      <trkpt lat="42.98668" lon="0.18946">
        <ele>1228.7</ele>
        <time>2013-02-21T11:46:58Z</time>
      </trkpt>
      <trkpt lat="42.98672" lon="0.18952">
        <ele>1227.26</ele>
        <time>2013-02-21T11:47:02Z</time>
      </trkpt>
      <trkpt lat="42.98688" lon="0.18941">
        <ele>1223.42</ele>
        <time>2013-02-21T11:47:08Z</time>
      </trkpt>
      <trkpt lat="42.98695" lon="0.18941">
        <ele>1219.09</ele>
        <time>2013-02-21T11:47:11Z</time>
      </trkpt>
      <trkpt lat="42.98706" lon="0.18941">
        <ele>1217.65</ele>
        <time>2013-02-21T11:47:15Z</time>
      </trkpt>
      <trkpt lat="42.98713" lon="0.18938">
        <ele>1214.28</ele>
        <time>2013-02-21T11:47:17Z</time>
      </trkpt>
      <trkpt lat="42.98719" lon="0.18946">
        <ele>1209.96</ele>
        <time>2013-02-21T11:47:19Z</time>
      </trkpt>
      <trkpt lat="42.9872" lon="0.18957">
        <ele>1210.44</ele>
        <time>2013-02-21T11:47:28Z</time>
      </trkpt>
      <trkpt lat="42.98722" lon="0.1896">
        <ele>1210.44</ele>
        <time>2013-02-21T11:47:43Z</time>
      </trkpt>
      <trkpt lat="42.98721" lon="0.1896">
        <ele>1210.44</ele>
        <time>2013-02-21T11:48:03Z</time>
      </trkpt>
      <trkpt lat="42.98721" lon="0.1896">
        <ele>1210.44</ele>
        <time>2013-02-21T11:48:18Z</time>
      </trkpt>
      <trkpt lat="42.98721" lon="0.1896">
        <ele>1210.44</ele>
        <time>2013-02-21T11:48:21Z</time>
      </trkpt>
      <trkpt lat="42.98721" lon="0.18967">
        <ele>1210.92</ele>
        <time>2013-02-21T11:48:33Z</time>
      </trkpt>
      <trkpt lat="42.9872" lon="0.18975">
        <ele>1211.88</ele>
        <time>2013-02-21T11:48:44Z</time>
      </trkpt>
      <trkpt lat="42.98722" lon="0.18975">
        <ele>1212.36</ele>
        <time>2013-02-21T11:48:58Z</time>
      </trkpt>
      <trkpt lat="42.98718" lon="0.1898">
        <ele>1214.28</ele>
        <time>2013-02-21T11:49:16Z</time>
      </trkpt>
      <trkpt lat="42.98717" lon="0.18987">
        <ele>1214.28</ele>
        <time>2013-02-21T11:49:26Z</time>
      </trkpt>
      <trkpt lat="42.98717" lon="0.18995">
        <ele>1214.28</ele>
        <time>2013-02-21T11:49:37Z</time>
      </trkpt>
      <trkpt lat="42.98716" lon="0.18997">
        <ele>1214.76</ele>
        <time>2013-02-21T11:49:53Z</time>
      </trkpt>
      <trkpt lat="42.98721" lon="0.18996">
        <ele>1214.76</ele>
        <time>2013-02-21T11:50:16Z</time>
      </trkpt>
      <trkpt lat="42.98722" lon="0.18997">
        <ele>1214.76</ele>
        <time>2013-02-21T11:50:37Z</time>
      </trkpt>
      <trkpt lat="42.98723" lon="0.18998">
        <ele>1214.76</ele>
        <time>2013-02-21T11:51:02Z</time>
      </trkpt>
      <trkpt lat="42.9872" lon="0.18996">
        <ele>1214.76</ele>
        <time>2013-02-21T11:51:16Z</time>
      </trkpt>
      <trkpt lat="42.98718" lon="0.19">
        <ele>1214.28</ele>
        <time>2013-02-21T11:51:31Z</time>
      </trkpt>
      <trkpt lat="42.98718" lon="0.19001">
        <ele>1218.13</ele>
        <time>2013-02-21T11:51:32Z</time>
      </trkpt>
      <trkpt lat="42.98718" lon="0.19001">
        <ele>1217.65</ele>
        <time>2013-02-21T11:51:33Z</time>
      </trkpt>
      <trkpt lat="42.98718" lon="0.19">
        <ele>1214.28</ele>
        <time>2013-02-21T11:51:35Z</time>
      </trkpt>
      <trkpt lat="42.98719" lon="0.19">
        <ele>1213.8</ele>
        <time>2013-02-21T11:51:36Z</time>
      </trkpt>
      <trkpt lat="42.98719" lon="0.18999">
        <ele>1218.13</ele>
        <time>2013-02-21T11:51:53Z</time>
      </trkpt>
      <trkpt lat="42.98719" lon="0.18999">
        <ele>1215.24</ele>
        <time>2013-02-21T11:51:54Z</time>
      </trkpt>
      <trkpt lat="42.98718" lon="0.19003">
        <ele>1213.8</ele>
        <time>2013-02-21T11:52:13Z</time>
      </trkpt>
      <trkpt lat="42.98718" lon="0.19002">
        <ele>1211.4</ele>
        <time>2013-02-21T11:52:19Z</time>
      </trkpt>
      <trkpt lat="42.98718" lon="0.19001">
        <ele>1214.28</ele>
        <time>2013-02-21T11:52:22Z</time>
      </trkpt>
      <trkpt lat="42.98718" lon="0.19">
        <ele>1214.28</ele>
        <time>2013-02-21T11:52:23Z</time>
      </trkpt>
      <trkpt lat="42.98717" lon="0.19004">
        <ele>1210.44</ele>
        <time>2013-02-21T11:52:34Z</time>
      </trkpt>
      <trkpt lat="42.98716" lon="0.19004">
        <ele>1215.24</ele>
        <time>2013-02-21T11:52:35Z</time>
      </trkpt>
      <trkpt lat="42.98714" lon="0.19004">
        <ele>1213.8</ele>
        <time>2013-02-21T11:52:39Z</time>
      </trkpt>
      <trkpt lat="42.98717" lon="0.19001">
        <ele>1214.28</ele>
        <time>2013-02-21T11:52:58Z</time>
      </trkpt>
      <trkpt lat="42.98722" lon="0.18999">
        <ele>1214.28</ele>
        <time>2013-02-21T11:53:31Z</time>
      </trkpt>
      <trkpt lat="42.98723" lon="0.18997">
        <ele>1213.8</ele>
        <time>2013-02-21T11:53:57Z</time>
      </trkpt>
      <trkpt lat="42.98718" lon="0.18998">
        <ele>1213.8</ele>
        <time>2013-02-21T11:54:25Z</time>
      </trkpt>
      <trkpt lat="42.9872" lon="0.19004">
        <ele>1213.8</ele>
        <time>2013-02-21T11:54:58Z</time>
      </trkpt>
      <trkpt lat="42.98721" lon="0.18999">
        <ele>1213.8</ele>
        <time>2013-02-21T11:55:27Z</time>
      </trkpt>
      <trkpt lat="42.98723" lon="0.19003">
        <ele>1213.8</ele>
        <time>2013-02-21T11:56:02Z</time>
      </trkpt>
      <trkpt lat="42.9872" lon="0.18999">
        <ele>1213.8</ele>
        <time>2013-02-21T11:56:40Z</time>
      </trkpt>
      <trkpt lat="42.98719" lon="0.19">
        <ele>1213.8</ele>
        <time>2013-02-21T11:57:24Z</time>
      </trkpt>
      <trkpt lat="42.9872" lon="0.19">
        <ele>1213.8</ele>
        <time>2013-02-21T11:58:02Z</time>
      </trkpt>
      <trkpt lat="42.98721" lon="0.18999">
        <ele>1213.8</ele>
        <time>2013-02-21T11:58:36Z</time>
      </trkpt>
      <trkpt lat="42.98719" lon="0.19">
        <ele>1213.8</ele>
        <time>2013-02-21T11:59:20Z</time>
      </trkpt>
      <trkpt lat="42.98718" lon="0.18997">
        <ele>1213.8</ele>
        <time>2013-02-21T12:00:03Z</time>
      </trkpt>
      <trkpt lat="42.98719" lon="0.18999">
        <ele>1213.8</ele>
        <time>2013-02-21T12:00:42Z</time>
      </trkpt>
      <trkpt lat="42.98718" lon="0.19">
        <ele>1213.8</ele>
        <time>2013-02-21T12:01:25Z</time>
      </trkpt>
      <trkpt lat="42.98718" lon="0.18998">
        <ele>1213.8</ele>
        <time>2013-02-21T12:02:03Z</time>
      </trkpt>
      <trkpt lat="42.98717" lon="0.18995">
        <ele>1213.8</ele>
        <time>2013-02-21T12:02:39Z</time>
      </trkpt>
      <trkpt lat="42.98718" lon="0.18997">
        <ele>1214.28</ele>
        <time>2013-02-21T12:03:16Z</time>
      </trkpt>
      <trkpt lat="42.98718" lon="0.19">
        <ele>1214.28</ele>
        <time>2013-02-21T12:03:59Z</time>
      </trkpt>
      <trkpt lat="42.98719" lon="0.19001">
        <ele>1214.28</ele>
        <time>2013-02-21T12:04:34Z</time>
      </trkpt>
      <trkpt lat="42.98719" lon="0.19001">
        <ele>1214.28</ele>
        <time>2013-02-21T12:05:15Z</time>
      </trkpt>
      <trkpt lat="42.98717" lon="0.18997">
        <ele>1214.28</ele>
        <time>2013-02-21T12:05:48Z</time>
      </trkpt>
      <trkpt lat="42.98718" lon="0.19">
        <ele>1214.76</ele>
        <time>2013-02-21T12:06:28Z</time>
      </trkpt>
      <trkpt lat="42.9872" lon="0.19002">
        <ele>1214.76</ele>
        <time>2013-02-21T12:07:16Z</time>
      </trkpt>
      <trkpt lat="42.98719" lon="0.19001">
        <ele>1214.76</ele>
        <time>2013-02-21T12:07:55Z</time>
      </trkpt>
      <trkpt lat="42.98717" lon="0.19">
        <ele>1215.24</ele>
        <time>2013-02-21T12:08:37Z</time>
      </trkpt>
      <trkpt lat="42.98718" lon="0.19001">
        <ele>1215.24</ele>
        <time>2013-02-21T12:09:04Z</time>
      </trkpt>
      <trkpt lat="42.9872" lon="0.19">
        <ele>1215.24</ele>
        <time>2013-02-21T12:09:52Z</time>
      </trkpt>
      <trkpt lat="42.98717" lon="0.19">
        <ele>1215.72</ele>
        <time>2013-02-21T12:10:26Z</time>
      </trkpt>
      <trkpt lat="42.98719" lon="0.19002">
        <ele>1215.72</ele>
        <time>2013-02-21T12:11:15Z</time>
      </trkpt>
      <trkpt lat="42.98719" lon="0.19">
        <ele>1215.72</ele>
        <time>2013-02-21T12:12:02Z</time>
      </trkpt>
      <trkpt lat="42.9872" lon="0.18999">
        <ele>1215.72</ele>
        <time>2013-02-21T12:12:40Z</time>
      </trkpt>
      <trkpt lat="42.9872" lon="0.19">
        <ele>1216.21</ele>
        <time>2013-02-21T12:13:25Z</time>
      </trkpt>
      <trkpt lat="42.98717" lon="0.19001">
        <ele>1216.69</ele>
        <time>2013-02-21T12:13:36Z</time>
      </trkpt>
      <trkpt lat="42.98717" lon="0.19004">
        <ele>1205.15</ele>
        <time>2013-02-21T12:13:47Z</time>
      </trkpt>
      <trkpt lat="42.98717" lon="0.19004">
        <ele>1212.84</ele>
        <time>2013-02-21T12:13:48Z</time>
      </trkpt>
      <trkpt lat="42.98717" lon="0.19004">
        <ele>1216.69</ele>
        <time>2013-02-21T12:13:49Z</time>
      </trkpt>
      <trkpt lat="42.98717" lon="0.19005">
        <ele>1216.69</ele>
        <time>2013-02-21T12:13:50Z</time>
      </trkpt>
      <trkpt lat="42.98718" lon="0.19">
        <ele>1217.17</ele>
        <time>2013-02-21T12:14:13Z</time>
      </trkpt>
      <trkpt lat="42.98716" lon="0.18992">
        <ele>1217.17</ele>
        <time>2013-02-21T12:14:24Z</time>
      </trkpt>
      <trkpt lat="42.98716" lon="0.18988">
        <ele>1217.65</ele>
        <time>2013-02-21T12:14:38Z</time>
      </trkpt>
      <trkpt lat="42.98715" lon="0.18984">
        <ele>1216.69</ele>
        <time>2013-02-21T12:14:49Z</time>
      </trkpt>
      <trkpt lat="42.98717" lon="0.18977">
        <ele>1215.24</ele>
        <time>2013-02-21T12:15:00Z</time>
      </trkpt>
      <trkpt lat="42.98719" lon="0.18973">
        <ele>1213.8</ele>
        <time>2013-02-21T12:15:08Z</time>
      </trkpt>
      <trkpt lat="42.98719" lon="0.18964">
        <ele>1213.32</ele>
        <time>2013-02-21T12:15:23Z</time>
      </trkpt>
      <trkpt lat="42.9872" lon="0.18961">
        <ele>1213.32</ele>
        <time>2013-02-21T12:15:44Z</time>
      </trkpt>
      <trkpt lat="42.98719" lon="0.18962">
        <ele>1213.32</ele>
        <time>2013-02-21T12:16:00Z</time>
      </trkpt>
      <trkpt lat="42.98721" lon="0.1896">
        <ele>1212.36</ele>
        <time>2013-02-21T12:16:16Z</time>
      </trkpt>
      <trkpt lat="42.9872" lon="0.18961">
        <ele>1213.32</ele>
        <time>2013-02-21T12:16:30Z</time>
      </trkpt>
      <trkpt lat="42.98723" lon="0.18958">
        <ele>1211.88</ele>
        <time>2013-02-21T12:16:39Z</time>
      </trkpt>
      <trkpt lat="42.98724" lon="0.18961">
        <ele>1211.88</ele>
        <time>2013-02-21T12:17:11Z</time>
      </trkpt>
      <trkpt lat="42.98726" lon="0.18959">
        <ele>1212.36</ele>
        <time>2013-02-21T12:17:38Z</time>
      </trkpt>
      <trkpt lat="42.98724" lon="0.1896">
        <ele>1211.88</ele>
        <time>2013-02-21T12:18:06Z</time>
      </trkpt>
      <trkpt lat="42.98724" lon="0.18959">
        <ele>1211.88</ele>
        <time>2013-02-21T12:18:36Z</time>
      </trkpt>
      <trkpt lat="42.98728" lon="0.1895">
        <ele>1210.92</ele>
        <time>2013-02-21T12:19:01Z</time>
      </trkpt>
      <trkpt lat="42.98732" lon="0.18935">
        <ele>1209</ele>
        <time>2013-02-21T12:19:07Z</time>
      </trkpt>
      <trkpt lat="42.98741" lon="0.18931">
        <ele>1207.07</ele>
        <time>2013-02-21T12:19:10Z</time>
      </trkpt>
      <trkpt lat="42.9875" lon="0.18929">
        <ele>1203.71</ele>
        <time>2013-02-21T12:19:12Z</time>
      </trkpt>
      <trkpt lat="42.98755" lon="0.18933">
        <ele>1201.79</ele>
        <time>2013-02-21T12:19:13Z</time>
      </trkpt>
      <trkpt lat="42.98765" lon="0.18943">
        <ele>1199.38</ele>
        <time>2013-02-21T12:19:15Z</time>
      </trkpt>
      <trkpt lat="42.98782" lon="0.18969">
        <ele>1195.06</ele>
        <time>2013-02-21T12:19:19Z</time>
      </trkpt>
      <trkpt lat="42.9879" lon="0.18984">
        <ele>1193.13</ele>
        <time>2013-02-21T12:19:21Z</time>
      </trkpt>
      <trkpt lat="42.98796" lon="0.18998">
        <ele>1190.73</ele>
        <time>2013-02-21T12:19:23Z</time>
      </trkpt>
      <trkpt lat="42.988" lon="0.1901">
        <ele>1188.81</ele>
        <time>2013-02-21T12:19:25Z</time>
      </trkpt>
      <trkpt lat="42.98808" lon="0.19014">
        <ele>1188.33</ele>
        <time>2013-02-21T12:19:27Z</time>
      </trkpt>
      <trkpt lat="42.98821" lon="0.19035">
        <ele>1182.08</ele>
        <time>2013-02-21T12:19:31Z</time>
      </trkpt>
      <trkpt lat="42.98828" lon="0.19053">
        <ele>1177.27</ele>
        <time>2013-02-21T12:19:34Z</time>
      </trkpt>
      <trkpt lat="42.98831" lon="0.19066">
        <ele>1176.31</ele>
        <time>2013-02-21T12:19:37Z</time>
      </trkpt>
      <trkpt lat="42.98847" lon="0.19084">
        <ele>1170.54</ele>
        <time>2013-02-21T12:19:41Z</time>
      </trkpt>
      <trkpt lat="42.98849" lon="0.19092">
        <ele>1167.66</ele>
        <time>2013-02-21T12:19:42Z</time>
      </trkpt>
      <trkpt lat="42.98849" lon="0.19108">
        <ele>1165.74</ele>
        <time>2013-02-21T12:19:44Z</time>
      </trkpt>
      <trkpt lat="42.98848" lon="0.19128">
        <ele>1165.26</ele>
        <time>2013-02-21T12:19:47Z</time>
      </trkpt>
      <trkpt lat="42.98839" lon="0.19178">
        <ele>1162.37</ele>
        <time>2013-02-21T12:20:00Z</time>
      </trkpt>
      <trkpt lat="42.98836" lon="0.19194">
        <ele>1161.89</ele>
        <time>2013-02-21T12:20:07Z</time>
      </trkpt>
      <trkpt lat="42.98833" lon="0.19196">
        <ele>1161.89</ele>
        <time>2013-02-21T12:20:23Z</time>
      </trkpt>
      <trkpt lat="42.98833" lon="0.19196">
        <ele>1161.89</ele>
        <time>2013-02-21T12:20:26Z</time>
      </trkpt>
      <trkpt lat="42.98846" lon="0.19204">
        <ele>1158.53</ele>
        <time>2013-02-21T12:20:31Z</time>
      </trkpt>
      <trkpt lat="42.98849" lon="0.19199">
        <ele>1157.56</ele>
        <time>2013-02-21T12:20:32Z</time>
      </trkpt>
      <trkpt lat="42.98858" lon="0.19182">
        <ele>1155.64</ele>
        <time>2013-02-21T12:20:36Z</time>
      </trkpt>
      <trkpt lat="42.98878" lon="0.19149">
        <ele>1152.28</ele>
        <time>2013-02-21T12:20:45Z</time>
      </trkpt>
      <trkpt lat="42.98897" lon="0.19117">
        <ele>1149.87</ele>
        <time>2013-02-21T12:20:58Z</time>
      </trkpt>
      <trkpt lat="42.98902" lon="0.19133">
        <ele>1145.07</ele>
        <time>2013-02-21T12:21:02Z</time>
      </trkpt>
      <trkpt lat="42.98902" lon="0.19146">
        <ele>1142.18</ele>
        <time>2013-02-21T12:21:05Z</time>
      </trkpt>
      <trkpt lat="42.9891" lon="0.19166">
        <ele>1136.42</ele>
        <time>2013-02-21T12:21:10Z</time>
      </trkpt>
      <trkpt lat="42.98912" lon="0.1917">
        <ele>1136.42</ele>
        <time>2013-02-21T12:21:11Z</time>
      </trkpt>
      <trkpt lat="42.98918" lon="0.19177">
        <ele>1133.05</ele>
        <time>2013-02-21T12:21:13Z</time>
      </trkpt>
      <trkpt lat="42.98923" lon="0.19185">
        <ele>1129.69</ele>
        <time>2013-02-21T12:21:15Z</time>
      </trkpt>
      <trkpt lat="42.98926" lon="0.19188">
        <ele>1130.17</ele>
        <time>2013-02-21T12:21:16Z</time>
      </trkpt>
      <trkpt lat="42.98932" lon="0.19197">
        <ele>1125.36</ele>
        <time>2013-02-21T12:21:18Z</time>
      </trkpt>
      <trkpt lat="42.98936" lon="0.19201">
        <ele>1125.84</ele>
        <time>2013-02-21T12:21:19Z</time>
      </trkpt>
      <trkpt lat="42.98939" lon="0.19212">
        <ele>1121.03</ele>
        <time>2013-02-21T12:21:21Z</time>
      </trkpt>
      <trkpt lat="42.98941" lon="0.19215">
        <ele>1121.03</ele>
        <time>2013-02-21T12:21:22Z</time>
      </trkpt>
      <trkpt lat="42.98948" lon="0.19222">
        <ele>1116.71</ele>
        <time>2013-02-21T12:21:24Z</time>
      </trkpt>
      <trkpt lat="42.98949" lon="0.19227">
        <ele>1116.23</ele>
        <time>2013-02-21T12:21:25Z</time>
      </trkpt>
      <trkpt lat="42.98948" lon="0.19237">
        <ele>1115.27</ele>
        <time>2013-02-21T12:21:27Z</time>
      </trkpt>
      <trkpt lat="42.98953" lon="0.19246">
        <ele>1111.42</ele>
        <time>2013-02-21T12:21:32Z</time>
      </trkpt>
      <trkpt lat="42.98953" lon="0.19245">
        <ele>1111.9</ele>
        <time>2013-02-21T12:21:36Z</time>
      </trkpt>
      <trkpt lat="42.98966" lon="0.19253">
        <ele>1107.58</ele>
        <time>2013-02-21T12:21:42Z</time>
      </trkpt>
      <trkpt lat="42.98966" lon="0.19257">
        <ele>1105.65</ele>
        <time>2013-02-21T12:21:43Z</time>
      </trkpt>
      <trkpt lat="42.98967" lon="0.19268">
        <ele>1102.77</ele>
        <time>2013-02-21T12:21:47Z</time>
      </trkpt>
      <trkpt lat="42.98978" lon="0.19271">
        <ele>1099.4</ele>
        <time>2013-02-21T12:21:51Z</time>
      </trkpt>
      <trkpt lat="42.98986" lon="0.19279">
        <ele>1094.6</ele>
        <time>2013-02-21T12:21:54Z</time>
      </trkpt>
      <trkpt lat="42.98986" lon="0.19288">
        <ele>1093.16</ele>
        <time>2013-02-21T12:21:57Z</time>
      </trkpt>
      <trkpt lat="42.98986" lon="0.193">
        <ele>1090.27</ele>
        <time>2013-02-21T12:22:01Z</time>
      </trkpt>
      <trkpt lat="42.98987" lon="0.193">
        <ele>1090.27</ele>
        <time>2013-02-21T12:22:05Z</time>
      </trkpt>
      <trkpt lat="42.98989" lon="0.19317">
        <ele>1086.91</ele>
        <time>2013-02-21T12:22:14Z</time>
      </trkpt>
      <trkpt lat="42.9899" lon="0.19326">
        <ele>1084.99</ele>
        <time>2013-02-21T12:22:19Z</time>
      </trkpt>
      <trkpt lat="42.9899" lon="0.19326">
        <ele>1084.99</ele>
        <time>2013-02-21T12:22:20Z</time>
      </trkpt>
      <trkpt lat="42.98994" lon="0.19337">
        <ele>1082.58</ele>
        <time>2013-02-21T12:22:25Z</time>
      </trkpt>
      <trkpt lat="42.98995" lon="0.1934">
        <ele>1082.58</ele>
        <time>2013-02-21T12:22:27Z</time>
      </trkpt>
      <trkpt lat="42.98997" lon="0.19345">
        <ele>1080.66</ele>
        <time>2013-02-21T12:22:31Z</time>
      </trkpt>
      <trkpt lat="42.98998" lon="0.19373">
        <ele>1077.29</ele>
        <time>2013-02-21T12:22:39Z</time>
      </trkpt>
      <trkpt lat="42.98995" lon="0.19399">
        <ele>1074.89</ele>
        <time>2013-02-21T12:22:46Z</time>
      </trkpt>
      <trkpt lat="42.98994" lon="0.19406">
        <ele>1073.93</ele>
        <time>2013-02-21T12:22:55Z</time>
      </trkpt>
      <trkpt lat="42.98996" lon="0.19404">
        <ele>1073.93</ele>
        <time>2013-02-21T12:23:13Z</time>
      </trkpt>
      <trkpt lat="42.98996" lon="0.19409">
        <ele>1074.41</ele>
        <time>2013-02-21T12:23:28Z</time>
      </trkpt>
      <trkpt lat="42.98996" lon="0.1941">
        <ele>1073.93</ele>
        <time>2013-02-21T12:23:46Z</time>
      </trkpt>
      <trkpt lat="42.98996" lon="0.1941">
        <ele>1073.93</ele>
        <time>2013-02-21T12:23:58Z</time>
      </trkpt>
      <trkpt lat="42.98997" lon="0.19411">
        <ele>1073.93</ele>
        <time>2013-02-21T12:24:08Z</time>
      </trkpt>
      <trkpt lat="42.98995" lon="0.1941">
        <ele>1073.45</ele>
        <time>2013-02-21T12:24:22Z</time>
      </trkpt>
      <trkpt lat="42.98993" lon="0.19411">
        <ele>1073.45</ele>
        <time>2013-02-21T12:24:58Z</time>
      </trkpt>
      <trkpt lat="42.98995" lon="0.19412">
        <ele>1072.97</ele>
        <time>2013-02-21T12:25:30Z</time>
      </trkpt>
      <trkpt lat="42.98992" lon="0.1941">
        <ele>1073.45</ele>
        <time>2013-02-21T12:25:58Z</time>
      </trkpt>
      <trkpt lat="42.98994" lon="0.19411">
        <ele>1068.64</ele>
        <time>2013-02-21T12:26:02Z</time>
      </trkpt>
      <trkpt lat="42.98995" lon="0.19411">
        <ele>1072.01</ele>
        <time>2013-02-21T12:26:03Z</time>
      </trkpt>
      <trkpt lat="42.98995" lon="0.19412">
        <ele>1073.93</ele>
        <time>2013-02-21T12:26:05Z</time>
      </trkpt>
      <trkpt lat="42.98997" lon="0.1941">
        <ele>1073.45</ele>
        <time>2013-02-21T12:26:49Z</time>
      </trkpt>
      <trkpt lat="42.98999" lon="0.19413">
        <ele>1073.45</ele>
        <time>2013-02-21T12:27:24Z</time>
      </trkpt>
      <trkpt lat="42.98999" lon="0.19411">
        <ele>1073.45</ele>
        <time>2013-02-21T12:28:05Z</time>
      </trkpt>
      <trkpt lat="42.98998" lon="0.1941">
        <ele>1073.93</ele>
        <time>2013-02-21T12:28:43Z</time>
      </trkpt>
      <trkpt lat="42.99" lon="0.1941">
        <ele>1073.45</ele>
        <time>2013-02-21T12:29:22Z</time>
      </trkpt>
      <trkpt lat="42.99001" lon="0.19412">
        <ele>1073.45</ele>
        <time>2013-02-21T12:29:53Z</time>
      </trkpt>
      <trkpt lat="42.98998" lon="0.19411">
        <ele>1073.93</ele>
        <time>2013-02-21T12:30:26Z</time>
      </trkpt>
      <trkpt lat="42.98998" lon="0.19409">
        <ele>1073.93</ele>
        <time>2013-02-21T12:31:04Z</time>
      </trkpt>
      <trkpt lat="42.99" lon="0.1941">
        <ele>1073.45</ele>
        <time>2013-02-21T12:31:44Z</time>
      </trkpt>
      <trkpt lat="42.99" lon="0.19409">
        <ele>1073.93</ele>
        <time>2013-02-21T12:32:15Z</time>
      </trkpt>
      <trkpt lat="42.99002" lon="0.19408">
        <ele>1073.93</ele>
        <time>2013-02-21T12:32:50Z</time>
      </trkpt>
      <trkpt lat="42.99004" lon="0.19411">
        <ele>1072.97</ele>
        <time>2013-02-21T12:33:30Z</time>
      </trkpt>
      <trkpt lat="42.98999" lon="0.19406">
        <ele>1073.45</ele>
        <time>2013-02-21T12:34:08Z</time>
      </trkpt>
      <trkpt lat="42.98996" lon="0.19413">
        <ele>1073.93</ele>
        <time>2013-02-21T12:34:40Z</time>
      </trkpt>
      <trkpt lat="42.98998" lon="0.19413">
        <ele>1073.93</ele>
        <time>2013-02-21T12:35:13Z</time>
      </trkpt>
      <trkpt lat="42.98998" lon="0.19413">
        <ele>1074.41</ele>
        <time>2013-02-21T12:35:44Z</time>
      </trkpt>
      <trkpt lat="42.98998" lon="0.19418">
        <ele>1073.93</ele>
        <time>2013-02-21T12:36:15Z</time>
      </trkpt>
      <trkpt lat="42.98998" lon="0.19416">
        <ele>1073.93</ele>
        <time>2013-02-21T12:36:56Z</time>
      </trkpt>
      <trkpt lat="42.99001" lon="0.1941">
        <ele>1080.66</ele>
        <time>2013-02-21T12:37:10Z</time>
      </trkpt>
      <trkpt lat="42.99001" lon="0.1941">
        <ele>1074.89</ele>
        <time>2013-02-21T12:37:11Z</time>
      </trkpt>
      <trkpt lat="42.99001" lon="0.19409">
        <ele>1073.93</ele>
        <time>2013-02-21T12:37:13Z</time>
      </trkpt>
    </trkseg>
  </trk>
</gpx>